<?xml version="1.0" encoding="UTF-8" standalone="no" ?>
<gpx xmlns="http://www.topografix.com/GPX/1/1" xmlns:xsi="http://www.w3.org/2001/XMLSchema-instance" xsi:schemaLocation="http://www.topografix.com/GPX/1/1 http://www.topografix.com/GPX/1/1/gpx.xsd" version="1.1" creator="VisuGPX - https://www.visugpx.com">
  <metadata>
    <name>rando roller du 2015 11 02 au 2015 12 14</name>
    <desc><![CDATA[cumul des parcours]]></desc>
  </metadata>
  <trk>
    <name><![CDATA[lundi 2015 11 23]]></name>
    <trkseg>
      <trkpt lat="48.85741" lon="2.34723">
        <ele>40.400001525879</ele>
        <time>2015-11-23T19:21:07Z</time>
      </trkpt>
      <trkpt lat="48.85738" lon="2.34696">
        <ele>39.79999923706</ele>
        <time>2015-11-23T19:21:38Z</time>
      </trkpt>
      <trkpt lat="48.85719" lon="2.34691">
        <ele>40.599998474121</ele>
        <time>2015-11-23T19:21:58Z</time>
      </trkpt>
      <trkpt lat="48.85701" lon="2.34683">
        <ele>40.79999923706</ele>
        <time>2015-11-23T19:22:04Z</time>
      </trkpt>
      <trkpt lat="48.85683" lon="2.34671">
        <ele>41.599998474121</ele>
        <time>2015-11-23T19:22:10Z</time>
      </trkpt>
      <trkpt lat="48.85665" lon="2.34661">
        <ele>43</ele>
        <time>2015-11-23T19:22:16Z</time>
      </trkpt>
      <trkpt lat="48.85646" lon="2.3465">
        <ele>44.599998474121</ele>
        <time>2015-11-23T19:22:22Z</time>
      </trkpt>
      <trkpt lat="48.85627" lon="2.34639">
        <ele>46.20000076294</ele>
        <time>2015-11-23T19:22:28Z</time>
      </trkpt>
      <trkpt lat="48.85606" lon="2.34634">
        <ele>48</ele>
        <time>2015-11-23T19:22:34Z</time>
      </trkpt>
      <trkpt lat="48.85589" lon="2.34623">
        <ele>47.79999923706</ele>
        <time>2015-11-23T19:22:39Z</time>
      </trkpt>
      <trkpt lat="48.8557" lon="2.34613">
        <ele>47.599998474121</ele>
        <time>2015-11-23T19:22:43Z</time>
      </trkpt>
      <trkpt lat="48.85552" lon="2.34603">
        <ele>47.400001525879</ele>
        <time>2015-11-23T19:22:47Z</time>
      </trkpt>
      <trkpt lat="48.85534" lon="2.34589">
        <ele>47.20000076294</ele>
        <time>2015-11-23T19:22:51Z</time>
      </trkpt>
      <trkpt lat="48.85515" lon="2.34575">
        <ele>46.400001525879</ele>
        <time>2015-11-23T19:22:56Z</time>
      </trkpt>
      <trkpt lat="48.85495" lon="2.34562">
        <ele>45</ele>
        <time>2015-11-23T19:23:01Z</time>
      </trkpt>
      <trkpt lat="48.85477" lon="2.34546">
        <ele>43.79999923706</ele>
        <time>2015-11-23T19:23:06Z</time>
      </trkpt>
      <trkpt lat="48.85458" lon="2.34529">
        <ele>42.400001525879</ele>
        <time>2015-11-23T19:23:11Z</time>
      </trkpt>
      <trkpt lat="48.8544" lon="2.34514">
        <ele>41</ele>
        <time>2015-11-23T19:23:16Z</time>
      </trkpt>
      <trkpt lat="48.85436" lon="2.34512">
        <ele>41.20000076294</ele>
        <time>2015-11-23T19:23:17Z</time>
      </trkpt>
      <trkpt lat="48.85423" lon="2.34485">
        <ele>41.599998474121</ele>
        <time>2015-11-23T19:23:23Z</time>
      </trkpt>
      <trkpt lat="48.8542" lon="2.34481">
        <ele>41.599998474121</ele>
        <time>2015-11-23T19:23:24Z</time>
      </trkpt>
      <trkpt lat="48.85406" lon="2.34458">
        <ele>42</ele>
        <time>2015-11-23T19:23:30Z</time>
      </trkpt>
      <trkpt lat="48.85392" lon="2.34439">
        <ele>42.20000076294</ele>
        <time>2015-11-23T19:23:37Z</time>
      </trkpt>
      <trkpt lat="48.85383" lon="2.3443">
        <ele>42.599998474121</ele>
        <time>2015-11-23T19:23:47Z</time>
      </trkpt>
      <trkpt lat="48.85375" lon="2.34414">
        <ele>42.599998474121</ele>
        <time>2015-11-23T19:24:19Z</time>
      </trkpt>
      <trkpt lat="48.85362" lon="2.34395">
        <ele>44.20000076294</ele>
        <time>2015-11-23T19:24:24Z</time>
      </trkpt>
      <trkpt lat="48.85348" lon="2.34377">
        <ele>45.599998474121</ele>
        <time>2015-11-23T19:24:28Z</time>
      </trkpt>
      <trkpt lat="48.85335" lon="2.34355">
        <ele>46.599998474121</ele>
        <time>2015-11-23T19:24:32Z</time>
      </trkpt>
      <trkpt lat="48.85323" lon="2.34331">
        <ele>47.79999923706</ele>
        <time>2015-11-23T19:24:37Z</time>
      </trkpt>
      <trkpt lat="48.85323" lon="2.34301">
        <ele>48.20000076294</ele>
        <time>2015-11-23T19:24:44Z</time>
      </trkpt>
      <trkpt lat="48.85325" lon="2.34273">
        <ele>48.20000076294</ele>
        <time>2015-11-23T19:24:50Z</time>
      </trkpt>
      <trkpt lat="48.85329" lon="2.34241">
        <ele>47.599998474121</ele>
        <time>2015-11-23T19:24:55Z</time>
      </trkpt>
      <trkpt lat="48.85331" lon="2.34213">
        <ele>46</ele>
        <time>2015-11-23T19:24:59Z</time>
      </trkpt>
      <trkpt lat="48.85331" lon="2.34186">
        <ele>44.599998474121</ele>
        <time>2015-11-23T19:25:03Z</time>
      </trkpt>
      <trkpt lat="48.85337" lon="2.34155">
        <ele>43.400001525879</ele>
        <time>2015-11-23T19:25:09Z</time>
      </trkpt>
      <trkpt lat="48.85333" lon="2.34141">
        <ele>43.20000076294</ele>
        <time>2015-11-23T19:25:14Z</time>
      </trkpt>
      <trkpt lat="48.85331" lon="2.34111">
        <ele>43.599998474121</ele>
        <time>2015-11-23T19:25:21Z</time>
      </trkpt>
      <trkpt lat="48.85317" lon="2.34099">
        <ele>43.79999923706</ele>
        <time>2015-11-23T19:25:25Z</time>
      </trkpt>
      <trkpt lat="48.85299" lon="2.34085">
        <ele>44</ele>
        <time>2015-11-23T19:25:30Z</time>
      </trkpt>
      <trkpt lat="48.85281" lon="2.34074">
        <ele>44</ele>
        <time>2015-11-23T19:25:36Z</time>
      </trkpt>
      <trkpt lat="48.85262" lon="2.34064">
        <ele>44.400001525879</ele>
        <time>2015-11-23T19:25:41Z</time>
      </trkpt>
      <trkpt lat="48.85242" lon="2.34061">
        <ele>44.79999923706</ele>
        <time>2015-11-23T19:25:46Z</time>
      </trkpt>
      <trkpt lat="48.85236" lon="2.34058">
        <ele>45</ele>
        <time>2015-11-23T19:25:48Z</time>
      </trkpt>
      <trkpt lat="48.85221" lon="2.34057">
        <ele>45.20000076294</ele>
        <time>2015-11-23T19:25:56Z</time>
      </trkpt>
      <trkpt lat="48.85217" lon="2.34048">
        <ele>45.400001525879</ele>
        <time>2015-11-23T19:26:01Z</time>
      </trkpt>
      <trkpt lat="48.85216" lon="2.34045">
        <ele>45.599998474121</ele>
        <time>2015-11-23T19:26:02Z</time>
      </trkpt>
      <trkpt lat="48.85216" lon="2.34043">
        <ele>45.599998474121</ele>
        <time>2015-11-23T19:26:06Z</time>
      </trkpt>
      <trkpt lat="48.85211" lon="2.34018">
        <ele>46.20000076294</ele>
        <time>2015-11-23T19:26:51Z</time>
      </trkpt>
      <trkpt lat="48.85199" lon="2.33995">
        <ele>46.79999923706</ele>
        <time>2015-11-23T19:26:57Z</time>
      </trkpt>
      <trkpt lat="48.85182" lon="2.33982">
        <ele>48</ele>
        <time>2015-11-23T19:27:02Z</time>
      </trkpt>
      <trkpt lat="48.85165" lon="2.33987">
        <ele>48</ele>
        <time>2015-11-23T19:27:07Z</time>
      </trkpt>
      <trkpt lat="48.85149" lon="2.34008">
        <ele>47.20000076294</ele>
        <time>2015-11-23T19:27:14Z</time>
      </trkpt>
      <trkpt lat="48.85145" lon="2.3401">
        <ele>47.20000076294</ele>
        <time>2015-11-23T19:27:15Z</time>
      </trkpt>
      <trkpt lat="48.85128" lon="2.33998">
        <ele>47.79999923706</ele>
        <time>2015-11-23T19:27:20Z</time>
      </trkpt>
      <trkpt lat="48.85114" lon="2.3398">
        <ele>49.20000076294</ele>
        <time>2015-11-23T19:27:25Z</time>
      </trkpt>
      <trkpt lat="48.85105" lon="2.33971">
        <ele>50</ele>
        <time>2015-11-23T19:27:31Z</time>
      </trkpt>
      <trkpt lat="48.85096" lon="2.33954">
        <ele>51.400001525879</ele>
        <time>2015-11-23T19:27:49Z</time>
      </trkpt>
      <trkpt lat="48.85075" lon="2.33951">
        <ele>52.400001525879</ele>
        <time>2015-11-23T19:28:01Z</time>
      </trkpt>
      <trkpt lat="48.85056" lon="2.33941">
        <ele>53.79999923706</ele>
        <time>2015-11-23T19:28:06Z</time>
      </trkpt>
      <trkpt lat="48.85036" lon="2.33933">
        <ele>55.20000076294</ele>
        <time>2015-11-23T19:28:11Z</time>
      </trkpt>
      <trkpt lat="48.85015" lon="2.33929">
        <ele>56.20000076294</ele>
        <time>2015-11-23T19:28:16Z</time>
      </trkpt>
      <trkpt lat="48.84998" lon="2.33918">
        <ele>56.599998474121</ele>
        <time>2015-11-23T19:28:23Z</time>
      </trkpt>
      <trkpt lat="48.84993" lon="2.33908">
        <ele>56.20000076294</ele>
        <time>2015-11-23T19:28:27Z</time>
      </trkpt>
      <trkpt lat="48.84997" lon="2.33881">
        <ele>54.400001525879</ele>
        <time>2015-11-23T19:28:37Z</time>
      </trkpt>
      <trkpt lat="48.8499" lon="2.33856">
        <ele>53.20000076294</ele>
        <time>2015-11-23T19:28:43Z</time>
      </trkpt>
      <trkpt lat="48.84981" lon="2.33844">
        <ele>52.400001525879</ele>
        <time>2015-11-23T19:28:47Z</time>
      </trkpt>
      <trkpt lat="48.84977" lon="2.33835">
        <ele>51.79999923706</ele>
        <time>2015-11-23T19:28:50Z</time>
      </trkpt>
      <trkpt lat="48.84982" lon="2.33807">
        <ele>53</ele>
        <time>2015-11-23T19:28:56Z</time>
      </trkpt>
      <trkpt lat="48.8498" lon="2.33801">
        <ele>53</ele>
        <time>2015-11-23T19:28:58Z</time>
      </trkpt>
      <trkpt lat="48.84961" lon="2.33794">
        <ele>52</ele>
        <time>2015-11-23T19:29:03Z</time>
      </trkpt>
      <trkpt lat="48.84942" lon="2.33791">
        <ele>50.599998474121</ele>
        <time>2015-11-23T19:29:08Z</time>
      </trkpt>
      <trkpt lat="48.8493" lon="2.33784">
        <ele>51.20000076294</ele>
        <time>2015-11-23T19:29:13Z</time>
      </trkpt>
      <trkpt lat="48.84928" lon="2.33752">
        <ele>52.400001525879</ele>
        <time>2015-11-23T19:29:19Z</time>
      </trkpt>
      <trkpt lat="48.84927" lon="2.33721">
        <ele>52.20000076294</ele>
        <time>2015-11-23T19:29:24Z</time>
      </trkpt>
      <trkpt lat="48.84927" lon="2.33693">
        <ele>52.20000076294</ele>
        <time>2015-11-23T19:29:28Z</time>
      </trkpt>
      <trkpt lat="48.8493" lon="2.33662">
        <ele>52</ele>
        <time>2015-11-23T19:29:33Z</time>
      </trkpt>
      <trkpt lat="48.84929" lon="2.33633">
        <ele>51.599998474121</ele>
        <time>2015-11-23T19:29:37Z</time>
      </trkpt>
      <trkpt lat="48.84929" lon="2.33603">
        <ele>51.20000076294</ele>
        <time>2015-11-23T19:29:41Z</time>
      </trkpt>
      <trkpt lat="48.84926" lon="2.33582">
        <ele>51</ele>
        <time>2015-11-23T19:29:44Z</time>
      </trkpt>
      <trkpt lat="48.84924" lon="2.33563">
        <ele>50.599998474121</ele>
        <time>2015-11-23T19:29:47Z</time>
      </trkpt>
      <trkpt lat="48.84918" lon="2.33535">
        <ele>49</ele>
        <time>2015-11-23T19:29:51Z</time>
      </trkpt>
      <trkpt lat="48.84915" lon="2.33519">
        <ele>48.20000076294</ele>
        <time>2015-11-23T19:29:53Z</time>
      </trkpt>
      <trkpt lat="48.84908" lon="2.33486">
        <ele>46.79999923706</ele>
        <time>2015-11-23T19:29:57Z</time>
      </trkpt>
      <trkpt lat="48.84902" lon="2.33459">
        <ele>46.400001525879</ele>
        <time>2015-11-23T19:30:01Z</time>
      </trkpt>
      <trkpt lat="48.849" lon="2.33447">
        <ele>46.79999923706</ele>
        <time>2015-11-23T19:30:03Z</time>
      </trkpt>
      <trkpt lat="48.84895" lon="2.33419">
        <ele>47.79999923706</ele>
        <time>2015-11-23T19:30:07Z</time>
      </trkpt>
      <trkpt lat="48.84894" lon="2.33412">
        <ele>48</ele>
        <time>2015-11-23T19:30:08Z</time>
      </trkpt>
      <trkpt lat="48.84888" lon="2.3339">
        <ele>49</ele>
        <time>2015-11-23T19:30:11Z</time>
      </trkpt>
      <trkpt lat="48.84881" lon="2.33363">
        <ele>50</ele>
        <time>2015-11-23T19:30:15Z</time>
      </trkpt>
      <trkpt lat="48.84873" lon="2.33336">
        <ele>51</ele>
        <time>2015-11-23T19:30:20Z</time>
      </trkpt>
      <trkpt lat="48.84867" lon="2.3331">
        <ele>51.400001525879</ele>
        <time>2015-11-23T19:30:25Z</time>
      </trkpt>
      <trkpt lat="48.84864" lon="2.333">
        <ele>51.400001525879</ele>
        <time>2015-11-23T19:30:27Z</time>
      </trkpt>
      <trkpt lat="48.84857" lon="2.33284">
        <ele>51.599998474121</ele>
        <time>2015-11-23T19:30:31Z</time>
      </trkpt>
      <trkpt lat="48.84852" lon="2.33276">
        <ele>51.599998474121</ele>
        <time>2015-11-23T19:30:33Z</time>
      </trkpt>
      <trkpt lat="48.84838" lon="2.33267">
        <ele>51.599998474121</ele>
        <time>2015-11-23T19:30:37Z</time>
      </trkpt>
      <trkpt lat="48.84834" lon="2.33266">
        <ele>51.599998474121</ele>
        <time>2015-11-23T19:30:38Z</time>
      </trkpt>
      <trkpt lat="48.84813" lon="2.33263">
        <ele>51.20000076294</ele>
        <time>2015-11-23T19:30:43Z</time>
      </trkpt>
      <trkpt lat="48.84805" lon="2.33261">
        <ele>51.20000076294</ele>
        <time>2015-11-23T19:30:45Z</time>
      </trkpt>
      <trkpt lat="48.84783" lon="2.33255">
        <ele>51</ele>
        <time>2015-11-23T19:30:50Z</time>
      </trkpt>
      <trkpt lat="48.84764" lon="2.33255">
        <ele>51.20000076294</ele>
        <time>2015-11-23T19:30:54Z</time>
      </trkpt>
      <trkpt lat="48.84746" lon="2.33253">
        <ele>51.79999923706</ele>
        <time>2015-11-23T19:30:58Z</time>
      </trkpt>
      <trkpt lat="48.84727" lon="2.33252">
        <ele>52.599998474121</ele>
        <time>2015-11-23T19:31:02Z</time>
      </trkpt>
      <trkpt lat="48.84722" lon="2.33252">
        <ele>52.599998474121</ele>
        <time>2015-11-23T19:31:03Z</time>
      </trkpt>
      <trkpt lat="48.8471" lon="2.33251">
        <ele>53.20000076294</ele>
        <time>2015-11-23T19:31:06Z</time>
      </trkpt>
      <trkpt lat="48.84701" lon="2.33251">
        <ele>53.400001525879</ele>
        <time>2015-11-23T19:31:08Z</time>
      </trkpt>
      <trkpt lat="48.84689" lon="2.33247">
        <ele>54</ele>
        <time>2015-11-23T19:31:11Z</time>
      </trkpt>
      <trkpt lat="48.84674" lon="2.33246">
        <ele>54</ele>
        <time>2015-11-23T19:31:15Z</time>
      </trkpt>
      <trkpt lat="48.84656" lon="2.33245">
        <ele>54</ele>
        <time>2015-11-23T19:31:19Z</time>
      </trkpt>
      <trkpt lat="48.84641" lon="2.33245">
        <ele>54</ele>
        <time>2015-11-23T19:31:22Z</time>
      </trkpt>
      <trkpt lat="48.84623" lon="2.33244">
        <ele>54</ele>
        <time>2015-11-23T19:31:26Z</time>
      </trkpt>
      <trkpt lat="48.84613" lon="2.33244">
        <ele>54</ele>
        <time>2015-11-23T19:31:28Z</time>
      </trkpt>
      <trkpt lat="48.84594" lon="2.33242">
        <ele>53.79999923706</ele>
        <time>2015-11-23T19:31:32Z</time>
      </trkpt>
      <trkpt lat="48.84576" lon="2.33241">
        <ele>53.20000076294</ele>
        <time>2015-11-23T19:31:36Z</time>
      </trkpt>
      <trkpt lat="48.84554" lon="2.33238">
        <ele>52.79999923706</ele>
        <time>2015-11-23T19:31:41Z</time>
      </trkpt>
      <trkpt lat="48.84543" lon="2.33238">
        <ele>52.20000076294</ele>
        <time>2015-11-23T19:31:44Z</time>
      </trkpt>
      <trkpt lat="48.84529" lon="2.33238">
        <ele>51.79999923706</ele>
        <time>2015-11-23T19:31:48Z</time>
      </trkpt>
      <trkpt lat="48.84516" lon="2.33236">
        <ele>51.599998474121</ele>
        <time>2015-11-23T19:31:52Z</time>
      </trkpt>
      <trkpt lat="48.84497" lon="2.33232">
        <ele>52.400001525879</ele>
        <time>2015-11-23T19:31:59Z</time>
      </trkpt>
      <trkpt lat="48.84495" lon="2.33232">
        <ele>52.400001525879</ele>
        <time>2015-11-23T19:32:00Z</time>
      </trkpt>
      <trkpt lat="48.84476" lon="2.33227">
        <ele>53.400001525879</ele>
        <time>2015-11-23T19:32:11Z</time>
      </trkpt>
      <trkpt lat="48.84466" lon="2.33201">
        <ele>54.20000076294</ele>
        <time>2015-11-23T19:32:20Z</time>
      </trkpt>
      <trkpt lat="48.8445" lon="2.33187">
        <ele>55.20000076294</ele>
        <time>2015-11-23T19:32:25Z</time>
      </trkpt>
      <trkpt lat="48.84437" lon="2.33168">
        <ele>56</ele>
        <time>2015-11-23T19:32:30Z</time>
      </trkpt>
      <trkpt lat="48.84424" lon="2.33142">
        <ele>56.400001525879</ele>
        <time>2015-11-23T19:32:36Z</time>
      </trkpt>
      <trkpt lat="48.84412" lon="2.33115">
        <ele>56.79999923706</ele>
        <time>2015-11-23T19:32:42Z</time>
      </trkpt>
      <trkpt lat="48.84402" lon="2.33087">
        <ele>57.400001525879</ele>
        <time>2015-11-23T19:32:46Z</time>
      </trkpt>
      <trkpt lat="48.84389" lon="2.33066">
        <ele>57.79999923706</ele>
        <time>2015-11-23T19:32:53Z</time>
      </trkpt>
      <trkpt lat="48.84373" lon="2.33052">
        <ele>57.79999923706</ele>
        <time>2015-11-23T19:33:00Z</time>
      </trkpt>
      <trkpt lat="48.84355" lon="2.33038">
        <ele>58</ele>
        <time>2015-11-23T19:33:06Z</time>
      </trkpt>
      <trkpt lat="48.84339" lon="2.3302">
        <ele>58.599998474121</ele>
        <time>2015-11-23T19:33:11Z</time>
      </trkpt>
      <trkpt lat="48.84324" lon="2.32997">
        <ele>59.400001525879</ele>
        <time>2015-11-23T19:33:16Z</time>
      </trkpt>
      <trkpt lat="48.84313" lon="2.32974">
        <ele>59.599998474121</ele>
        <time>2015-11-23T19:33:21Z</time>
      </trkpt>
      <trkpt lat="48.84314" lon="2.3295">
        <ele>59.599998474121</ele>
        <time>2015-11-23T19:33:27Z</time>
      </trkpt>
      <trkpt lat="48.84306" lon="2.32925">
        <ele>59.79999923706</ele>
        <time>2015-11-23T19:34:03Z</time>
      </trkpt>
      <trkpt lat="48.84299" lon="2.32919">
        <ele>60</ele>
        <time>2015-11-23T19:34:12Z</time>
      </trkpt>
      <trkpt lat="48.84289" lon="2.32921">
        <ele>60</ele>
        <time>2015-11-23T19:34:16Z</time>
      </trkpt>
      <trkpt lat="48.84271" lon="2.3293">
        <ele>60</ele>
        <time>2015-11-23T19:34:21Z</time>
      </trkpt>
      <trkpt lat="48.84252" lon="2.32937">
        <ele>60.20000076294</ele>
        <time>2015-11-23T19:34:28Z</time>
      </trkpt>
      <trkpt lat="48.84247" lon="2.32939">
        <ele>60.400001525879</ele>
        <time>2015-11-23T19:34:30Z</time>
      </trkpt>
      <trkpt lat="48.84229" lon="2.32944">
        <ele>60.599998474121</ele>
        <time>2015-11-23T19:34:36Z</time>
      </trkpt>
      <trkpt lat="48.84227" lon="2.32943">
        <ele>60.599998474121</ele>
        <time>2015-11-23T19:34:37Z</time>
      </trkpt>
      <trkpt lat="48.84209" lon="2.32935">
        <ele>60.79999923706</ele>
        <time>2015-11-23T19:34:46Z</time>
      </trkpt>
      <trkpt lat="48.84191" lon="2.32932">
        <ele>61</ele>
        <time>2015-11-23T19:34:52Z</time>
      </trkpt>
      <trkpt lat="48.84185" lon="2.32924">
        <ele>61</ele>
        <time>2015-11-23T19:34:55Z</time>
      </trkpt>
      <trkpt lat="48.84181" lon="2.32895">
        <ele>61</ele>
        <time>2015-11-23T19:35:03Z</time>
      </trkpt>
      <trkpt lat="48.84179" lon="2.32866">
        <ele>61.400001525879</ele>
        <time>2015-11-23T19:35:12Z</time>
      </trkpt>
      <trkpt lat="48.84175" lon="2.32837">
        <ele>61.599998474121</ele>
        <time>2015-11-23T19:35:20Z</time>
      </trkpt>
      <trkpt lat="48.8417" lon="2.3281">
        <ele>62.400001525879</ele>
        <time>2015-11-23T19:35:25Z</time>
      </trkpt>
      <trkpt lat="48.84167" lon="2.32783">
        <ele>62.599998474121</ele>
        <time>2015-11-23T19:35:31Z</time>
      </trkpt>
      <trkpt lat="48.84162" lon="2.32752">
        <ele>62.599998474121</ele>
        <time>2015-11-23T19:35:38Z</time>
      </trkpt>
      <trkpt lat="48.84147" lon="2.32735">
        <ele>62.599998474121</ele>
        <time>2015-11-23T19:35:46Z</time>
      </trkpt>
      <trkpt lat="48.84129" lon="2.32738">
        <ele>63.20000076294</ele>
        <time>2015-11-23T19:35:53Z</time>
      </trkpt>
      <trkpt lat="48.84109" lon="2.32746">
        <ele>63.79999923706</ele>
        <time>2015-11-23T19:36:02Z</time>
      </trkpt>
      <trkpt lat="48.8409" lon="2.32747">
        <ele>63.20000076294</ele>
        <time>2015-11-23T19:36:07Z</time>
      </trkpt>
      <trkpt lat="48.84067" lon="2.32744">
        <ele>62.20000076294</ele>
        <time>2015-11-23T19:36:10Z</time>
      </trkpt>
      <trkpt lat="48.84059" lon="2.32744">
        <ele>61.79999923706</ele>
        <time>2015-11-23T19:36:12Z</time>
      </trkpt>
      <trkpt lat="48.84057" lon="2.32732">
        <ele>61.599998474121</ele>
        <time>2015-11-23T19:36:16Z</time>
      </trkpt>
      <trkpt lat="48.84062" lon="2.327">
        <ele>61.79999923706</ele>
        <time>2015-11-23T19:36:22Z</time>
      </trkpt>
      <trkpt lat="48.84072" lon="2.3267">
        <ele>61.400001525879</ele>
        <time>2015-11-23T19:36:27Z</time>
      </trkpt>
      <trkpt lat="48.84081" lon="2.32639">
        <ele>60.79999923706</ele>
        <time>2015-11-23T19:36:32Z</time>
      </trkpt>
      <trkpt lat="48.84088" lon="2.32613">
        <ele>60.400001525879</ele>
        <time>2015-11-23T19:36:36Z</time>
      </trkpt>
      <trkpt lat="48.84096" lon="2.32587">
        <ele>60</ele>
        <time>2015-11-23T19:36:40Z</time>
      </trkpt>
      <trkpt lat="48.84104" lon="2.32558">
        <ele>60.400001525879</ele>
        <time>2015-11-23T19:36:44Z</time>
      </trkpt>
      <trkpt lat="48.84113" lon="2.32529">
        <ele>61.599998474121</ele>
        <time>2015-11-23T19:36:48Z</time>
      </trkpt>
      <trkpt lat="48.84121" lon="2.325">
        <ele>62.20000076294</ele>
        <time>2015-11-23T19:36:53Z</time>
      </trkpt>
      <trkpt lat="48.84129" lon="2.32476">
        <ele>61.79999923706</ele>
        <time>2015-11-23T19:37:02Z</time>
      </trkpt>
      <trkpt lat="48.84121" lon="2.32474">
        <ele>61.599998474121</ele>
        <time>2015-11-23T19:37:06Z</time>
      </trkpt>
      <trkpt lat="48.84113" lon="2.32465">
        <ele>61.400001525879</ele>
        <time>2015-11-23T19:37:12Z</time>
      </trkpt>
      <trkpt lat="48.84095" lon="2.32461">
        <ele>61.20000076294</ele>
        <time>2015-11-23T19:37:26Z</time>
      </trkpt>
      <trkpt lat="48.84078" lon="2.32448">
        <ele>61.20000076294</ele>
        <time>2015-11-23T19:37:33Z</time>
      </trkpt>
      <trkpt lat="48.8406" lon="2.32437">
        <ele>61</ele>
        <time>2015-11-23T19:37:39Z</time>
      </trkpt>
      <trkpt lat="48.84041" lon="2.32422">
        <ele>61</ele>
        <time>2015-11-23T19:37:45Z</time>
      </trkpt>
      <trkpt lat="48.84024" lon="2.3241">
        <ele>61.20000076294</ele>
        <time>2015-11-23T19:37:50Z</time>
      </trkpt>
      <trkpt lat="48.84006" lon="2.32398">
        <ele>62.400001525879</ele>
        <time>2015-11-23T19:37:56Z</time>
      </trkpt>
      <trkpt lat="48.83988" lon="2.32385">
        <ele>63.599998474121</ele>
        <time>2015-11-23T19:38:02Z</time>
      </trkpt>
      <trkpt lat="48.83972" lon="2.32371">
        <ele>65</ele>
        <time>2015-11-23T19:38:07Z</time>
      </trkpt>
      <trkpt lat="48.83956" lon="2.32358">
        <ele>66.199996948242</ele>
        <time>2015-11-23T19:38:12Z</time>
      </trkpt>
      <trkpt lat="48.83937" lon="2.32344">
        <ele>67.599998474121</ele>
        <time>2015-11-23T19:38:18Z</time>
      </trkpt>
      <trkpt lat="48.8392" lon="2.32331">
        <ele>68.199996948242</ele>
        <time>2015-11-23T19:38:23Z</time>
      </trkpt>
      <trkpt lat="48.83902" lon="2.32316">
        <ele>68.199996948242</ele>
        <time>2015-11-23T19:38:29Z</time>
      </trkpt>
      <trkpt lat="48.83885" lon="2.323">
        <ele>68</ele>
        <time>2015-11-23T19:38:35Z</time>
      </trkpt>
      <trkpt lat="48.83868" lon="2.32285">
        <ele>67.800003051758</ele>
        <time>2015-11-23T19:38:41Z</time>
      </trkpt>
      <trkpt lat="48.83855" lon="2.32268">
        <ele>67.599998474121</ele>
        <time>2015-11-23T19:38:50Z</time>
      </trkpt>
      <trkpt lat="48.83868" lon="2.32248">
        <ele>67.599998474121</ele>
        <time>2015-11-23T19:39:04Z</time>
      </trkpt>
      <trkpt lat="48.83889" lon="2.32239">
        <ele>69.199996948242</ele>
        <time>2015-11-23T19:39:10Z</time>
      </trkpt>
      <trkpt lat="48.83908" lon="2.32229">
        <ele>70.800003051758</ele>
        <time>2015-11-23T19:39:15Z</time>
      </trkpt>
      <trkpt lat="48.83913" lon="2.32227">
        <ele>71.199996948242</ele>
        <time>2015-11-23T19:39:16Z</time>
      </trkpt>
      <trkpt lat="48.83935" lon="2.3222">
        <ele>70.800003051758</ele>
        <time>2015-11-23T19:39:20Z</time>
      </trkpt>
      <trkpt lat="48.83952" lon="2.32209">
        <ele>69.599998474121</ele>
        <time>2015-11-23T19:39:24Z</time>
      </trkpt>
      <trkpt lat="48.8397" lon="2.32203">
        <ele>68.199996948242</ele>
        <time>2015-11-23T19:39:27Z</time>
      </trkpt>
      <trkpt lat="48.83988" lon="2.32195">
        <ele>66.599998474121</ele>
        <time>2015-11-23T19:39:33Z</time>
      </trkpt>
      <trkpt lat="48.83998" lon="2.32167">
        <ele>65.199996948242</ele>
        <time>2015-11-23T19:39:39Z</time>
      </trkpt>
      <trkpt lat="48.83985" lon="2.32146">
        <ele>65.400001525879</ele>
        <time>2015-11-23T19:39:49Z</time>
      </trkpt>
      <trkpt lat="48.83983" lon="2.32144">
        <ele>65.599998474121</ele>
        <time>2015-11-23T19:39:50Z</time>
      </trkpt>
      <trkpt lat="48.83967" lon="2.3213">
        <ele>66.400001525879</ele>
        <time>2015-11-23T19:39:57Z</time>
      </trkpt>
      <trkpt lat="48.83949" lon="2.32113">
        <ele>67.400001525879</ele>
        <time>2015-11-23T19:40:04Z</time>
      </trkpt>
      <trkpt lat="48.83936" lon="2.3209">
        <ele>67.800003051758</ele>
        <time>2015-11-23T19:40:11Z</time>
      </trkpt>
      <trkpt lat="48.83918" lon="2.32077">
        <ele>70.800003051758</ele>
        <time>2015-11-23T19:40:17Z</time>
      </trkpt>
      <trkpt lat="48.83894" lon="2.32069">
        <ele>74.800003051758</ele>
        <time>2015-11-23T19:40:21Z</time>
      </trkpt>
      <trkpt lat="48.83877" lon="2.32054">
        <ele>76.400001525879</ele>
        <time>2015-11-23T19:40:25Z</time>
      </trkpt>
      <trkpt lat="48.83859" lon="2.32034">
        <ele>77.800003051758</ele>
        <time>2015-11-23T19:40:30Z</time>
      </trkpt>
      <trkpt lat="48.83838" lon="2.32027">
        <ele>77.800003051758</ele>
        <time>2015-11-23T19:40:36Z</time>
      </trkpt>
      <trkpt lat="48.8382" lon="2.32024">
        <ele>77.599998474121</ele>
        <time>2015-11-23T19:40:42Z</time>
      </trkpt>
      <trkpt lat="48.83813" lon="2.32023">
        <ele>77.599998474121</ele>
        <time>2015-11-23T19:40:45Z</time>
      </trkpt>
      <trkpt lat="48.83797" lon="2.32007">
        <ele>76</ele>
        <time>2015-11-23T19:40:50Z</time>
      </trkpt>
      <trkpt lat="48.83795" lon="2.32006">
        <ele>75.800003051758</ele>
        <time>2015-11-23T19:40:51Z</time>
      </trkpt>
      <trkpt lat="48.8378" lon="2.3198">
        <ele>75.400001525879</ele>
        <time>2015-11-23T19:40:57Z</time>
      </trkpt>
      <trkpt lat="48.83765" lon="2.31962">
        <ele>75.400001525879</ele>
        <time>2015-11-23T19:41:02Z</time>
      </trkpt>
      <trkpt lat="48.83753" lon="2.31939">
        <ele>75.400001525879</ele>
        <time>2015-11-23T19:41:07Z</time>
      </trkpt>
      <trkpt lat="48.83744" lon="2.31912">
        <ele>75.400001525879</ele>
        <time>2015-11-23T19:41:12Z</time>
      </trkpt>
      <trkpt lat="48.83736" lon="2.31883">
        <ele>72.800003051758</ele>
        <time>2015-11-23T19:41:20Z</time>
      </trkpt>
      <trkpt lat="48.83743" lon="2.31855">
        <ele>71.800003051758</ele>
        <time>2015-11-23T19:41:27Z</time>
      </trkpt>
      <trkpt lat="48.83747" lon="2.31826">
        <ele>70.800003051758</ele>
        <time>2015-11-23T19:41:34Z</time>
      </trkpt>
      <trkpt lat="48.83758" lon="2.31799">
        <ele>71.199996948242</ele>
        <time>2015-11-23T19:41:39Z</time>
      </trkpt>
      <trkpt lat="48.83771" lon="2.31781">
        <ele>71.800003051758</ele>
        <time>2015-11-23T19:41:44Z</time>
      </trkpt>
      <trkpt lat="48.83784" lon="2.31759">
        <ele>72</ele>
        <time>2015-11-23T19:41:51Z</time>
      </trkpt>
      <trkpt lat="48.83801" lon="2.31745">
        <ele>71.199996948242</ele>
        <time>2015-11-23T19:41:59Z</time>
      </trkpt>
      <trkpt lat="48.8382" lon="2.31735">
        <ele>70.800003051758</ele>
        <time>2015-11-23T19:42:05Z</time>
      </trkpt>
      <trkpt lat="48.83834" lon="2.31717">
        <ele>70.199996948242</ele>
        <time>2015-11-23T19:42:11Z</time>
      </trkpt>
      <trkpt lat="48.83833" lon="2.31702">
        <ele>69.800003051758</ele>
        <time>2015-11-23T19:42:15Z</time>
      </trkpt>
      <trkpt lat="48.83834" lon="2.31699">
        <ele>69.800003051758</ele>
        <time>2015-11-23T19:42:16Z</time>
      </trkpt>
      <trkpt lat="48.83849" lon="2.31678">
        <ele>70</ele>
        <time>2015-11-23T19:42:23Z</time>
      </trkpt>
      <trkpt lat="48.83864" lon="2.31655">
        <ele>70.599998474121</ele>
        <time>2015-11-23T19:42:29Z</time>
      </trkpt>
      <trkpt lat="48.83866" lon="2.31634">
        <ele>70.800003051758</ele>
        <time>2015-11-23T19:42:38Z</time>
      </trkpt>
      <trkpt lat="48.83865" lon="2.31631">
        <ele>70.599998474121</ele>
        <time>2015-11-23T19:42:39Z</time>
      </trkpt>
      <trkpt lat="48.8386" lon="2.31605">
        <ele>70.199996948242</ele>
        <time>2015-11-23T19:42:45Z</time>
      </trkpt>
      <trkpt lat="48.83855" lon="2.31578">
        <ele>69.800003051758</ele>
        <time>2015-11-23T19:42:50Z</time>
      </trkpt>
      <trkpt lat="48.83865" lon="2.31551">
        <ele>69.599998474121</ele>
        <time>2015-11-23T19:42:55Z</time>
      </trkpt>
      <trkpt lat="48.83877" lon="2.31523">
        <ele>69.199996948242</ele>
        <time>2015-11-23T19:43:01Z</time>
      </trkpt>
      <trkpt lat="48.83868" lon="2.31494">
        <ele>66.400001525879</ele>
        <time>2015-11-23T19:43:08Z</time>
      </trkpt>
      <trkpt lat="48.83866" lon="2.31465">
        <ele>65.199996948242</ele>
        <time>2015-11-23T19:43:13Z</time>
      </trkpt>
      <trkpt lat="48.83864" lon="2.31437">
        <ele>64.199996948242</ele>
        <time>2015-11-23T19:43:17Z</time>
      </trkpt>
      <trkpt lat="48.83862" lon="2.31404">
        <ele>63.20000076294</ele>
        <time>2015-11-23T19:43:21Z</time>
      </trkpt>
      <trkpt lat="48.83859" lon="2.31372">
        <ele>63</ele>
        <time>2015-11-23T19:43:25Z</time>
      </trkpt>
      <trkpt lat="48.83859" lon="2.31337">
        <ele>63</ele>
        <time>2015-11-23T19:43:29Z</time>
      </trkpt>
      <trkpt lat="48.83859" lon="2.31304">
        <ele>63.400001525879</ele>
        <time>2015-11-23T19:43:33Z</time>
      </trkpt>
      <trkpt lat="48.83861" lon="2.31271">
        <ele>63.79999923706</ele>
        <time>2015-11-23T19:43:37Z</time>
      </trkpt>
      <trkpt lat="48.83863" lon="2.31238">
        <ele>64</ele>
        <time>2015-11-23T19:43:41Z</time>
      </trkpt>
      <trkpt lat="48.8386" lon="2.31213">
        <ele>64.400001525879</ele>
        <time>2015-11-23T19:43:44Z</time>
      </trkpt>
      <trkpt lat="48.83857" lon="2.31185">
        <ele>64.800003051758</ele>
        <time>2015-11-23T19:43:49Z</time>
      </trkpt>
      <trkpt lat="48.83856" lon="2.31156">
        <ele>64.800003051758</ele>
        <time>2015-11-23T19:43:55Z</time>
      </trkpt>
      <trkpt lat="48.83866" lon="2.31129">
        <ele>63.20000076294</ele>
        <time>2015-11-23T19:44:00Z</time>
      </trkpt>
      <trkpt lat="48.83877" lon="2.31099">
        <ele>61.599998474121</ele>
        <time>2015-11-23T19:44:05Z</time>
      </trkpt>
      <trkpt lat="48.83887" lon="2.31068">
        <ele>59.400001525879</ele>
        <time>2015-11-23T19:44:10Z</time>
      </trkpt>
      <trkpt lat="48.83897" lon="2.31041">
        <ele>58.400001525879</ele>
        <time>2015-11-23T19:44:14Z</time>
      </trkpt>
      <trkpt lat="48.83908" lon="2.31016">
        <ele>57.20000076294</ele>
        <time>2015-11-23T19:44:18Z</time>
      </trkpt>
      <trkpt lat="48.83919" lon="2.30992">
        <ele>55.79999923706</ele>
        <time>2015-11-23T19:44:22Z</time>
      </trkpt>
      <trkpt lat="48.83933" lon="2.3097">
        <ele>56</ele>
        <time>2015-11-23T19:44:27Z</time>
      </trkpt>
      <trkpt lat="48.83938" lon="2.30965">
        <ele>56.400001525879</ele>
        <time>2015-11-23T19:44:29Z</time>
      </trkpt>
      <trkpt lat="48.83942" lon="2.3096">
        <ele>56.599998474121</ele>
        <time>2015-11-23T19:44:31Z</time>
      </trkpt>
      <trkpt lat="48.83955" lon="2.30939">
        <ele>57.599998474121</ele>
        <time>2015-11-23T19:44:39Z</time>
      </trkpt>
      <trkpt lat="48.83958" lon="2.30935">
        <ele>57.79999923706</ele>
        <time>2015-11-23T19:44:40Z</time>
      </trkpt>
      <trkpt lat="48.83973" lon="2.30915">
        <ele>56.400001525879</ele>
        <time>2015-11-23T19:44:45Z</time>
      </trkpt>
      <trkpt lat="48.8398" lon="2.30905">
        <ele>55.599998474121</ele>
        <time>2015-11-23T19:44:47Z</time>
      </trkpt>
      <trkpt lat="48.83998" lon="2.30889">
        <ele>53.599998474121</ele>
        <time>2015-11-23T19:44:51Z</time>
      </trkpt>
      <trkpt lat="48.84012" lon="2.30876">
        <ele>52.79999923706</ele>
        <time>2015-11-23T19:44:54Z</time>
      </trkpt>
      <trkpt lat="48.84032" lon="2.30863">
        <ele>51.79999923706</ele>
        <time>2015-11-23T19:44:58Z</time>
      </trkpt>
      <trkpt lat="48.84051" lon="2.3085">
        <ele>51.20000076294</ele>
        <time>2015-11-23T19:45:02Z</time>
      </trkpt>
      <trkpt lat="48.8407" lon="2.30837">
        <ele>51</ele>
        <time>2015-11-23T19:45:06Z</time>
      </trkpt>
      <trkpt lat="48.8409" lon="2.30822">
        <ele>50.400001525879</ele>
        <time>2015-11-23T19:45:10Z</time>
      </trkpt>
      <trkpt lat="48.84106" lon="2.30803">
        <ele>50.400001525879</ele>
        <time>2015-11-23T19:45:14Z</time>
      </trkpt>
      <trkpt lat="48.8411" lon="2.30799">
        <ele>50.20000076294</ele>
        <time>2015-11-23T19:45:15Z</time>
      </trkpt>
      <trkpt lat="48.84126" lon="2.30783">
        <ele>50</ele>
        <time>2015-11-23T19:45:19Z</time>
      </trkpt>
      <trkpt lat="48.84142" lon="2.30773">
        <ele>50</ele>
        <time>2015-11-23T19:45:23Z</time>
      </trkpt>
      <trkpt lat="48.8415" lon="2.30769">
        <ele>50</ele>
        <time>2015-11-23T19:45:25Z</time>
      </trkpt>
      <trkpt lat="48.84167" lon="2.3076">
        <ele>50</ele>
        <time>2015-11-23T19:45:29Z</time>
      </trkpt>
      <trkpt lat="48.84188" lon="2.30752">
        <ele>49.79999923706</ele>
        <time>2015-11-23T19:45:34Z</time>
      </trkpt>
      <trkpt lat="48.84192" lon="2.30749">
        <ele>50</ele>
        <time>2015-11-23T19:45:35Z</time>
      </trkpt>
      <trkpt lat="48.8421" lon="2.30743">
        <ele>49</ele>
        <time>2015-11-23T19:45:39Z</time>
      </trkpt>
      <trkpt lat="48.84216" lon="2.3074">
        <ele>48.79999923706</ele>
        <time>2015-11-23T19:45:40Z</time>
      </trkpt>
      <trkpt lat="48.84237" lon="2.30731">
        <ele>47.599998474121</ele>
        <time>2015-11-23T19:45:44Z</time>
      </trkpt>
      <trkpt lat="48.84254" lon="2.30719">
        <ele>46.599998474121</ele>
        <time>2015-11-23T19:45:48Z</time>
      </trkpt>
      <trkpt lat="48.84258" lon="2.30716">
        <ele>46.599998474121</ele>
        <time>2015-11-23T19:45:49Z</time>
      </trkpt>
      <trkpt lat="48.84267" lon="2.3071">
        <ele>46.599998474121</ele>
        <time>2015-11-23T19:45:51Z</time>
      </trkpt>
      <trkpt lat="48.84284" lon="2.30692">
        <ele>46.400001525879</ele>
        <time>2015-11-23T19:45:55Z</time>
      </trkpt>
      <trkpt lat="48.84301" lon="2.30683">
        <ele>46.20000076294</ele>
        <time>2015-11-23T19:45:59Z</time>
      </trkpt>
      <trkpt lat="48.84308" lon="2.30677">
        <ele>45.79999923706</ele>
        <time>2015-11-23T19:46:01Z</time>
      </trkpt>
      <trkpt lat="48.84326" lon="2.30662">
        <ele>45.400001525879</ele>
        <time>2015-11-23T19:46:06Z</time>
      </trkpt>
      <trkpt lat="48.84341" lon="2.30646">
        <ele>45.20000076294</ele>
        <time>2015-11-23T19:46:13Z</time>
      </trkpt>
      <trkpt lat="48.84371" lon="2.30656">
        <ele>45</ele>
        <time>2015-11-23T19:46:34Z</time>
      </trkpt>
      <trkpt lat="48.84388" lon="2.30654">
        <ele>44.79999923706</ele>
        <time>2015-11-23T19:46:41Z</time>
      </trkpt>
      <trkpt lat="48.84405" lon="2.30639">
        <ele>44.79999923706</ele>
        <time>2015-11-23T19:46:46Z</time>
      </trkpt>
      <trkpt lat="48.84422" lon="2.30629">
        <ele>44.79999923706</ele>
        <time>2015-11-23T19:46:50Z</time>
      </trkpt>
      <trkpt lat="48.84425" lon="2.30626">
        <ele>44.79999923706</ele>
        <time>2015-11-23T19:46:51Z</time>
      </trkpt>
      <trkpt lat="48.84444" lon="2.30608">
        <ele>44.599998474121</ele>
        <time>2015-11-23T19:46:56Z</time>
      </trkpt>
      <trkpt lat="48.84461" lon="2.30596">
        <ele>43.20000076294</ele>
        <time>2015-11-23T19:46:59Z</time>
      </trkpt>
      <trkpt lat="48.8448" lon="2.30584">
        <ele>43.79999923706</ele>
        <time>2015-11-23T19:47:04Z</time>
      </trkpt>
      <trkpt lat="48.84498" lon="2.30574">
        <ele>43.79999923706</ele>
        <time>2015-11-23T19:47:09Z</time>
      </trkpt>
      <trkpt lat="48.84515" lon="2.30558">
        <ele>42.79999923706</ele>
        <time>2015-11-23T19:47:15Z</time>
      </trkpt>
      <trkpt lat="48.84533" lon="2.30544">
        <ele>41.20000076294</ele>
        <time>2015-11-23T19:47:21Z</time>
      </trkpt>
      <trkpt lat="48.84552" lon="2.30533">
        <ele>40.20000076294</ele>
        <time>2015-11-23T19:47:28Z</time>
      </trkpt>
      <trkpt lat="48.84571" lon="2.30525">
        <ele>41</ele>
        <time>2015-11-23T19:47:36Z</time>
      </trkpt>
      <trkpt lat="48.84588" lon="2.3051">
        <ele>42.599998474121</ele>
        <time>2015-11-23T19:47:42Z</time>
      </trkpt>
      <trkpt lat="48.84591" lon="2.30506">
        <ele>42.79999923706</ele>
        <time>2015-11-23T19:47:44Z</time>
      </trkpt>
      <trkpt lat="48.846" lon="2.30488">
        <ele>44</ele>
        <time>2015-11-23T19:47:55Z</time>
      </trkpt>
      <trkpt lat="48.84618" lon="2.30479">
        <ele>44.400001525879</ele>
        <time>2015-11-23T19:48:01Z</time>
      </trkpt>
      <trkpt lat="48.84634" lon="2.30466">
        <ele>44.79999923706</ele>
        <time>2015-11-23T19:48:08Z</time>
      </trkpt>
      <trkpt lat="48.84653" lon="2.30456">
        <ele>44.79999923706</ele>
        <time>2015-11-23T19:48:15Z</time>
      </trkpt>
      <trkpt lat="48.84671" lon="2.30442">
        <ele>43.599998474121</ele>
        <time>2015-11-23T19:48:23Z</time>
      </trkpt>
      <trkpt lat="48.84689" lon="2.3043">
        <ele>42.400001525879</ele>
        <time>2015-11-23T19:48:31Z</time>
      </trkpt>
      <trkpt lat="48.84691" lon="2.30425">
        <ele>42.400001525879</ele>
        <time>2015-11-23T19:48:33Z</time>
      </trkpt>
      <trkpt lat="48.84703" lon="2.30407">
        <ele>42.599998474121</ele>
        <time>2015-11-23T19:48:46Z</time>
      </trkpt>
      <trkpt lat="48.8471" lon="2.30382">
        <ele>42.79999923706</ele>
        <time>2015-11-23T19:48:58Z</time>
      </trkpt>
      <trkpt lat="48.8471" lon="2.30367">
        <ele>42.79999923706</ele>
        <time>2015-11-23T19:49:12Z</time>
      </trkpt>
      <trkpt lat="48.84713" lon="2.30348">
        <ele>42.599998474121</ele>
        <time>2015-11-23T19:49:19Z</time>
      </trkpt>
      <trkpt lat="48.84723" lon="2.30329">
        <ele>42</ele>
        <time>2015-11-23T19:49:33Z</time>
      </trkpt>
      <trkpt lat="48.84726" lon="2.30329">
        <ele>42</ele>
        <time>2015-11-23T19:49:38Z</time>
      </trkpt>
      <trkpt lat="48.84744" lon="2.30305">
        <ele>41.599998474121</ele>
        <time>2015-11-23T19:49:45Z</time>
      </trkpt>
      <trkpt lat="48.84757" lon="2.30283">
        <ele>41.400001525879</ele>
        <time>2015-11-23T19:49:50Z</time>
      </trkpt>
      <trkpt lat="48.84767" lon="2.30257">
        <ele>41.20000076294</ele>
        <time>2015-11-23T19:49:56Z</time>
      </trkpt>
      <trkpt lat="48.84774" lon="2.30259">
        <ele>41.20000076294</ele>
        <time>2015-11-23T19:50:00Z</time>
      </trkpt>
      <trkpt lat="48.84788" lon="2.30276">
        <ele>41.79999923706</ele>
        <time>2015-11-23T19:50:09Z</time>
      </trkpt>
      <trkpt lat="48.84802" lon="2.30277">
        <ele>42</ele>
        <time>2015-11-23T19:50:14Z</time>
      </trkpt>
      <trkpt lat="48.84812" lon="2.30263">
        <ele>41.79999923706</ele>
        <time>2015-11-23T19:50:19Z</time>
      </trkpt>
      <trkpt lat="48.84826" lon="2.30246">
        <ele>41.599998474121</ele>
        <time>2015-11-23T19:50:25Z</time>
      </trkpt>
      <trkpt lat="48.84841" lon="2.30245">
        <ele>41.79999923706</ele>
        <time>2015-11-23T19:50:29Z</time>
      </trkpt>
      <trkpt lat="48.84856" lon="2.30268">
        <ele>42.599998474121</ele>
        <time>2015-11-23T19:50:34Z</time>
      </trkpt>
      <trkpt lat="48.84873" lon="2.30291">
        <ele>43</ele>
        <time>2015-11-23T19:50:39Z</time>
      </trkpt>
      <trkpt lat="48.84888" lon="2.30314">
        <ele>43.599998474121</ele>
        <time>2015-11-23T19:50:43Z</time>
      </trkpt>
      <trkpt lat="48.84901" lon="2.30334">
        <ele>43.599998474121</ele>
        <time>2015-11-23T19:50:47Z</time>
      </trkpt>
      <trkpt lat="48.84918" lon="2.30356">
        <ele>41.79999923706</ele>
        <time>2015-11-23T19:50:52Z</time>
      </trkpt>
      <trkpt lat="48.84931" lon="2.30359">
        <ele>41.599998474121</ele>
        <time>2015-11-23T19:50:55Z</time>
      </trkpt>
      <trkpt lat="48.84948" lon="2.30341">
        <ele>42.79999923706</ele>
        <time>2015-11-23T19:51:00Z</time>
      </trkpt>
      <trkpt lat="48.84964" lon="2.30321">
        <ele>42.599998474121</ele>
        <time>2015-11-23T19:51:04Z</time>
      </trkpt>
      <trkpt lat="48.84978" lon="2.30301">
        <ele>41.599998474121</ele>
        <time>2015-11-23T19:51:07Z</time>
      </trkpt>
      <trkpt lat="48.84992" lon="2.30279">
        <ele>41.400001525879</ele>
        <time>2015-11-23T19:51:10Z</time>
      </trkpt>
      <trkpt lat="48.85006" lon="2.3026">
        <ele>41.20000076294</ele>
        <time>2015-11-23T19:51:13Z</time>
      </trkpt>
      <trkpt lat="48.85022" lon="2.30238">
        <ele>41.400001525879</ele>
        <time>2015-11-23T19:51:17Z</time>
      </trkpt>
      <trkpt lat="48.85037" lon="2.30218">
        <ele>42.20000076294</ele>
        <time>2015-11-23T19:51:21Z</time>
      </trkpt>
      <trkpt lat="48.85052" lon="2.30197">
        <ele>43</ele>
        <time>2015-11-23T19:51:25Z</time>
      </trkpt>
      <trkpt lat="48.85056" lon="2.30192">
        <ele>43.20000076294</ele>
        <time>2015-11-23T19:51:26Z</time>
      </trkpt>
      <trkpt lat="48.8507" lon="2.30169">
        <ele>44.20000076294</ele>
        <time>2015-11-23T19:51:30Z</time>
      </trkpt>
      <trkpt lat="48.85085" lon="2.30149">
        <ele>45.20000076294</ele>
        <time>2015-11-23T19:51:34Z</time>
      </trkpt>
      <trkpt lat="48.85099" lon="2.30125">
        <ele>44.79999923706</ele>
        <time>2015-11-23T19:51:39Z</time>
      </trkpt>
      <trkpt lat="48.85108" lon="2.30112">
        <ele>44.599998474121</ele>
        <time>2015-11-23T19:51:43Z</time>
      </trkpt>
      <trkpt lat="48.85111" lon="2.30106">
        <ele>44.400001525879</ele>
        <time>2015-11-23T19:51:46Z</time>
      </trkpt>
      <trkpt lat="48.85115" lon="2.301">
        <ele>44.400001525879</ele>
        <time>2015-11-23T19:51:53Z</time>
      </trkpt>
      <trkpt lat="48.85127" lon="2.30076">
        <ele>45.400001525879</ele>
        <time>2015-11-23T19:52:04Z</time>
      </trkpt>
      <trkpt lat="48.85138" lon="2.30054">
        <ele>46.400001525879</ele>
        <time>2015-11-23T19:52:09Z</time>
      </trkpt>
      <trkpt lat="48.8515" lon="2.30032">
        <ele>47.400001525879</ele>
        <time>2015-11-23T19:52:14Z</time>
      </trkpt>
      <trkpt lat="48.85158" lon="2.30017">
        <ele>48.20000076294</ele>
        <time>2015-11-23T19:52:20Z</time>
      </trkpt>
      <trkpt lat="48.85142" lon="2.29992">
        <ele>48.79999923706</ele>
        <time>2015-11-23T19:52:27Z</time>
      </trkpt>
      <trkpt lat="48.85136" lon="2.29982">
        <ele>48.79999923706</ele>
        <time>2015-11-23T19:52:29Z</time>
      </trkpt>
      <trkpt lat="48.85122" lon="2.29954">
        <ele>48.400001525879</ele>
        <time>2015-11-23T19:52:34Z</time>
      </trkpt>
      <trkpt lat="48.85106" lon="2.2994">
        <ele>48</ele>
        <time>2015-11-23T19:52:37Z</time>
      </trkpt>
      <trkpt lat="48.85089" lon="2.2992">
        <ele>47.599998474121</ele>
        <time>2015-11-23T19:52:41Z</time>
      </trkpt>
      <trkpt lat="48.85073" lon="2.29901">
        <ele>47</ele>
        <time>2015-11-23T19:52:46Z</time>
      </trkpt>
      <trkpt lat="48.85059" lon="2.29879">
        <ele>46.400001525879</ele>
        <time>2015-11-23T19:52:52Z</time>
      </trkpt>
      <trkpt lat="48.85055" lon="2.29871">
        <ele>46.20000076294</ele>
        <time>2015-11-23T19:52:54Z</time>
      </trkpt>
      <trkpt lat="48.85049" lon="2.29856">
        <ele>46</ele>
        <time>2015-11-23T19:52:57Z</time>
      </trkpt>
      <trkpt lat="48.85046" lon="2.29828">
        <ele>45.400001525879</ele>
        <time>2015-11-23T19:53:02Z</time>
      </trkpt>
      <trkpt lat="48.85046" lon="2.29807">
        <ele>44.400001525879</ele>
        <time>2015-11-23T19:53:06Z</time>
      </trkpt>
      <trkpt lat="48.85044" lon="2.29777">
        <ele>43</ele>
        <time>2015-11-23T19:53:12Z</time>
      </trkpt>
      <trkpt lat="48.8504" lon="2.29772">
        <ele>42.599998474121</ele>
        <time>2015-11-23T19:53:13Z</time>
      </trkpt>
      <trkpt lat="48.85033" lon="2.29746">
        <ele>40.79999923706</ele>
        <time>2015-11-23T19:53:18Z</time>
      </trkpt>
      <trkpt lat="48.85028" lon="2.29718">
        <ele>41.20000076294</ele>
        <time>2015-11-23T19:53:23Z</time>
      </trkpt>
      <trkpt lat="48.85023" lon="2.29689">
        <ele>41.599998474121</ele>
        <time>2015-11-23T19:53:28Z</time>
      </trkpt>
      <trkpt lat="48.85016" lon="2.29662">
        <ele>42.20000076294</ele>
        <time>2015-11-23T19:53:33Z</time>
      </trkpt>
      <trkpt lat="48.85009" lon="2.29648">
        <ele>42</ele>
        <time>2015-11-23T19:53:39Z</time>
      </trkpt>
      <trkpt lat="48.85013" lon="2.29653">
        <ele>42</ele>
        <time>2015-11-23T19:53:43Z</time>
      </trkpt>
      <trkpt lat="48.85017" lon="2.29652">
        <ele>42</ele>
        <time>2015-11-23T19:53:46Z</time>
      </trkpt>
      <trkpt lat="48.8503" lon="2.29629">
        <ele>41.400001525879</ele>
        <time>2015-11-23T19:53:51Z</time>
      </trkpt>
      <trkpt lat="48.85044" lon="2.29604">
        <ele>40.599998474121</ele>
        <time>2015-11-23T19:53:56Z</time>
      </trkpt>
      <trkpt lat="48.85055" lon="2.29583">
        <ele>41</ele>
        <time>2015-11-23T19:54:01Z</time>
      </trkpt>
      <trkpt lat="48.85068" lon="2.29564">
        <ele>41</ele>
        <time>2015-11-23T19:54:11Z</time>
      </trkpt>
      <trkpt lat="48.85083" lon="2.29546">
        <ele>41</ele>
        <time>2015-11-23T19:54:17Z</time>
      </trkpt>
      <trkpt lat="48.85098" lon="2.29528">
        <ele>41</ele>
        <time>2015-11-23T19:54:22Z</time>
      </trkpt>
      <trkpt lat="48.85099" lon="2.29497">
        <ele>41</ele>
        <time>2015-11-23T19:54:30Z</time>
      </trkpt>
      <trkpt lat="48.85106" lon="2.29472">
        <ele>41.599998474121</ele>
        <time>2015-11-23T19:54:35Z</time>
      </trkpt>
      <trkpt lat="48.85117" lon="2.29448">
        <ele>41.79999923706</ele>
        <time>2015-11-23T19:54:39Z</time>
      </trkpt>
      <trkpt lat="48.85127" lon="2.29419">
        <ele>42.20000076294</ele>
        <time>2015-11-23T19:54:43Z</time>
      </trkpt>
      <trkpt lat="48.85135" lon="2.29389">
        <ele>42</ele>
        <time>2015-11-23T19:54:47Z</time>
      </trkpt>
      <trkpt lat="48.85141" lon="2.29361">
        <ele>41.79999923706</ele>
        <time>2015-11-23T19:54:51Z</time>
      </trkpt>
      <trkpt lat="48.85148" lon="2.29334">
        <ele>42.79999923706</ele>
        <time>2015-11-23T19:54:55Z</time>
      </trkpt>
      <trkpt lat="48.85153" lon="2.29305">
        <ele>42.20000076294</ele>
        <time>2015-11-23T19:55:00Z</time>
      </trkpt>
      <trkpt lat="48.85157" lon="2.29276">
        <ele>41.79999923706</ele>
        <time>2015-11-23T19:55:06Z</time>
      </trkpt>
      <trkpt lat="48.85161" lon="2.29249">
        <ele>41.599998474121</ele>
        <time>2015-11-23T19:55:11Z</time>
      </trkpt>
      <trkpt lat="48.85161" lon="2.29218">
        <ele>41.599998474121</ele>
        <time>2015-11-23T19:55:17Z</time>
      </trkpt>
      <trkpt lat="48.85155" lon="2.29204">
        <ele>41.20000076294</ele>
        <time>2015-11-23T19:55:23Z</time>
      </trkpt>
      <trkpt lat="48.85139" lon="2.29189">
        <ele>40.400001525879</ele>
        <time>2015-11-23T19:55:43Z</time>
      </trkpt>
      <trkpt lat="48.85121" lon="2.29189">
        <ele>39.79999923706</ele>
        <time>2015-11-23T19:55:59Z</time>
      </trkpt>
      <trkpt lat="48.85114" lon="2.29169">
        <ele>39.400001525879</ele>
        <time>2015-11-23T19:56:09Z</time>
      </trkpt>
      <trkpt lat="48.85122" lon="2.29139">
        <ele>39.400001525879</ele>
        <time>2015-11-23T19:56:15Z</time>
      </trkpt>
      <trkpt lat="48.85134" lon="2.29113">
        <ele>39.599998474121</ele>
        <time>2015-11-23T19:56:20Z</time>
      </trkpt>
      <trkpt lat="48.85146" lon="2.29085">
        <ele>38.79999923706</ele>
        <time>2015-11-23T19:56:25Z</time>
      </trkpt>
      <trkpt lat="48.85156" lon="2.2906">
        <ele>37.599998474121</ele>
        <time>2015-11-23T19:56:30Z</time>
      </trkpt>
      <trkpt lat="48.85165" lon="2.29029">
        <ele>37</ele>
        <time>2015-11-23T19:56:35Z</time>
      </trkpt>
      <trkpt lat="48.8517" lon="2.28997">
        <ele>36.79999923706</ele>
        <time>2015-11-23T19:56:40Z</time>
      </trkpt>
      <trkpt lat="48.85177" lon="2.28969">
        <ele>37.599998474121</ele>
        <time>2015-11-23T19:56:45Z</time>
      </trkpt>
      <trkpt lat="48.85191" lon="2.28943">
        <ele>38.400001525879</ele>
        <time>2015-11-23T19:56:50Z</time>
      </trkpt>
      <trkpt lat="48.85204" lon="2.28922">
        <ele>39</ele>
        <time>2015-11-23T19:56:54Z</time>
      </trkpt>
      <trkpt lat="48.85211" lon="2.28914">
        <ele>39.20000076294</ele>
        <time>2015-11-23T19:56:56Z</time>
      </trkpt>
      <trkpt lat="48.85219" lon="2.28896">
        <ele>39.400001525879</ele>
        <time>2015-11-23T19:56:59Z</time>
      </trkpt>
      <trkpt lat="48.85218" lon="2.28867">
        <ele>39.400001525879</ele>
        <time>2015-11-23T19:57:03Z</time>
      </trkpt>
      <trkpt lat="48.85224" lon="2.28847">
        <ele>39.20000076294</ele>
        <time>2015-11-23T19:57:06Z</time>
      </trkpt>
      <trkpt lat="48.85233" lon="2.28819">
        <ele>39</ele>
        <time>2015-11-23T19:57:10Z</time>
      </trkpt>
      <trkpt lat="48.85245" lon="2.28792">
        <ele>38.79999923706</ele>
        <time>2015-11-23T19:57:14Z</time>
      </trkpt>
      <trkpt lat="48.85253" lon="2.28766">
        <ele>38</ele>
        <time>2015-11-23T19:57:18Z</time>
      </trkpt>
      <trkpt lat="48.85258" lon="2.28742">
        <ele>37.599998474121</ele>
        <time>2015-11-23T19:57:22Z</time>
      </trkpt>
      <trkpt lat="48.85261" lon="2.28732">
        <ele>37.79999923706</ele>
        <time>2015-11-23T19:57:24Z</time>
      </trkpt>
      <trkpt lat="48.8527" lon="2.28705">
        <ele>38</ele>
        <time>2015-11-23T19:57:30Z</time>
      </trkpt>
      <trkpt lat="48.85276" lon="2.28678">
        <ele>38.79999923706</ele>
        <time>2015-11-23T19:57:37Z</time>
      </trkpt>
      <trkpt lat="48.85276" lon="2.28665">
        <ele>39</ele>
        <time>2015-11-23T19:57:40Z</time>
      </trkpt>
      <trkpt lat="48.85269" lon="2.28639">
        <ele>38.599998474121</ele>
        <time>2015-11-23T19:57:46Z</time>
      </trkpt>
      <trkpt lat="48.85252" lon="2.28625">
        <ele>40</ele>
        <time>2015-11-23T19:57:52Z</time>
      </trkpt>
      <trkpt lat="48.85235" lon="2.28609">
        <ele>41.599998474121</ele>
        <time>2015-11-23T19:57:58Z</time>
      </trkpt>
      <trkpt lat="48.85217" lon="2.28589">
        <ele>43</ele>
        <time>2015-11-23T19:58:03Z</time>
      </trkpt>
      <trkpt lat="48.85201" lon="2.2857">
        <ele>43.20000076294</ele>
        <time>2015-11-23T19:58:07Z</time>
      </trkpt>
      <trkpt lat="48.85185" lon="2.28551">
        <ele>41.599998474121</ele>
        <time>2015-11-23T19:58:11Z</time>
      </trkpt>
      <trkpt lat="48.85169" lon="2.28532">
        <ele>38.79999923706</ele>
        <time>2015-11-23T19:58:15Z</time>
      </trkpt>
      <trkpt lat="48.85153" lon="2.28513">
        <ele>36</ele>
        <time>2015-11-23T19:58:19Z</time>
      </trkpt>
      <trkpt lat="48.85138" lon="2.28492">
        <ele>33.599998474121</ele>
        <time>2015-11-23T19:58:23Z</time>
      </trkpt>
      <trkpt lat="48.85125" lon="2.28468">
        <ele>33.79999923706</ele>
        <time>2015-11-23T19:58:27Z</time>
      </trkpt>
      <trkpt lat="48.85112" lon="2.28444">
        <ele>34</ele>
        <time>2015-11-23T19:58:31Z</time>
      </trkpt>
      <trkpt lat="48.85097" lon="2.2842">
        <ele>35.20000076294</ele>
        <time>2015-11-23T19:58:35Z</time>
      </trkpt>
      <trkpt lat="48.85087" lon="2.28401">
        <ele>35.599998474121</ele>
        <time>2015-11-23T19:58:38Z</time>
      </trkpt>
      <trkpt lat="48.85072" lon="2.28379">
        <ele>36.400001525879</ele>
        <time>2015-11-23T19:58:41Z</time>
      </trkpt>
      <trkpt lat="48.85059" lon="2.28358">
        <ele>37</ele>
        <time>2015-11-23T19:58:44Z</time>
      </trkpt>
      <trkpt lat="48.85046" lon="2.28339">
        <ele>37.599998474121</ele>
        <time>2015-11-23T19:58:47Z</time>
      </trkpt>
      <trkpt lat="48.8503" lon="2.28316">
        <ele>37.79999923706</ele>
        <time>2015-11-23T19:58:51Z</time>
      </trkpt>
      <trkpt lat="48.85015" lon="2.28298">
        <ele>37.400001525879</ele>
        <time>2015-11-23T19:58:55Z</time>
      </trkpt>
      <trkpt lat="48.85011" lon="2.28295">
        <ele>37.20000076294</ele>
        <time>2015-11-23T19:58:56Z</time>
      </trkpt>
      <trkpt lat="48.84995" lon="2.28279">
        <ele>36.400001525879</ele>
        <time>2015-11-23T19:59:00Z</time>
      </trkpt>
      <trkpt lat="48.8498" lon="2.28262">
        <ele>35.599998474121</ele>
        <time>2015-11-23T19:59:04Z</time>
      </trkpt>
      <trkpt lat="48.84965" lon="2.28239">
        <ele>34.400001525879</ele>
        <time>2015-11-23T19:59:09Z</time>
      </trkpt>
      <trkpt lat="48.84948" lon="2.28222">
        <ele>34.20000076294</ele>
        <time>2015-11-23T19:59:14Z</time>
      </trkpt>
      <trkpt lat="48.84946" lon="2.28219">
        <ele>34</ele>
        <time>2015-11-23T19:59:15Z</time>
      </trkpt>
      <trkpt lat="48.84943" lon="2.28211">
        <ele>33.79999923706</ele>
        <time>2015-11-23T19:59:17Z</time>
      </trkpt>
      <trkpt lat="48.84934" lon="2.28189">
        <ele>33.400001525879</ele>
        <time>2015-11-23T19:59:25Z</time>
      </trkpt>
      <trkpt lat="48.84941" lon="2.28149">
        <ele>31.200000762939</ele>
        <time>2015-11-23T19:59:50Z</time>
      </trkpt>
      <trkpt lat="48.84952" lon="2.28124">
        <ele>31</ele>
        <time>2015-11-23T19:59:56Z</time>
      </trkpt>
      <trkpt lat="48.84968" lon="2.28101">
        <ele>30.39999961853</ele>
        <time>2015-11-23T20:00:02Z</time>
      </trkpt>
      <trkpt lat="48.84984" lon="2.28081">
        <ele>28.39999961853</ele>
        <time>2015-11-23T20:00:07Z</time>
      </trkpt>
      <trkpt lat="48.84999" lon="2.2806">
        <ele>27</ele>
        <time>2015-11-23T20:00:12Z</time>
      </trkpt>
      <trkpt lat="48.85013" lon="2.28039">
        <ele>27.60000038147</ele>
        <time>2015-11-23T20:00:17Z</time>
      </trkpt>
      <trkpt lat="48.85027" lon="2.28018">
        <ele>29</ele>
        <time>2015-11-23T20:00:22Z</time>
      </trkpt>
      <trkpt lat="48.85042" lon="2.27996">
        <ele>29.60000038147</ele>
        <time>2015-11-23T20:00:27Z</time>
      </trkpt>
      <trkpt lat="48.85055" lon="2.27976">
        <ele>30.39999961853</ele>
        <time>2015-11-23T20:00:31Z</time>
      </trkpt>
      <trkpt lat="48.85068" lon="2.27955">
        <ele>31.39999961853</ele>
        <time>2015-11-23T20:00:35Z</time>
      </trkpt>
      <trkpt lat="48.85081" lon="2.27935">
        <ele>31.799999237061</ele>
        <time>2015-11-23T20:00:39Z</time>
      </trkpt>
      <trkpt lat="48.85096" lon="2.27912">
        <ele>32.400001525879</ele>
        <time>2015-11-23T20:00:44Z</time>
      </trkpt>
      <trkpt lat="48.85109" lon="2.27891">
        <ele>33.599998474121</ele>
        <time>2015-11-23T20:00:49Z</time>
      </trkpt>
      <trkpt lat="48.85112" lon="2.27887">
        <ele>33.79999923706</ele>
        <time>2015-11-23T20:00:50Z</time>
      </trkpt>
      <trkpt lat="48.85117" lon="2.27878">
        <ele>34.599998474121</ele>
        <time>2015-11-23T20:00:53Z</time>
      </trkpt>
      <trkpt lat="48.85126" lon="2.27865">
        <ele>35.79999923706</ele>
        <time>2015-11-23T20:00:58Z</time>
      </trkpt>
      <trkpt lat="48.8513" lon="2.27857">
        <ele>36.400001525879</ele>
        <time>2015-11-23T20:01:03Z</time>
      </trkpt>
      <trkpt lat="48.85142" lon="2.27842">
        <ele>36.79999923706</ele>
        <time>2015-11-23T20:01:29Z</time>
      </trkpt>
      <trkpt lat="48.85146" lon="2.27832">
        <ele>37</ele>
        <time>2015-11-23T20:01:34Z</time>
      </trkpt>
      <trkpt lat="48.85146" lon="2.27825">
        <ele>37</ele>
        <time>2015-11-23T20:01:38Z</time>
      </trkpt>
      <trkpt lat="48.85146" lon="2.27824">
        <ele>37</ele>
        <time>2015-11-23T20:01:39Z</time>
      </trkpt>
      <trkpt lat="48.8514" lon="2.27798">
        <ele>37</ele>
        <time>2015-11-23T20:01:50Z</time>
      </trkpt>
      <trkpt lat="48.85138" lon="2.27765">
        <ele>37.400001525879</ele>
        <time>2015-11-23T20:01:55Z</time>
      </trkpt>
      <trkpt lat="48.85138" lon="2.27738">
        <ele>38.400001525879</ele>
        <time>2015-11-23T20:01:59Z</time>
      </trkpt>
      <trkpt lat="48.85137" lon="2.27709">
        <ele>39</ele>
        <time>2015-11-23T20:02:03Z</time>
      </trkpt>
      <trkpt lat="48.85132" lon="2.2768">
        <ele>39.79999923706</ele>
        <time>2015-11-23T20:02:07Z</time>
      </trkpt>
      <trkpt lat="48.85129" lon="2.27653">
        <ele>40.20000076294</ele>
        <time>2015-11-23T20:02:11Z</time>
      </trkpt>
      <trkpt lat="48.85127" lon="2.27626">
        <ele>39.400001525879</ele>
        <time>2015-11-23T20:02:15Z</time>
      </trkpt>
      <trkpt lat="48.8512" lon="2.276">
        <ele>38.400001525879</ele>
        <time>2015-11-23T20:02:19Z</time>
      </trkpt>
      <trkpt lat="48.85119" lon="2.27581">
        <ele>37.79999923706</ele>
        <time>2015-11-23T20:02:22Z</time>
      </trkpt>
      <trkpt lat="48.85119" lon="2.27568">
        <ele>38</ele>
        <time>2015-11-23T20:02:24Z</time>
      </trkpt>
      <trkpt lat="48.85117" lon="2.27541">
        <ele>38.599998474121</ele>
        <time>2015-11-23T20:02:29Z</time>
      </trkpt>
      <trkpt lat="48.85116" lon="2.27525">
        <ele>39</ele>
        <time>2015-11-23T20:02:32Z</time>
      </trkpt>
      <trkpt lat="48.85122" lon="2.27498">
        <ele>38.79999923706</ele>
        <time>2015-11-23T20:02:38Z</time>
      </trkpt>
      <trkpt lat="48.85127" lon="2.2749">
        <ele>39</ele>
        <time>2015-11-23T20:02:40Z</time>
      </trkpt>
      <trkpt lat="48.85138" lon="2.27463">
        <ele>40.599998474121</ele>
        <time>2015-11-23T20:02:45Z</time>
      </trkpt>
      <trkpt lat="48.85147" lon="2.27433">
        <ele>42.400001525879</ele>
        <time>2015-11-23T20:02:50Z</time>
      </trkpt>
      <trkpt lat="48.85163" lon="2.27412">
        <ele>43</ele>
        <time>2015-11-23T20:02:54Z</time>
      </trkpt>
      <trkpt lat="48.85177" lon="2.2739">
        <ele>42.79999923706</ele>
        <time>2015-11-23T20:02:59Z</time>
      </trkpt>
      <trkpt lat="48.85191" lon="2.27368">
        <ele>43</ele>
        <time>2015-11-23T20:03:04Z</time>
      </trkpt>
      <trkpt lat="48.852" lon="2.27356">
        <ele>43.20000076294</ele>
        <time>2015-11-23T20:03:07Z</time>
      </trkpt>
      <trkpt lat="48.85214" lon="2.27336">
        <ele>42</ele>
        <time>2015-11-23T20:03:12Z</time>
      </trkpt>
      <trkpt lat="48.85219" lon="2.27328">
        <ele>41.20000076294</ele>
        <time>2015-11-23T20:03:14Z</time>
      </trkpt>
      <trkpt lat="48.85229" lon="2.27305">
        <ele>40.20000076294</ele>
        <time>2015-11-23T20:03:19Z</time>
      </trkpt>
      <trkpt lat="48.85242" lon="2.2728">
        <ele>39.79999923706</ele>
        <time>2015-11-23T20:03:25Z</time>
      </trkpt>
      <trkpt lat="48.85253" lon="2.27259">
        <ele>40.400001525879</ele>
        <time>2015-11-23T20:03:30Z</time>
      </trkpt>
      <trkpt lat="48.85263" lon="2.27235">
        <ele>40.400001525879</ele>
        <time>2015-11-23T20:03:35Z</time>
      </trkpt>
      <trkpt lat="48.85275" lon="2.27212">
        <ele>42.599998474121</ele>
        <time>2015-11-23T20:03:40Z</time>
      </trkpt>
      <trkpt lat="48.85288" lon="2.27192">
        <ele>44.79999923706</ele>
        <time>2015-11-23T20:03:45Z</time>
      </trkpt>
      <trkpt lat="48.85306" lon="2.27177">
        <ele>47</ele>
        <time>2015-11-23T20:03:49Z</time>
      </trkpt>
      <trkpt lat="48.85321" lon="2.27161">
        <ele>49</ele>
        <time>2015-11-23T20:03:54Z</time>
      </trkpt>
      <trkpt lat="48.85332" lon="2.27138">
        <ele>49.20000076294</ele>
        <time>2015-11-23T20:04:00Z</time>
      </trkpt>
      <trkpt lat="48.85333" lon="2.27132">
        <ele>49.400001525879</ele>
        <time>2015-11-23T20:04:02Z</time>
      </trkpt>
      <trkpt lat="48.85333" lon="2.27119">
        <ele>49.599998474121</ele>
        <time>2015-11-23T20:04:08Z</time>
      </trkpt>
      <trkpt lat="48.85332" lon="2.27112">
        <ele>49.599998474121</ele>
        <time>2015-11-23T20:04:13Z</time>
      </trkpt>
      <trkpt lat="48.85331" lon="2.27096">
        <ele>49.79999923706</ele>
        <time>2015-11-23T20:05:08Z</time>
      </trkpt>
      <trkpt lat="48.85332" lon="2.27068">
        <ele>49.79999923706</ele>
        <time>2015-11-23T20:05:17Z</time>
      </trkpt>
      <trkpt lat="48.85337" lon="2.27053">
        <ele>49.599998474121</ele>
        <time>2015-11-23T20:05:21Z</time>
      </trkpt>
      <trkpt lat="48.85345" lon="2.27027">
        <ele>49.400001525879</ele>
        <time>2015-11-23T20:05:26Z</time>
      </trkpt>
      <trkpt lat="48.85356" lon="2.26999">
        <ele>49.20000076294</ele>
        <time>2015-11-23T20:05:31Z</time>
      </trkpt>
      <trkpt lat="48.85364" lon="2.26975">
        <ele>49.599998474121</ele>
        <time>2015-11-23T20:05:35Z</time>
      </trkpt>
      <trkpt lat="48.85375" lon="2.26949">
        <ele>50.400001525879</ele>
        <time>2015-11-23T20:05:39Z</time>
      </trkpt>
      <trkpt lat="48.85389" lon="2.26927">
        <ele>51.400001525879</ele>
        <time>2015-11-23T20:05:44Z</time>
      </trkpt>
      <trkpt lat="48.85396" lon="2.26902">
        <ele>53</ele>
        <time>2015-11-23T20:05:53Z</time>
      </trkpt>
      <trkpt lat="48.85386" lon="2.26893">
        <ele>53</ele>
        <time>2015-11-23T20:05:59Z</time>
      </trkpt>
      <trkpt lat="48.85368" lon="2.26878">
        <ele>53.20000076294</ele>
        <time>2015-11-23T20:06:05Z</time>
      </trkpt>
      <trkpt lat="48.85349" lon="2.26868">
        <ele>52.79999923706</ele>
        <time>2015-11-23T20:06:12Z</time>
      </trkpt>
      <trkpt lat="48.85339" lon="2.26846">
        <ele>54.20000076294</ele>
        <time>2015-11-23T20:06:20Z</time>
      </trkpt>
      <trkpt lat="48.85337" lon="2.26816">
        <ele>56.400001525879</ele>
        <time>2015-11-23T20:06:31Z</time>
      </trkpt>
      <trkpt lat="48.85321" lon="2.26799">
        <ele>56.400001525879</ele>
        <time>2015-11-23T20:06:37Z</time>
      </trkpt>
      <trkpt lat="48.85316" lon="2.26786">
        <ele>56.599998474121</ele>
        <time>2015-11-23T20:06:41Z</time>
      </trkpt>
      <trkpt lat="48.85326" lon="2.26758">
        <ele>57.20000076294</ele>
        <time>2015-11-23T20:06:47Z</time>
      </trkpt>
      <trkpt lat="48.85333" lon="2.26723">
        <ele>57.20000076294</ele>
        <time>2015-11-23T20:06:53Z</time>
      </trkpt>
      <trkpt lat="48.85332" lon="2.26685">
        <ele>56.599998474121</ele>
        <time>2015-11-23T20:06:59Z</time>
      </trkpt>
      <trkpt lat="48.85344" lon="2.2666">
        <ele>56.79999923706</ele>
        <time>2015-11-23T20:07:04Z</time>
      </trkpt>
      <trkpt lat="48.85359" lon="2.26641">
        <ele>56.599998474121</ele>
        <time>2015-11-23T20:07:11Z</time>
      </trkpt>
      <trkpt lat="48.85356" lon="2.26631">
        <ele>56.599998474121</ele>
        <time>2015-11-23T20:07:16Z</time>
      </trkpt>
      <trkpt lat="48.85343" lon="2.26605">
        <ele>56.400001525879</ele>
        <time>2015-11-23T20:07:24Z</time>
      </trkpt>
      <trkpt lat="48.8533" lon="2.2658">
        <ele>56.400001525879</ele>
        <time>2015-11-23T20:07:31Z</time>
      </trkpt>
      <trkpt lat="48.85307" lon="2.26576">
        <ele>56.599998474121</ele>
        <time>2015-11-23T20:07:32Z</time>
      </trkpt>
      <trkpt lat="48.85286" lon="2.26568">
        <ele>56.79999923706</ele>
        <time>2015-11-23T20:07:34Z</time>
      </trkpt>
      <trkpt lat="48.85281" lon="2.26557">
        <ele>56.79999923706</ele>
        <time>2015-11-23T20:07:36Z</time>
      </trkpt>
      <trkpt lat="48.85285" lon="2.26525">
        <ele>56.79999923706</ele>
        <time>2015-11-23T20:07:46Z</time>
      </trkpt>
      <trkpt lat="48.85294" lon="2.26498">
        <ele>56.20000076294</ele>
        <time>2015-11-23T20:07:54Z</time>
      </trkpt>
      <trkpt lat="48.85294" lon="2.26496">
        <ele>56.20000076294</ele>
        <time>2015-11-23T20:07:55Z</time>
      </trkpt>
      <trkpt lat="48.85277" lon="2.26482">
        <ele>57.599998474121</ele>
        <time>2015-11-23T20:08:02Z</time>
      </trkpt>
      <trkpt lat="48.85271" lon="2.26476">
        <ele>58.20000076294</ele>
        <time>2015-11-23T20:08:05Z</time>
      </trkpt>
      <trkpt lat="48.85254" lon="2.26465">
        <ele>58.20000076294</ele>
        <time>2015-11-23T20:08:09Z</time>
      </trkpt>
      <trkpt lat="48.85237" lon="2.2645">
        <ele>58.400001525879</ele>
        <time>2015-11-23T20:08:15Z</time>
      </trkpt>
      <trkpt lat="48.85235" lon="2.26445">
        <ele>58.599998474121</ele>
        <time>2015-11-23T20:08:17Z</time>
      </trkpt>
      <trkpt lat="48.8524" lon="2.26421">
        <ele>60.400001525879</ele>
        <time>2015-11-23T20:08:23Z</time>
      </trkpt>
      <trkpt lat="48.8525" lon="2.2639">
        <ele>61</ele>
        <time>2015-11-23T20:08:30Z</time>
      </trkpt>
      <trkpt lat="48.85263" lon="2.26364">
        <ele>62</ele>
        <time>2015-11-23T20:08:34Z</time>
      </trkpt>
      <trkpt lat="48.85277" lon="2.26338">
        <ele>62.79999923706</ele>
        <time>2015-11-23T20:08:39Z</time>
      </trkpt>
      <trkpt lat="48.85277" lon="2.26333">
        <ele>63</ele>
        <time>2015-11-23T20:08:40Z</time>
      </trkpt>
      <trkpt lat="48.8528" lon="2.26304">
        <ele>63.599998474121</ele>
        <time>2015-11-23T20:08:45Z</time>
      </trkpt>
      <trkpt lat="48.85284" lon="2.26288">
        <ele>64.199996948242</ele>
        <time>2015-11-23T20:08:48Z</time>
      </trkpt>
      <trkpt lat="48.85273" lon="2.2625">
        <ele>65</ele>
        <time>2015-11-23T20:09:00Z</time>
      </trkpt>
      <trkpt lat="48.8527" lon="2.2625">
        <ele>64.800003051758</ele>
        <time>2015-11-23T20:09:13Z</time>
      </trkpt>
      <trkpt lat="48.85251" lon="2.26245">
        <ele>63.400001525879</ele>
        <time>2015-11-23T20:09:21Z</time>
      </trkpt>
      <trkpt lat="48.85229" lon="2.26241">
        <ele>62</ele>
        <time>2015-11-23T20:09:26Z</time>
      </trkpt>
      <trkpt lat="48.85209" lon="2.26235">
        <ele>60.79999923706</ele>
        <time>2015-11-23T20:09:31Z</time>
      </trkpt>
      <trkpt lat="48.85188" lon="2.26235">
        <ele>59.400001525879</ele>
        <time>2015-11-23T20:09:36Z</time>
      </trkpt>
      <trkpt lat="48.85167" lon="2.2623">
        <ele>59.79999923706</ele>
        <time>2015-11-23T20:09:41Z</time>
      </trkpt>
      <trkpt lat="48.85149" lon="2.26224">
        <ele>60.20000076294</ele>
        <time>2015-11-23T20:09:45Z</time>
      </trkpt>
      <trkpt lat="48.85128" lon="2.26224">
        <ele>60.599998474121</ele>
        <time>2015-11-23T20:09:49Z</time>
      </trkpt>
      <trkpt lat="48.85108" lon="2.26216">
        <ele>61</ele>
        <time>2015-11-23T20:09:53Z</time>
      </trkpt>
      <trkpt lat="48.85089" lon="2.26211">
        <ele>60.400001525879</ele>
        <time>2015-11-23T20:09:56Z</time>
      </trkpt>
      <trkpt lat="48.85067" lon="2.26203">
        <ele>59.599998474121</ele>
        <time>2015-11-23T20:10:00Z</time>
      </trkpt>
      <trkpt lat="48.85055" lon="2.26198">
        <ele>59.20000076294</ele>
        <time>2015-11-23T20:10:03Z</time>
      </trkpt>
      <trkpt lat="48.85036" lon="2.26184">
        <ele>58.599998474121</ele>
        <time>2015-11-23T20:10:08Z</time>
      </trkpt>
      <trkpt lat="48.85025" lon="2.26162">
        <ele>59.20000076294</ele>
        <time>2015-11-23T20:10:14Z</time>
      </trkpt>
      <trkpt lat="48.85022" lon="2.26159">
        <ele>59</ele>
        <time>2015-11-23T20:10:15Z</time>
      </trkpt>
      <trkpt lat="48.85011" lon="2.26143">
        <ele>58.20000076294</ele>
        <time>2015-11-23T20:10:19Z</time>
      </trkpt>
      <trkpt lat="48.84977" lon="2.2613">
        <ele>55.599998474121</ele>
        <time>2015-11-23T20:10:22Z</time>
      </trkpt>
      <trkpt lat="48.84965" lon="2.26126">
        <ele>54.599998474121</ele>
        <time>2015-11-23T20:10:23Z</time>
      </trkpt>
      <trkpt lat="48.84938" lon="2.26118">
        <ele>52.599998474121</ele>
        <time>2015-11-23T20:10:26Z</time>
      </trkpt>
      <trkpt lat="48.84916" lon="2.26106">
        <ele>52.400001525879</ele>
        <time>2015-11-23T20:10:29Z</time>
      </trkpt>
      <trkpt lat="48.84893" lon="2.26089">
        <ele>52.400001525879</ele>
        <time>2015-11-23T20:10:32Z</time>
      </trkpt>
      <trkpt lat="48.84875" lon="2.26076">
        <ele>52.20000076294</ele>
        <time>2015-11-23T20:10:35Z</time>
      </trkpt>
      <trkpt lat="48.84865" lon="2.2607">
        <ele>51.79999923706</ele>
        <time>2015-11-23T20:10:37Z</time>
      </trkpt>
      <trkpt lat="48.84848" lon="2.26063">
        <ele>51.79999923706</ele>
        <time>2015-11-23T20:10:41Z</time>
      </trkpt>
      <trkpt lat="48.84844" lon="2.26062">
        <ele>51.79999923706</ele>
        <time>2015-11-23T20:10:42Z</time>
      </trkpt>
      <trkpt lat="48.84837" lon="2.26058">
        <ele>52</ele>
        <time>2015-11-23T20:10:46Z</time>
      </trkpt>
      <trkpt lat="48.84821" lon="2.26049">
        <ele>52</ele>
        <time>2015-11-23T20:11:33Z</time>
      </trkpt>
      <trkpt lat="48.84814" lon="2.26043">
        <ele>52</ele>
        <time>2015-11-23T20:11:37Z</time>
      </trkpt>
      <trkpt lat="48.84802" lon="2.26026">
        <ele>52</ele>
        <time>2015-11-23T20:11:49Z</time>
      </trkpt>
      <trkpt lat="48.84801" lon="2.26023">
        <ele>52</ele>
        <time>2015-11-23T20:11:50Z</time>
      </trkpt>
      <trkpt lat="48.848" lon="2.26022">
        <ele>52</ele>
        <time>2015-11-23T20:11:51Z</time>
      </trkpt>
      <trkpt lat="48.84788" lon="2.26017">
        <ele>52</ele>
        <time>2015-11-23T20:12:04Z</time>
      </trkpt>
      <trkpt lat="48.84769" lon="2.26008">
        <ele>52</ele>
        <time>2015-11-23T20:12:13Z</time>
      </trkpt>
      <trkpt lat="48.84749" lon="2.26006">
        <ele>51.20000076294</ele>
        <time>2015-11-23T20:12:20Z</time>
      </trkpt>
      <trkpt lat="48.84728" lon="2.26001">
        <ele>50.400001525879</ele>
        <time>2015-11-23T20:12:25Z</time>
      </trkpt>
      <trkpt lat="48.84711" lon="2.25993">
        <ele>49.79999923706</ele>
        <time>2015-11-23T20:12:29Z</time>
      </trkpt>
      <trkpt lat="48.84691" lon="2.25978">
        <ele>49.79999923706</ele>
        <time>2015-11-23T20:12:34Z</time>
      </trkpt>
      <trkpt lat="48.84673" lon="2.25971">
        <ele>49.400001525879</ele>
        <time>2015-11-23T20:12:39Z</time>
      </trkpt>
      <trkpt lat="48.84654" lon="2.25964">
        <ele>49.400001525879</ele>
        <time>2015-11-23T20:12:44Z</time>
      </trkpt>
      <trkpt lat="48.84635" lon="2.25957">
        <ele>49.79999923706</ele>
        <time>2015-11-23T20:12:49Z</time>
      </trkpt>
      <trkpt lat="48.84614" lon="2.25951">
        <ele>50.20000076294</ele>
        <time>2015-11-23T20:12:54Z</time>
      </trkpt>
      <trkpt lat="48.84597" lon="2.25941">
        <ele>50</ele>
        <time>2015-11-23T20:12:58Z</time>
      </trkpt>
      <trkpt lat="48.84578" lon="2.25931">
        <ele>49.20000076294</ele>
        <time>2015-11-23T20:13:03Z</time>
      </trkpt>
      <trkpt lat="48.84558" lon="2.2592">
        <ele>48.400001525879</ele>
        <time>2015-11-23T20:13:09Z</time>
      </trkpt>
      <trkpt lat="48.84542" lon="2.25905">
        <ele>47.79999923706</ele>
        <time>2015-11-23T20:13:17Z</time>
      </trkpt>
      <trkpt lat="48.84541" lon="2.25899">
        <ele>47.79999923706</ele>
        <time>2015-11-23T20:13:19Z</time>
      </trkpt>
      <trkpt lat="48.84543" lon="2.25885">
        <ele>48</ele>
        <time>2015-11-23T20:13:27Z</time>
      </trkpt>
      <trkpt lat="48.84542" lon="2.25883">
        <ele>48</ele>
        <time>2015-11-23T20:13:28Z</time>
      </trkpt>
      <trkpt lat="48.84538" lon="2.25858">
        <ele>48.20000076294</ele>
        <time>2015-11-23T20:13:33Z</time>
      </trkpt>
      <trkpt lat="48.84533" lon="2.2583">
        <ele>47.79999923706</ele>
        <time>2015-11-23T20:13:38Z</time>
      </trkpt>
      <trkpt lat="48.84535" lon="2.25801">
        <ele>46</ele>
        <time>2015-11-23T20:13:43Z</time>
      </trkpt>
      <trkpt lat="48.84538" lon="2.25772">
        <ele>44.20000076294</ele>
        <time>2015-11-23T20:13:51Z</time>
      </trkpt>
      <trkpt lat="48.84541" lon="2.25744">
        <ele>42.20000076294</ele>
        <time>2015-11-23T20:13:59Z</time>
      </trkpt>
      <trkpt lat="48.84541" lon="2.25712">
        <ele>41</ele>
        <time>2015-11-23T20:14:05Z</time>
      </trkpt>
      <trkpt lat="48.8454" lon="2.25678">
        <ele>40</ele>
        <time>2015-11-23T20:14:10Z</time>
      </trkpt>
      <trkpt lat="48.84539" lon="2.25651">
        <ele>39.400001525879</ele>
        <time>2015-11-23T20:14:14Z</time>
      </trkpt>
      <trkpt lat="48.8454" lon="2.25621">
        <ele>38.400001525879</ele>
        <time>2015-11-23T20:14:18Z</time>
      </trkpt>
      <trkpt lat="48.84541" lon="2.25593">
        <ele>37.400001525879</ele>
        <time>2015-11-23T20:14:22Z</time>
      </trkpt>
      <trkpt lat="48.8454" lon="2.2556">
        <ele>36.79999923706</ele>
        <time>2015-11-23T20:14:27Z</time>
      </trkpt>
      <trkpt lat="48.84542" lon="2.25527">
        <ele>36</ele>
        <time>2015-11-23T20:14:32Z</time>
      </trkpt>
      <trkpt lat="48.84541" lon="2.25497">
        <ele>34.79999923706</ele>
        <time>2015-11-23T20:14:37Z</time>
      </trkpt>
      <trkpt lat="48.84532" lon="2.25474">
        <ele>34.79999923706</ele>
        <time>2015-11-23T20:14:42Z</time>
      </trkpt>
      <trkpt lat="48.8452" lon="2.25449">
        <ele>35</ele>
        <time>2015-11-23T20:14:48Z</time>
      </trkpt>
      <trkpt lat="48.84512" lon="2.25424">
        <ele>35.20000076294</ele>
        <time>2015-11-23T20:14:54Z</time>
      </trkpt>
      <trkpt lat="48.84508" lon="2.25395">
        <ele>35.400001525879</ele>
        <time>2015-11-23T20:15:00Z</time>
      </trkpt>
      <trkpt lat="48.84504" lon="2.25369">
        <ele>35.400001525879</ele>
        <time>2015-11-23T20:15:06Z</time>
      </trkpt>
      <trkpt lat="48.84497" lon="2.25341">
        <ele>35.599998474121</ele>
        <time>2015-11-23T20:15:11Z</time>
      </trkpt>
      <trkpt lat="48.84492" lon="2.25312">
        <ele>36</ele>
        <time>2015-11-23T20:15:16Z</time>
      </trkpt>
      <trkpt lat="48.84487" lon="2.25285">
        <ele>36.599998474121</ele>
        <time>2015-11-23T20:15:21Z</time>
      </trkpt>
      <trkpt lat="48.84482" lon="2.25258">
        <ele>38</ele>
        <time>2015-11-23T20:15:26Z</time>
      </trkpt>
      <trkpt lat="48.84476" lon="2.25229">
        <ele>39.20000076294</ele>
        <time>2015-11-23T20:15:32Z</time>
      </trkpt>
      <trkpt lat="48.84461" lon="2.25211">
        <ele>40</ele>
        <time>2015-11-23T20:15:37Z</time>
      </trkpt>
      <trkpt lat="48.84443" lon="2.25201">
        <ele>40.20000076294</ele>
        <time>2015-11-23T20:15:42Z</time>
      </trkpt>
      <trkpt lat="48.84424" lon="2.25195">
        <ele>41.20000076294</ele>
        <time>2015-11-23T20:15:46Z</time>
      </trkpt>
      <trkpt lat="48.84402" lon="2.2519">
        <ele>42.400001525879</ele>
        <time>2015-11-23T20:15:50Z</time>
      </trkpt>
      <trkpt lat="48.84382" lon="2.2518">
        <ele>43.79999923706</ele>
        <time>2015-11-23T20:15:54Z</time>
      </trkpt>
      <trkpt lat="48.84362" lon="2.25173">
        <ele>44.79999923706</ele>
        <time>2015-11-23T20:15:58Z</time>
      </trkpt>
      <trkpt lat="48.84343" lon="2.25166">
        <ele>44.20000076294</ele>
        <time>2015-11-23T20:16:02Z</time>
      </trkpt>
      <trkpt lat="48.84333" lon="2.25163">
        <ele>43.599998474121</ele>
        <time>2015-11-23T20:16:04Z</time>
      </trkpt>
      <trkpt lat="48.84317" lon="2.2516">
        <ele>42.400001525879</ele>
        <time>2015-11-23T20:16:07Z</time>
      </trkpt>
      <trkpt lat="48.84298" lon="2.25155">
        <ele>41</ele>
        <time>2015-11-23T20:16:11Z</time>
      </trkpt>
      <trkpt lat="48.84289" lon="2.25154">
        <ele>40.20000076294</ele>
        <time>2015-11-23T20:16:13Z</time>
      </trkpt>
      <trkpt lat="48.8428" lon="2.25154">
        <ele>39.20000076294</ele>
        <time>2015-11-23T20:16:15Z</time>
      </trkpt>
      <trkpt lat="48.84272" lon="2.25157">
        <ele>38.400001525879</ele>
        <time>2015-11-23T20:16:17Z</time>
      </trkpt>
      <trkpt lat="48.84252" lon="2.25163">
        <ele>37.79999923706</ele>
        <time>2015-11-23T20:16:22Z</time>
      </trkpt>
      <trkpt lat="48.84247" lon="2.25165">
        <ele>37.599998474121</ele>
        <time>2015-11-23T20:16:23Z</time>
      </trkpt>
      <trkpt lat="48.84239" lon="2.25168">
        <ele>37.400001525879</ele>
        <time>2015-11-23T20:16:25Z</time>
      </trkpt>
      <trkpt lat="48.84221" lon="2.2517">
        <ele>37.20000076294</ele>
        <time>2015-11-23T20:16:29Z</time>
      </trkpt>
      <trkpt lat="48.84215" lon="2.2517">
        <ele>37</ele>
        <time>2015-11-23T20:16:30Z</time>
      </trkpt>
      <trkpt lat="48.8421" lon="2.2517">
        <ele>37</ele>
        <time>2015-11-23T20:16:31Z</time>
      </trkpt>
      <trkpt lat="48.84215" lon="2.25156">
        <ele>37.400001525879</ele>
        <time>2015-11-23T20:16:40Z</time>
      </trkpt>
      <trkpt lat="48.84225" lon="2.25152">
        <ele>37.599998474121</ele>
        <time>2015-11-23T20:16:43Z</time>
      </trkpt>
      <trkpt lat="48.84232" lon="2.25149">
        <ele>37.599998474121</ele>
        <time>2015-11-23T20:16:45Z</time>
      </trkpt>
      <trkpt lat="48.84239" lon="2.25123">
        <ele>38.400001525879</ele>
        <time>2015-11-23T20:16:50Z</time>
      </trkpt>
      <trkpt lat="48.84235" lon="2.25106">
        <ele>39.20000076294</ele>
        <time>2015-11-23T20:16:53Z</time>
      </trkpt>
      <trkpt lat="48.84229" lon="2.2508">
        <ele>40.400001525879</ele>
        <time>2015-11-23T20:17:00Z</time>
      </trkpt>
      <trkpt lat="48.84229" lon="2.25078">
        <ele>40.400001525879</ele>
        <time>2015-11-23T20:17:01Z</time>
      </trkpt>
      <trkpt lat="48.84239" lon="2.25067">
        <ele>41.400001525879</ele>
        <time>2015-11-23T20:18:37Z</time>
      </trkpt>
      <trkpt lat="48.84231" lon="2.25057">
        <ele>41.400001525879</ele>
        <time>2015-11-23T20:19:41Z</time>
      </trkpt>
      <trkpt lat="48.84215" lon="2.25044">
        <ele>40.79999923706</ele>
        <time>2015-11-23T20:19:49Z</time>
      </trkpt>
      <trkpt lat="48.84201" lon="2.25025">
        <ele>40.599998474121</ele>
        <time>2015-11-23T20:19:55Z</time>
      </trkpt>
      <trkpt lat="48.84187" lon="2.25003">
        <ele>40.79999923706</ele>
        <time>2015-11-23T20:20:01Z</time>
      </trkpt>
      <trkpt lat="48.84171" lon="2.24986">
        <ele>41.20000076294</ele>
        <time>2015-11-23T20:20:06Z</time>
      </trkpt>
      <trkpt lat="48.84155" lon="2.2497">
        <ele>41.400001525879</ele>
        <time>2015-11-23T20:20:10Z</time>
      </trkpt>
      <trkpt lat="48.84138" lon="2.2495">
        <ele>41.599998474121</ele>
        <time>2015-11-23T20:20:15Z</time>
      </trkpt>
      <trkpt lat="48.84122" lon="2.24936">
        <ele>41.79999923706</ele>
        <time>2015-11-23T20:20:19Z</time>
      </trkpt>
      <trkpt lat="48.84104" lon="2.24916">
        <ele>42</ele>
        <time>2015-11-23T20:20:24Z</time>
      </trkpt>
      <trkpt lat="48.84085" lon="2.24897">
        <ele>42.20000076294</ele>
        <time>2015-11-23T20:20:29Z</time>
      </trkpt>
      <trkpt lat="48.84071" lon="2.24877">
        <ele>42.400001525879</ele>
        <time>2015-11-23T20:20:33Z</time>
      </trkpt>
      <trkpt lat="48.84067" lon="2.2487">
        <ele>42.599998474121</ele>
        <time>2015-11-23T20:20:34Z</time>
      </trkpt>
      <trkpt lat="48.8406" lon="2.24862">
        <ele>42.599998474121</ele>
        <time>2015-11-23T20:20:36Z</time>
      </trkpt>
      <trkpt lat="48.84047" lon="2.24841">
        <ele>42.79999923706</ele>
        <time>2015-11-23T20:20:41Z</time>
      </trkpt>
      <trkpt lat="48.84037" lon="2.24831">
        <ele>43</ele>
        <time>2015-11-23T20:20:45Z</time>
      </trkpt>
      <trkpt lat="48.84022" lon="2.24814">
        <ele>43.20000076294</ele>
        <time>2015-11-23T20:20:50Z</time>
      </trkpt>
      <trkpt lat="48.84008" lon="2.24798">
        <ele>43.400001525879</ele>
        <time>2015-11-23T20:20:57Z</time>
      </trkpt>
      <trkpt lat="48.84005" lon="2.24796">
        <ele>43.400001525879</ele>
        <time>2015-11-23T20:20:58Z</time>
      </trkpt>
      <trkpt lat="48.83986" lon="2.24789">
        <ele>43.400001525879</ele>
        <time>2015-11-23T20:21:03Z</time>
      </trkpt>
      <trkpt lat="48.83967" lon="2.24773">
        <ele>43.599998474121</ele>
        <time>2015-11-23T20:21:08Z</time>
      </trkpt>
      <trkpt lat="48.8395" lon="2.24757">
        <ele>43.79999923706</ele>
        <time>2015-11-23T20:21:13Z</time>
      </trkpt>
      <trkpt lat="48.83931" lon="2.24746">
        <ele>43.79999923706</ele>
        <time>2015-11-23T20:21:19Z</time>
      </trkpt>
      <trkpt lat="48.83914" lon="2.24726">
        <ele>43.400001525879</ele>
        <time>2015-11-23T20:21:25Z</time>
      </trkpt>
      <trkpt lat="48.83899" lon="2.24713">
        <ele>43</ele>
        <time>2015-11-23T20:21:33Z</time>
      </trkpt>
      <trkpt lat="48.83903" lon="2.24698">
        <ele>43</ele>
        <time>2015-11-23T20:21:42Z</time>
      </trkpt>
      <trkpt lat="48.83903" lon="2.24696">
        <ele>43</ele>
        <time>2015-11-23T20:21:43Z</time>
      </trkpt>
      <trkpt lat="48.83901" lon="2.24694">
        <ele>43</ele>
        <time>2015-11-23T20:22:01Z</time>
      </trkpt>
      <trkpt lat="48.83884" lon="2.24684">
        <ele>42.599998474121</ele>
        <time>2015-11-23T20:22:11Z</time>
      </trkpt>
      <trkpt lat="48.83865" lon="2.24675">
        <ele>42.20000076294</ele>
        <time>2015-11-23T20:22:16Z</time>
      </trkpt>
      <trkpt lat="48.83846" lon="2.24664">
        <ele>41.599998474121</ele>
        <time>2015-11-23T20:22:21Z</time>
      </trkpt>
      <trkpt lat="48.83827" lon="2.24653">
        <ele>40.79999923706</ele>
        <time>2015-11-23T20:22:25Z</time>
      </trkpt>
      <trkpt lat="48.83805" lon="2.24645">
        <ele>39.79999923706</ele>
        <time>2015-11-23T20:22:29Z</time>
      </trkpt>
      <trkpt lat="48.83787" lon="2.24638">
        <ele>39</ele>
        <time>2015-11-23T20:22:32Z</time>
      </trkpt>
      <trkpt lat="48.83767" lon="2.2463">
        <ele>38.20000076294</ele>
        <time>2015-11-23T20:22:36Z</time>
      </trkpt>
      <trkpt lat="48.83759" lon="2.24625">
        <ele>38</ele>
        <time>2015-11-23T20:22:38Z</time>
      </trkpt>
      <trkpt lat="48.83739" lon="2.24616">
        <ele>37.400001525879</ele>
        <time>2015-11-23T20:22:42Z</time>
      </trkpt>
      <trkpt lat="48.83728" lon="2.24614">
        <ele>37</ele>
        <time>2015-11-23T20:22:44Z</time>
      </trkpt>
      <trkpt lat="48.83704" lon="2.24605">
        <ele>36.20000076294</ele>
        <time>2015-11-23T20:22:48Z</time>
      </trkpt>
      <trkpt lat="48.83684" lon="2.24599">
        <ele>35.79999923706</ele>
        <time>2015-11-23T20:22:51Z</time>
      </trkpt>
      <trkpt lat="48.83664" lon="2.24589">
        <ele>36.20000076294</ele>
        <time>2015-11-23T20:22:55Z</time>
      </trkpt>
      <trkpt lat="48.83653" lon="2.24582">
        <ele>36.400001525879</ele>
        <time>2015-11-23T20:22:57Z</time>
      </trkpt>
      <trkpt lat="48.83633" lon="2.24573">
        <ele>36.79999923706</ele>
        <time>2015-11-23T20:23:00Z</time>
      </trkpt>
      <trkpt lat="48.83615" lon="2.24559">
        <ele>37.20000076294</ele>
        <time>2015-11-23T20:23:03Z</time>
      </trkpt>
      <trkpt lat="48.83596" lon="2.24547">
        <ele>37.400001525879</ele>
        <time>2015-11-23T20:23:06Z</time>
      </trkpt>
      <trkpt lat="48.83577" lon="2.24538">
        <ele>37.400001525879</ele>
        <time>2015-11-23T20:23:09Z</time>
      </trkpt>
      <trkpt lat="48.83555" lon="2.24525">
        <ele>37.599998474121</ele>
        <time>2015-11-23T20:23:13Z</time>
      </trkpt>
      <trkpt lat="48.83549" lon="2.24523">
        <ele>37.599998474121</ele>
        <time>2015-11-23T20:23:14Z</time>
      </trkpt>
      <trkpt lat="48.83529" lon="2.24506">
        <ele>38</ele>
        <time>2015-11-23T20:23:18Z</time>
      </trkpt>
      <trkpt lat="48.83524" lon="2.24504">
        <ele>38</ele>
        <time>2015-11-23T20:23:19Z</time>
      </trkpt>
      <trkpt lat="48.83508" lon="2.24489">
        <ele>38.400001525879</ele>
        <time>2015-11-23T20:23:23Z</time>
      </trkpt>
      <trkpt lat="48.83488" lon="2.24476">
        <ele>38.79999923706</ele>
        <time>2015-11-23T20:23:27Z</time>
      </trkpt>
      <trkpt lat="48.83469" lon="2.24461">
        <ele>39.20000076294</ele>
        <time>2015-11-23T20:23:31Z</time>
      </trkpt>
      <trkpt lat="48.83454" lon="2.24452">
        <ele>39.599998474121</ele>
        <time>2015-11-23T20:23:34Z</time>
      </trkpt>
      <trkpt lat="48.83432" lon="2.2444">
        <ele>39.79999923706</ele>
        <time>2015-11-23T20:23:38Z</time>
      </trkpt>
      <trkpt lat="48.8341" lon="2.24428">
        <ele>39</ele>
        <time>2015-11-23T20:23:42Z</time>
      </trkpt>
      <trkpt lat="48.83389" lon="2.24417">
        <ele>38.20000076294</ele>
        <time>2015-11-23T20:23:46Z</time>
      </trkpt>
      <trkpt lat="48.83372" lon="2.24409">
        <ele>37.599998474121</ele>
        <time>2015-11-23T20:23:50Z</time>
      </trkpt>
      <trkpt lat="48.83364" lon="2.24405">
        <ele>37.400001525879</ele>
        <time>2015-11-23T20:23:53Z</time>
      </trkpt>
      <trkpt lat="48.83359" lon="2.24405">
        <ele>37.20000076294</ele>
        <time>2015-11-23T20:23:57Z</time>
      </trkpt>
      <trkpt lat="48.83367" lon="2.24386">
        <ele>37.400001525879</ele>
        <time>2015-11-23T20:24:15Z</time>
      </trkpt>
      <trkpt lat="48.83363" lon="2.24366">
        <ele>37.20000076294</ele>
        <time>2015-11-23T20:24:36Z</time>
      </trkpt>
      <trkpt lat="48.83345" lon="2.24356">
        <ele>37.400001525879</ele>
        <time>2015-11-23T20:24:45Z</time>
      </trkpt>
      <trkpt lat="48.83329" lon="2.24344">
        <ele>38</ele>
        <time>2015-11-23T20:24:50Z</time>
      </trkpt>
      <trkpt lat="48.8331" lon="2.24332">
        <ele>38.599998474121</ele>
        <time>2015-11-23T20:24:57Z</time>
      </trkpt>
      <trkpt lat="48.83289" lon="2.24322">
        <ele>39.400001525879</ele>
        <time>2015-11-23T20:25:03Z</time>
      </trkpt>
      <trkpt lat="48.83264" lon="2.2432">
        <ele>39.79999923706</ele>
        <time>2015-11-23T20:25:07Z</time>
      </trkpt>
      <trkpt lat="48.83241" lon="2.24315">
        <ele>38.79999923706</ele>
        <time>2015-11-23T20:25:11Z</time>
      </trkpt>
      <trkpt lat="48.83221" lon="2.24312">
        <ele>38.20000076294</ele>
        <time>2015-11-23T20:25:15Z</time>
      </trkpt>
      <trkpt lat="48.83203" lon="2.24297">
        <ele>37.599998474121</ele>
        <time>2015-11-23T20:25:21Z</time>
      </trkpt>
      <trkpt lat="48.83195" lon="2.24286">
        <ele>37.20000076294</ele>
        <time>2015-11-23T20:25:24Z</time>
      </trkpt>
      <trkpt lat="48.83178" lon="2.24274">
        <ele>36.79999923706</ele>
        <time>2015-11-23T20:25:27Z</time>
      </trkpt>
      <trkpt lat="48.83173" lon="2.24271">
        <ele>36.79999923706</ele>
        <time>2015-11-23T20:25:28Z</time>
      </trkpt>
      <trkpt lat="48.83152" lon="2.24261">
        <ele>36.599998474121</ele>
        <time>2015-11-23T20:25:32Z</time>
      </trkpt>
      <trkpt lat="48.83137" lon="2.24241">
        <ele>36.400001525879</ele>
        <time>2015-11-23T20:25:36Z</time>
      </trkpt>
      <trkpt lat="48.83131" lon="2.24222">
        <ele>36.400001525879</ele>
        <time>2015-11-23T20:25:39Z</time>
      </trkpt>
      <trkpt lat="48.83124" lon="2.24195">
        <ele>36.20000076294</ele>
        <time>2015-11-23T20:25:43Z</time>
      </trkpt>
      <trkpt lat="48.83118" lon="2.24176">
        <ele>36.20000076294</ele>
        <time>2015-11-23T20:25:46Z</time>
      </trkpt>
      <trkpt lat="48.83106" lon="2.24149">
        <ele>36</ele>
        <time>2015-11-23T20:25:50Z</time>
      </trkpt>
      <trkpt lat="48.83094" lon="2.24128">
        <ele>36.20000076294</ele>
        <time>2015-11-23T20:25:54Z</time>
      </trkpt>
      <trkpt lat="48.83084" lon="2.24104">
        <ele>36.599998474121</ele>
        <time>2015-11-23T20:25:59Z</time>
      </trkpt>
      <trkpt lat="48.83074" lon="2.24076">
        <ele>36.79999923706</ele>
        <time>2015-11-23T20:26:05Z</time>
      </trkpt>
      <trkpt lat="48.83065" lon="2.24047">
        <ele>36.599998474121</ele>
        <time>2015-11-23T20:26:11Z</time>
      </trkpt>
      <trkpt lat="48.83054" lon="2.24025">
        <ele>36.599998474121</ele>
        <time>2015-11-23T20:26:15Z</time>
      </trkpt>
      <trkpt lat="48.83046" lon="2.23994">
        <ele>37</ele>
        <time>2015-11-23T20:26:20Z</time>
      </trkpt>
      <trkpt lat="48.83037" lon="2.23971">
        <ele>37.20000076294</ele>
        <time>2015-11-23T20:26:24Z</time>
      </trkpt>
      <trkpt lat="48.83026" lon="2.2395">
        <ele>37.599998474121</ele>
        <time>2015-11-23T20:26:28Z</time>
      </trkpt>
      <trkpt lat="48.8302" lon="2.23939">
        <ele>37.79999923706</ele>
        <time>2015-11-23T20:26:30Z</time>
      </trkpt>
      <trkpt lat="48.83017" lon="2.23935">
        <ele>38</ele>
        <time>2015-11-23T20:26:31Z</time>
      </trkpt>
      <trkpt lat="48.8301" lon="2.2392">
        <ele>38.599998474121</ele>
        <time>2015-11-23T20:26:35Z</time>
      </trkpt>
      <trkpt lat="48.83007" lon="2.23915">
        <ele>38.79999923706</ele>
        <time>2015-11-23T20:26:37Z</time>
      </trkpt>
      <trkpt lat="48.83001" lon="2.23926">
        <ele>39.20000076294</ele>
        <time>2015-11-23T20:26:44Z</time>
      </trkpt>
      <trkpt lat="48.82981" lon="2.23922">
        <ele>40.400001525879</ele>
        <time>2015-11-23T20:26:55Z</time>
      </trkpt>
      <trkpt lat="48.8296" lon="2.23923">
        <ele>41.599998474121</ele>
        <time>2015-11-23T20:27:01Z</time>
      </trkpt>
      <trkpt lat="48.82936" lon="2.2393">
        <ele>42.79999923706</ele>
        <time>2015-11-23T20:27:04Z</time>
      </trkpt>
      <trkpt lat="48.82914" lon="2.23931">
        <ele>40.20000076294</ele>
        <time>2015-11-23T20:27:08Z</time>
      </trkpt>
      <trkpt lat="48.82893" lon="2.23926">
        <ele>38</ele>
        <time>2015-11-23T20:27:12Z</time>
      </trkpt>
      <trkpt lat="48.82873" lon="2.23923">
        <ele>35.79999923706</ele>
        <time>2015-11-23T20:27:16Z</time>
      </trkpt>
      <trkpt lat="48.82853" lon="2.23921">
        <ele>34.599998474121</ele>
        <time>2015-11-23T20:27:20Z</time>
      </trkpt>
      <trkpt lat="48.82834" lon="2.23919">
        <ele>33</ele>
        <time>2015-11-23T20:27:24Z</time>
      </trkpt>
      <trkpt lat="48.82819" lon="2.23913">
        <ele>31.39999961853</ele>
        <time>2015-11-23T20:27:29Z</time>
      </trkpt>
      <trkpt lat="48.82812" lon="2.2391">
        <ele>30.799999237061</ele>
        <time>2015-11-23T20:27:32Z</time>
      </trkpt>
      <trkpt lat="48.82789" lon="2.23907">
        <ele>29.200000762939</ele>
        <time>2015-11-23T20:27:37Z</time>
      </trkpt>
      <trkpt lat="48.82766" lon="2.23907">
        <ele>28</ele>
        <time>2015-11-23T20:27:41Z</time>
      </trkpt>
      <trkpt lat="48.82745" lon="2.23907">
        <ele>29.60000038147</ele>
        <time>2015-11-23T20:27:44Z</time>
      </trkpt>
      <trkpt lat="48.82726" lon="2.23905">
        <ele>30.799999237061</ele>
        <time>2015-11-23T20:27:47Z</time>
      </trkpt>
      <trkpt lat="48.82704" lon="2.23904">
        <ele>32.400001525879</ele>
        <time>2015-11-23T20:27:51Z</time>
      </trkpt>
      <trkpt lat="48.82686" lon="2.239">
        <ele>33.400001525879</ele>
        <time>2015-11-23T20:27:55Z</time>
      </trkpt>
      <trkpt lat="48.82667" lon="2.23897">
        <ele>34.599998474121</ele>
        <time>2015-11-23T20:27:59Z</time>
      </trkpt>
      <trkpt lat="48.82647" lon="2.23894">
        <ele>35.400001525879</ele>
        <time>2015-11-23T20:28:03Z</time>
      </trkpt>
      <trkpt lat="48.82625" lon="2.23891">
        <ele>36</ele>
        <time>2015-11-23T20:28:07Z</time>
      </trkpt>
      <trkpt lat="48.82606" lon="2.23886">
        <ele>36.599998474121</ele>
        <time>2015-11-23T20:28:11Z</time>
      </trkpt>
      <trkpt lat="48.82588" lon="2.23876">
        <ele>36.599998474121</ele>
        <time>2015-11-23T20:28:15Z</time>
      </trkpt>
      <trkpt lat="48.82576" lon="2.23872">
        <ele>36.599998474121</ele>
        <time>2015-11-23T20:28:18Z</time>
      </trkpt>
      <trkpt lat="48.82567" lon="2.23872">
        <ele>36.599998474121</ele>
        <time>2015-11-23T20:28:21Z</time>
      </trkpt>
      <trkpt lat="48.82566" lon="2.23858">
        <ele>36.400001525879</ele>
        <time>2015-11-23T20:28:26Z</time>
      </trkpt>
      <trkpt lat="48.8258" lon="2.23842">
        <ele>36.20000076294</ele>
        <time>2015-11-23T20:28:48Z</time>
      </trkpt>
      <trkpt lat="48.82574" lon="2.23868">
        <ele>36.400001525879</ele>
        <time>2015-11-23T20:28:54Z</time>
      </trkpt>
      <trkpt lat="48.82559" lon="2.23888">
        <ele>36.20000076294</ele>
        <time>2015-11-23T20:29:00Z</time>
      </trkpt>
      <trkpt lat="48.82553" lon="2.23918">
        <ele>35.599998474121</ele>
        <time>2015-11-23T20:29:05Z</time>
      </trkpt>
      <trkpt lat="48.82554" lon="2.2395">
        <ele>35.400001525879</ele>
        <time>2015-11-23T20:29:08Z</time>
      </trkpt>
      <trkpt lat="48.82542" lon="2.23973">
        <ele>35.20000076294</ele>
        <time>2015-11-23T20:29:12Z</time>
      </trkpt>
      <trkpt lat="48.82524" lon="2.23984">
        <ele>35</ele>
        <time>2015-11-23T20:29:18Z</time>
      </trkpt>
      <trkpt lat="48.82509" lon="2.24003">
        <ele>35</ele>
        <time>2015-11-23T20:29:24Z</time>
      </trkpt>
      <trkpt lat="48.82497" lon="2.24031">
        <ele>33.79999923706</ele>
        <time>2015-11-23T20:29:30Z</time>
      </trkpt>
      <trkpt lat="48.82491" lon="2.2405">
        <ele>32.79999923706</ele>
        <time>2015-11-23T20:29:34Z</time>
      </trkpt>
      <trkpt lat="48.82479" lon="2.24077">
        <ele>32.599998474121</ele>
        <time>2015-11-23T20:29:40Z</time>
      </trkpt>
      <trkpt lat="48.82471" lon="2.24106">
        <ele>33</ele>
        <time>2015-11-23T20:29:45Z</time>
      </trkpt>
      <trkpt lat="48.82463" lon="2.24136">
        <ele>32</ele>
        <time>2015-11-23T20:29:50Z</time>
      </trkpt>
      <trkpt lat="48.82455" lon="2.24163">
        <ele>30.799999237061</ele>
        <time>2015-11-23T20:29:56Z</time>
      </trkpt>
      <trkpt lat="48.82455" lon="2.24167">
        <ele>30.799999237061</ele>
        <time>2015-11-23T20:29:57Z</time>
      </trkpt>
      <trkpt lat="48.82469" lon="2.24175">
        <ele>30.799999237061</ele>
        <time>2015-11-23T20:30:05Z</time>
      </trkpt>
      <trkpt lat="48.82487" lon="2.2418">
        <ele>30.60000038147</ele>
        <time>2015-11-23T20:30:13Z</time>
      </trkpt>
      <trkpt lat="48.82506" lon="2.24179">
        <ele>30.39999961853</ele>
        <time>2015-11-23T20:30:21Z</time>
      </trkpt>
      <trkpt lat="48.82524" lon="2.24188">
        <ele>30.39999961853</ele>
        <time>2015-11-23T20:30:28Z</time>
      </trkpt>
      <trkpt lat="48.82544" lon="2.24199">
        <ele>31</ele>
        <time>2015-11-23T20:30:37Z</time>
      </trkpt>
      <trkpt lat="48.82552" lon="2.24203">
        <ele>31.200000762939</ele>
        <time>2015-11-23T20:30:43Z</time>
      </trkpt>
      <trkpt lat="48.82566" lon="2.24202">
        <ele>31.799999237061</ele>
        <time>2015-11-23T20:30:56Z</time>
      </trkpt>
      <trkpt lat="48.82585" lon="2.24196">
        <ele>33</ele>
        <time>2015-11-23T20:31:04Z</time>
      </trkpt>
      <trkpt lat="48.82604" lon="2.24189">
        <ele>34.20000076294</ele>
        <time>2015-11-23T20:31:10Z</time>
      </trkpt>
      <trkpt lat="48.82624" lon="2.24185">
        <ele>35.20000076294</ele>
        <time>2015-11-23T20:31:15Z</time>
      </trkpt>
      <trkpt lat="48.82642" lon="2.24183">
        <ele>35.599998474121</ele>
        <time>2015-11-23T20:31:20Z</time>
      </trkpt>
      <trkpt lat="48.82663" lon="2.24193">
        <ele>36</ele>
        <time>2015-11-23T20:31:25Z</time>
      </trkpt>
      <trkpt lat="48.82671" lon="2.24196">
        <ele>36.20000076294</ele>
        <time>2015-11-23T20:31:28Z</time>
      </trkpt>
      <trkpt lat="48.8268" lon="2.2421">
        <ele>36.20000076294</ele>
        <time>2015-11-23T20:31:33Z</time>
      </trkpt>
      <trkpt lat="48.82688" lon="2.24231">
        <ele>36.20000076294</ele>
        <time>2015-11-23T20:31:39Z</time>
      </trkpt>
      <trkpt lat="48.82678" lon="2.24249">
        <ele>35.599998474121</ele>
        <time>2015-11-23T20:31:45Z</time>
      </trkpt>
      <trkpt lat="48.82666" lon="2.24272">
        <ele>34.79999923706</ele>
        <time>2015-11-23T20:31:51Z</time>
      </trkpt>
      <trkpt lat="48.82664" lon="2.24301">
        <ele>34.400001525879</ele>
        <time>2015-11-23T20:31:55Z</time>
      </trkpt>
      <trkpt lat="48.8266" lon="2.2433">
        <ele>33.20000076294</ele>
        <time>2015-11-23T20:32:00Z</time>
      </trkpt>
      <trkpt lat="48.82657" lon="2.24362">
        <ele>32.400001525879</ele>
        <time>2015-11-23T20:32:05Z</time>
      </trkpt>
      <trkpt lat="48.82649" lon="2.24391">
        <ele>32</ele>
        <time>2015-11-23T20:32:10Z</time>
      </trkpt>
      <trkpt lat="48.82642" lon="2.2442">
        <ele>32.400001525879</ele>
        <time>2015-11-23T20:32:15Z</time>
      </trkpt>
      <trkpt lat="48.82632" lon="2.2445">
        <ele>32.599998474121</ele>
        <time>2015-11-23T20:32:20Z</time>
      </trkpt>
      <trkpt lat="48.82625" lon="2.24477">
        <ele>33.400001525879</ele>
        <time>2015-11-23T20:32:25Z</time>
      </trkpt>
      <trkpt lat="48.82617" lon="2.24504">
        <ele>34</ele>
        <time>2015-11-23T20:32:30Z</time>
      </trkpt>
      <trkpt lat="48.82609" lon="2.2453">
        <ele>34.79999923706</ele>
        <time>2015-11-23T20:32:35Z</time>
      </trkpt>
      <trkpt lat="48.82597" lon="2.24558">
        <ele>35.599998474121</ele>
        <time>2015-11-23T20:32:40Z</time>
      </trkpt>
      <trkpt lat="48.8259" lon="2.24584">
        <ele>36.20000076294</ele>
        <time>2015-11-23T20:32:45Z</time>
      </trkpt>
      <trkpt lat="48.82581" lon="2.2461">
        <ele>36.20000076294</ele>
        <time>2015-11-23T20:32:50Z</time>
      </trkpt>
      <trkpt lat="48.82576" lon="2.24638">
        <ele>36</ele>
        <time>2015-11-23T20:32:55Z</time>
      </trkpt>
      <trkpt lat="48.82568" lon="2.24669">
        <ele>34.599998474121</ele>
        <time>2015-11-23T20:33:01Z</time>
      </trkpt>
      <trkpt lat="48.82562" lon="2.24696">
        <ele>34.400001525879</ele>
        <time>2015-11-23T20:33:06Z</time>
      </trkpt>
      <trkpt lat="48.82555" lon="2.24727">
        <ele>33.79999923706</ele>
        <time>2015-11-23T20:33:12Z</time>
      </trkpt>
      <trkpt lat="48.82546" lon="2.24751">
        <ele>33.400001525879</ele>
        <time>2015-11-23T20:33:17Z</time>
      </trkpt>
      <trkpt lat="48.82542" lon="2.24779">
        <ele>33.79999923706</ele>
        <time>2015-11-23T20:33:22Z</time>
      </trkpt>
      <trkpt lat="48.8254" lon="2.24791">
        <ele>33.79999923706</ele>
        <time>2015-11-23T20:33:25Z</time>
      </trkpt>
      <trkpt lat="48.82524" lon="2.24805">
        <ele>32.20000076294</ele>
        <time>2015-11-23T20:33:28Z</time>
      </trkpt>
      <trkpt lat="48.82521" lon="2.24808">
        <ele>31.799999237061</ele>
        <time>2015-11-23T20:33:29Z</time>
      </trkpt>
      <trkpt lat="48.825" lon="2.24822">
        <ele>31</ele>
        <time>2015-11-23T20:33:43Z</time>
      </trkpt>
      <trkpt lat="48.82486" lon="2.24842">
        <ele>30.60000038147</ele>
        <time>2015-11-23T20:34:04Z</time>
      </trkpt>
      <trkpt lat="48.82473" lon="2.24862">
        <ele>29.60000038147</ele>
        <time>2015-11-23T20:34:12Z</time>
      </trkpt>
      <trkpt lat="48.82454" lon="2.24874">
        <ele>31.200000762939</ele>
        <time>2015-11-23T20:34:20Z</time>
      </trkpt>
      <trkpt lat="48.82435" lon="2.24882">
        <ele>32.79999923706</ele>
        <time>2015-11-23T20:34:27Z</time>
      </trkpt>
      <trkpt lat="48.82418" lon="2.24891">
        <ele>34.20000076294</ele>
        <time>2015-11-23T20:34:32Z</time>
      </trkpt>
      <trkpt lat="48.824" lon="2.24899">
        <ele>35</ele>
        <time>2015-11-23T20:34:37Z</time>
      </trkpt>
      <trkpt lat="48.82382" lon="2.24911">
        <ele>36</ele>
        <time>2015-11-23T20:34:43Z</time>
      </trkpt>
      <trkpt lat="48.82362" lon="2.24924">
        <ele>37.20000076294</ele>
        <time>2015-11-23T20:34:48Z</time>
      </trkpt>
      <trkpt lat="48.82345" lon="2.24939">
        <ele>37.400001525879</ele>
        <time>2015-11-23T20:34:54Z</time>
      </trkpt>
      <trkpt lat="48.82329" lon="2.24955">
        <ele>37.400001525879</ele>
        <time>2015-11-23T20:35:02Z</time>
      </trkpt>
      <trkpt lat="48.82312" lon="2.24967">
        <ele>36.599998474121</ele>
        <time>2015-11-23T20:35:07Z</time>
      </trkpt>
      <trkpt lat="48.82292" lon="2.24979">
        <ele>34.79999923706</ele>
        <time>2015-11-23T20:35:11Z</time>
      </trkpt>
      <trkpt lat="48.82274" lon="2.24987">
        <ele>33.400001525879</ele>
        <time>2015-11-23T20:35:14Z</time>
      </trkpt>
      <trkpt lat="48.82257" lon="2.24997">
        <ele>32.599998474121</ele>
        <time>2015-11-23T20:35:18Z</time>
      </trkpt>
      <trkpt lat="48.82238" lon="2.25007">
        <ele>32.20000076294</ele>
        <time>2015-11-23T20:35:22Z</time>
      </trkpt>
      <trkpt lat="48.82225" lon="2.25012">
        <ele>31.799999237061</ele>
        <time>2015-11-23T20:35:25Z</time>
      </trkpt>
      <trkpt lat="48.82209" lon="2.25006">
        <ele>31.39999961853</ele>
        <time>2015-11-23T20:35:29Z</time>
      </trkpt>
      <trkpt lat="48.82196" lon="2.24998">
        <ele>31.200000762939</ele>
        <time>2015-11-23T20:35:33Z</time>
      </trkpt>
      <trkpt lat="48.82177" lon="2.24992">
        <ele>31.200000762939</ele>
        <time>2015-11-23T20:35:40Z</time>
      </trkpt>
      <trkpt lat="48.82162" lon="2.24993">
        <ele>31.39999961853</ele>
        <time>2015-11-23T20:35:41Z</time>
      </trkpt>
      <trkpt lat="48.82142" lon="2.24991">
        <ele>31.60000038147</ele>
        <time>2015-11-23T20:35:45Z</time>
      </trkpt>
      <trkpt lat="48.82139" lon="2.2499">
        <ele>31.60000038147</ele>
        <time>2015-11-23T20:35:47Z</time>
      </trkpt>
      <trkpt lat="48.8212" lon="2.25002">
        <ele>32</ele>
        <time>2015-11-23T20:36:00Z</time>
      </trkpt>
      <trkpt lat="48.82103" lon="2.25015">
        <ele>33.400001525879</ele>
        <time>2015-11-23T20:36:05Z</time>
      </trkpt>
      <trkpt lat="48.82097" lon="2.25041">
        <ele>35.599998474121</ele>
        <time>2015-11-23T20:36:11Z</time>
      </trkpt>
      <trkpt lat="48.82103" lon="2.25073">
        <ele>37.599998474121</ele>
        <time>2015-11-23T20:36:17Z</time>
      </trkpt>
      <trkpt lat="48.82106" lon="2.25106">
        <ele>40.599998474121</ele>
        <time>2015-11-23T20:36:22Z</time>
      </trkpt>
      <trkpt lat="48.82107" lon="2.25135">
        <ele>43.20000076294</ele>
        <time>2015-11-23T20:36:26Z</time>
      </trkpt>
      <trkpt lat="48.82114" lon="2.25161">
        <ele>44.79999923706</ele>
        <time>2015-11-23T20:36:30Z</time>
      </trkpt>
      <trkpt lat="48.82122" lon="2.25187">
        <ele>43.20000076294</ele>
        <time>2015-11-23T20:36:34Z</time>
      </trkpt>
      <trkpt lat="48.82132" lon="2.25213">
        <ele>40.79999923706</ele>
        <time>2015-11-23T20:36:38Z</time>
      </trkpt>
      <trkpt lat="48.82137" lon="2.25226">
        <ele>39.599998474121</ele>
        <time>2015-11-23T20:36:40Z</time>
      </trkpt>
      <trkpt lat="48.82142" lon="2.25256">
        <ele>37.400001525879</ele>
        <time>2015-11-23T20:36:44Z</time>
      </trkpt>
      <trkpt lat="48.82145" lon="2.25289">
        <ele>35.599998474121</ele>
        <time>2015-11-23T20:36:48Z</time>
      </trkpt>
      <trkpt lat="48.82143" lon="2.25297">
        <ele>35.400001525879</ele>
        <time>2015-11-23T20:36:49Z</time>
      </trkpt>
      <trkpt lat="48.82142" lon="2.25331">
        <ele>34.400001525879</ele>
        <time>2015-11-23T20:36:53Z</time>
      </trkpt>
      <trkpt lat="48.8214" lon="2.25363">
        <ele>34.400001525879</ele>
        <time>2015-11-23T20:36:57Z</time>
      </trkpt>
      <trkpt lat="48.82137" lon="2.25398">
        <ele>34.79999923706</ele>
        <time>2015-11-23T20:37:01Z</time>
      </trkpt>
      <trkpt lat="48.82133" lon="2.25432">
        <ele>35.599998474121</ele>
        <time>2015-11-23T20:37:05Z</time>
      </trkpt>
      <trkpt lat="48.82132" lon="2.25466">
        <ele>35.400001525879</ele>
        <time>2015-11-23T20:37:09Z</time>
      </trkpt>
      <trkpt lat="48.82132" lon="2.25481">
        <ele>35</ele>
        <time>2015-11-23T20:37:11Z</time>
      </trkpt>
      <trkpt lat="48.82133" lon="2.25512">
        <ele>34.400001525879</ele>
        <time>2015-11-23T20:37:15Z</time>
      </trkpt>
      <trkpt lat="48.82133" lon="2.25543">
        <ele>35</ele>
        <time>2015-11-23T20:37:19Z</time>
      </trkpt>
      <trkpt lat="48.82132" lon="2.25559">
        <ele>35.599998474121</ele>
        <time>2015-11-23T20:37:21Z</time>
      </trkpt>
      <trkpt lat="48.82128" lon="2.25589">
        <ele>36.20000076294</ele>
        <time>2015-11-23T20:37:25Z</time>
      </trkpt>
      <trkpt lat="48.82128" lon="2.25604">
        <ele>35.79999923706</ele>
        <time>2015-11-23T20:37:27Z</time>
      </trkpt>
      <trkpt lat="48.82128" lon="2.25634">
        <ele>34.599998474121</ele>
        <time>2015-11-23T20:37:31Z</time>
      </trkpt>
      <trkpt lat="48.82126" lon="2.25665">
        <ele>33.79999923706</ele>
        <time>2015-11-23T20:37:35Z</time>
      </trkpt>
      <trkpt lat="48.82122" lon="2.25696">
        <ele>34.400001525879</ele>
        <time>2015-11-23T20:37:39Z</time>
      </trkpt>
      <trkpt lat="48.82121" lon="2.25712">
        <ele>34.20000076294</ele>
        <time>2015-11-23T20:37:41Z</time>
      </trkpt>
      <trkpt lat="48.82119" lon="2.25743">
        <ele>33.79999923706</ele>
        <time>2015-11-23T20:37:45Z</time>
      </trkpt>
      <trkpt lat="48.82119" lon="2.2575">
        <ele>33.79999923706</ele>
        <time>2015-11-23T20:37:46Z</time>
      </trkpt>
      <trkpt lat="48.82119" lon="2.25777">
        <ele>34.20000076294</ele>
        <time>2015-11-23T20:37:50Z</time>
      </trkpt>
      <trkpt lat="48.82118" lon="2.25806">
        <ele>34.599998474121</ele>
        <time>2015-11-23T20:37:54Z</time>
      </trkpt>
      <trkpt lat="48.82117" lon="2.25821">
        <ele>34.79999923706</ele>
        <time>2015-11-23T20:37:56Z</time>
      </trkpt>
      <trkpt lat="48.82114" lon="2.2585">
        <ele>35.20000076294</ele>
        <time>2015-11-23T20:38:00Z</time>
      </trkpt>
      <trkpt lat="48.82109" lon="2.25877">
        <ele>36</ele>
        <time>2015-11-23T20:38:04Z</time>
      </trkpt>
      <trkpt lat="48.82109" lon="2.2589">
        <ele>36.400001525879</ele>
        <time>2015-11-23T20:38:06Z</time>
      </trkpt>
      <trkpt lat="48.8211" lon="2.25913">
        <ele>36.79999923706</ele>
        <time>2015-11-23T20:38:10Z</time>
      </trkpt>
      <trkpt lat="48.82117" lon="2.25942">
        <ele>37.599998474121</ele>
        <time>2015-11-23T20:38:15Z</time>
      </trkpt>
      <trkpt lat="48.82124" lon="2.25958">
        <ele>38</ele>
        <time>2015-11-23T20:38:18Z</time>
      </trkpt>
      <trkpt lat="48.82126" lon="2.25973">
        <ele>38.400001525879</ele>
        <time>2015-11-23T20:38:21Z</time>
      </trkpt>
      <trkpt lat="48.82124" lon="2.25988">
        <ele>39</ele>
        <time>2015-11-23T20:38:29Z</time>
      </trkpt>
      <trkpt lat="48.82094" lon="2.25995">
        <ele>41.400001525879</ele>
        <time>2015-11-23T20:39:08Z</time>
      </trkpt>
      <trkpt lat="48.82095" lon="2.26024">
        <ele>42.400001525879</ele>
        <time>2015-11-23T20:39:25Z</time>
      </trkpt>
      <trkpt lat="48.82093" lon="2.26044">
        <ele>43.400001525879</ele>
        <time>2015-11-23T20:39:31Z</time>
      </trkpt>
      <trkpt lat="48.82081" lon="2.26058">
        <ele>45.599998474121</ele>
        <time>2015-11-23T20:39:38Z</time>
      </trkpt>
      <trkpt lat="48.8207" lon="2.26086">
        <ele>47.79999923706</ele>
        <time>2015-11-23T20:39:55Z</time>
      </trkpt>
      <trkpt lat="48.82075" lon="2.26117">
        <ele>47.599998474121</ele>
        <time>2015-11-23T20:40:02Z</time>
      </trkpt>
      <trkpt lat="48.82081" lon="2.26143">
        <ele>47.20000076294</ele>
        <time>2015-11-23T20:40:07Z</time>
      </trkpt>
      <trkpt lat="48.82088" lon="2.26168">
        <ele>47.20000076294</ele>
        <time>2015-11-23T20:40:11Z</time>
      </trkpt>
      <trkpt lat="48.82097" lon="2.26202">
        <ele>47</ele>
        <time>2015-11-23T20:40:15Z</time>
      </trkpt>
      <trkpt lat="48.82103" lon="2.26218">
        <ele>46.400001525879</ele>
        <time>2015-11-23T20:40:17Z</time>
      </trkpt>
      <trkpt lat="48.82112" lon="2.26243">
        <ele>46.400001525879</ele>
        <time>2015-11-23T20:40:20Z</time>
      </trkpt>
      <trkpt lat="48.82116" lon="2.26262">
        <ele>46</ele>
        <time>2015-11-23T20:40:22Z</time>
      </trkpt>
      <trkpt lat="48.82121" lon="2.2628">
        <ele>46</ele>
        <time>2015-11-23T20:40:24Z</time>
      </trkpt>
      <trkpt lat="48.82125" lon="2.26308">
        <ele>46.20000076294</ele>
        <time>2015-11-23T20:40:27Z</time>
      </trkpt>
      <trkpt lat="48.82126" lon="2.26316">
        <ele>46.20000076294</ele>
        <time>2015-11-23T20:40:28Z</time>
      </trkpt>
      <trkpt lat="48.82121" lon="2.26327">
        <ele>47</ele>
        <time>2015-11-23T20:40:29Z</time>
      </trkpt>
      <trkpt lat="48.82114" lon="2.26354">
        <ele>49</ele>
        <time>2015-11-23T20:40:33Z</time>
      </trkpt>
      <trkpt lat="48.82111" lon="2.26359">
        <ele>49.599998474121</ele>
        <time>2015-11-23T20:40:34Z</time>
      </trkpt>
      <trkpt lat="48.82101" lon="2.26373">
        <ele>52</ele>
        <time>2015-11-23T20:40:37Z</time>
      </trkpt>
      <trkpt lat="48.82097" lon="2.2637">
        <ele>53</ele>
        <time>2015-11-23T20:40:59Z</time>
      </trkpt>
      <trkpt lat="48.82102" lon="2.26385">
        <ele>52.599998474121</ele>
        <time>2015-11-23T20:41:36Z</time>
      </trkpt>
      <trkpt lat="48.8211" lon="2.26414">
        <ele>52.400001525879</ele>
        <time>2015-11-23T20:41:43Z</time>
      </trkpt>
      <trkpt lat="48.82123" lon="2.26441">
        <ele>51</ele>
        <time>2015-11-23T20:41:48Z</time>
      </trkpt>
      <trkpt lat="48.82135" lon="2.26467">
        <ele>49.400001525879</ele>
        <time>2015-11-23T20:41:52Z</time>
      </trkpt>
      <trkpt lat="48.82138" lon="2.26475">
        <ele>49</ele>
        <time>2015-11-23T20:41:53Z</time>
      </trkpt>
      <trkpt lat="48.82143" lon="2.26491">
        <ele>48.400001525879</ele>
        <time>2015-11-23T20:41:55Z</time>
      </trkpt>
      <trkpt lat="48.82152" lon="2.26524">
        <ele>47.599998474121</ele>
        <time>2015-11-23T20:41:59Z</time>
      </trkpt>
      <trkpt lat="48.82157" lon="2.26551">
        <ele>47.599998474121</ele>
        <time>2015-11-23T20:42:02Z</time>
      </trkpt>
      <trkpt lat="48.82161" lon="2.26578">
        <ele>47.599998474121</ele>
        <time>2015-11-23T20:42:05Z</time>
      </trkpt>
      <trkpt lat="48.82166" lon="2.26607">
        <ele>47</ele>
        <time>2015-11-23T20:42:08Z</time>
      </trkpt>
      <trkpt lat="48.82172" lon="2.26636">
        <ele>46.20000076294</ele>
        <time>2015-11-23T20:42:11Z</time>
      </trkpt>
      <trkpt lat="48.82177" lon="2.26665">
        <ele>46.599998474121</ele>
        <time>2015-11-23T20:42:14Z</time>
      </trkpt>
      <trkpt lat="48.8218" lon="2.26694">
        <ele>46</ele>
        <time>2015-11-23T20:42:17Z</time>
      </trkpt>
      <trkpt lat="48.82183" lon="2.26723">
        <ele>45.20000076294</ele>
        <time>2015-11-23T20:42:20Z</time>
      </trkpt>
      <trkpt lat="48.82187" lon="2.26741">
        <ele>44.400001525879</ele>
        <time>2015-11-23T20:42:22Z</time>
      </trkpt>
      <trkpt lat="48.82196" lon="2.26762">
        <ele>44.400001525879</ele>
        <time>2015-11-23T20:42:25Z</time>
      </trkpt>
      <trkpt lat="48.82212" lon="2.26787">
        <ele>44.20000076294</ele>
        <time>2015-11-23T20:42:29Z</time>
      </trkpt>
      <trkpt lat="48.82228" lon="2.26799">
        <ele>43.20000076294</ele>
        <time>2015-11-23T20:42:33Z</time>
      </trkpt>
      <trkpt lat="48.82235" lon="2.26802">
        <ele>42.599998474121</ele>
        <time>2015-11-23T20:42:35Z</time>
      </trkpt>
      <trkpt lat="48.82243" lon="2.26805">
        <ele>41.79999923706</ele>
        <time>2015-11-23T20:42:37Z</time>
      </trkpt>
      <trkpt lat="48.8225" lon="2.26812">
        <ele>41.400001525879</ele>
        <time>2015-11-23T20:42:41Z</time>
      </trkpt>
      <trkpt lat="48.82251" lon="2.26813">
        <ele>41.400001525879</ele>
        <time>2015-11-23T20:42:42Z</time>
      </trkpt>
      <trkpt lat="48.82268" lon="2.26809">
        <ele>39.400001525879</ele>
        <time>2015-11-23T20:43:01Z</time>
      </trkpt>
      <trkpt lat="48.82286" lon="2.26801">
        <ele>37.79999923706</ele>
        <time>2015-11-23T20:43:09Z</time>
      </trkpt>
      <trkpt lat="48.82304" lon="2.26796">
        <ele>36.599998474121</ele>
        <time>2015-11-23T20:43:14Z</time>
      </trkpt>
      <trkpt lat="48.82324" lon="2.26792">
        <ele>35.400001525879</ele>
        <time>2015-11-23T20:43:20Z</time>
      </trkpt>
      <trkpt lat="48.82343" lon="2.26789">
        <ele>35.20000076294</ele>
        <time>2015-11-23T20:43:25Z</time>
      </trkpt>
      <trkpt lat="48.82361" lon="2.26787">
        <ele>34.79999923706</ele>
        <time>2015-11-23T20:43:30Z</time>
      </trkpt>
      <trkpt lat="48.82381" lon="2.26784">
        <ele>34.400001525879</ele>
        <time>2015-11-23T20:43:35Z</time>
      </trkpt>
      <trkpt lat="48.82389" lon="2.26792">
        <ele>34.20000076294</ele>
        <time>2015-11-23T20:43:38Z</time>
      </trkpt>
      <trkpt lat="48.82399" lon="2.26818">
        <ele>34</ele>
        <time>2015-11-23T20:43:43Z</time>
      </trkpt>
      <trkpt lat="48.82411" lon="2.26844">
        <ele>34.20000076294</ele>
        <time>2015-11-23T20:43:48Z</time>
      </trkpt>
      <trkpt lat="48.82423" lon="2.26872">
        <ele>35</ele>
        <time>2015-11-23T20:43:53Z</time>
      </trkpt>
      <trkpt lat="48.82433" lon="2.26899">
        <ele>35.599998474121</ele>
        <time>2015-11-23T20:43:57Z</time>
      </trkpt>
      <trkpt lat="48.82444" lon="2.26925">
        <ele>36</ele>
        <time>2015-11-23T20:44:01Z</time>
      </trkpt>
      <trkpt lat="48.82457" lon="2.26954">
        <ele>35.79999923706</ele>
        <time>2015-11-23T20:44:05Z</time>
      </trkpt>
      <trkpt lat="48.82464" lon="2.26979">
        <ele>35.79999923706</ele>
        <time>2015-11-23T20:44:09Z</time>
      </trkpt>
      <trkpt lat="48.82473" lon="2.27">
        <ele>35.79999923706</ele>
        <time>2015-11-23T20:44:14Z</time>
      </trkpt>
      <trkpt lat="48.82465" lon="2.27024">
        <ele>36.400001525879</ele>
        <time>2015-11-23T20:44:20Z</time>
      </trkpt>
      <trkpt lat="48.8246" lon="2.27032">
        <ele>36.599998474121</ele>
        <time>2015-11-23T20:44:22Z</time>
      </trkpt>
      <trkpt lat="48.82449" lon="2.2706">
        <ele>37.400001525879</ele>
        <time>2015-11-23T20:44:28Z</time>
      </trkpt>
      <trkpt lat="48.82455" lon="2.27088">
        <ele>37.400001525879</ele>
        <time>2015-11-23T20:44:33Z</time>
      </trkpt>
      <trkpt lat="48.82468" lon="2.27112">
        <ele>36.79999923706</ele>
        <time>2015-11-23T20:44:38Z</time>
      </trkpt>
      <trkpt lat="48.82482" lon="2.27137">
        <ele>36.20000076294</ele>
        <time>2015-11-23T20:44:43Z</time>
      </trkpt>
      <trkpt lat="48.82493" lon="2.2716">
        <ele>35.400001525879</ele>
        <time>2015-11-23T20:44:48Z</time>
      </trkpt>
      <trkpt lat="48.82505" lon="2.27183">
        <ele>36</ele>
        <time>2015-11-23T20:44:53Z</time>
      </trkpt>
      <trkpt lat="48.82515" lon="2.27206">
        <ele>36.599998474121</ele>
        <time>2015-11-23T20:44:58Z</time>
      </trkpt>
      <trkpt lat="48.82525" lon="2.27238">
        <ele>37.599998474121</ele>
        <time>2015-11-23T20:45:03Z</time>
      </trkpt>
      <trkpt lat="48.82533" lon="2.27262">
        <ele>37.599998474121</ele>
        <time>2015-11-23T20:45:07Z</time>
      </trkpt>
      <trkpt lat="48.82542" lon="2.27291">
        <ele>37.20000076294</ele>
        <time>2015-11-23T20:45:12Z</time>
      </trkpt>
      <trkpt lat="48.82549" lon="2.27321">
        <ele>36.79999923706</ele>
        <time>2015-11-23T20:45:18Z</time>
      </trkpt>
      <trkpt lat="48.82553" lon="2.27335">
        <ele>36.599998474121</ele>
        <time>2015-11-23T20:45:22Z</time>
      </trkpt>
      <trkpt lat="48.82568" lon="2.27334">
        <ele>36.400001525879</ele>
        <time>2015-11-23T20:45:28Z</time>
      </trkpt>
      <trkpt lat="48.82588" lon="2.27335">
        <ele>36.20000076294</ele>
        <time>2015-11-23T20:45:34Z</time>
      </trkpt>
      <trkpt lat="48.82608" lon="2.27341">
        <ele>35.79999923706</ele>
        <time>2015-11-23T20:45:40Z</time>
      </trkpt>
      <trkpt lat="48.82627" lon="2.27346">
        <ele>35.599998474121</ele>
        <time>2015-11-23T20:45:45Z</time>
      </trkpt>
      <trkpt lat="48.82645" lon="2.2735">
        <ele>35.20000076294</ele>
        <time>2015-11-23T20:45:49Z</time>
      </trkpt>
      <trkpt lat="48.82663" lon="2.27354">
        <ele>35</ele>
        <time>2015-11-23T20:45:53Z</time>
      </trkpt>
      <trkpt lat="48.82684" lon="2.27359">
        <ele>34.79999923706</ele>
        <time>2015-11-23T20:45:58Z</time>
      </trkpt>
      <trkpt lat="48.82704" lon="2.27362">
        <ele>34.599998474121</ele>
        <time>2015-11-23T20:46:03Z</time>
      </trkpt>
      <trkpt lat="48.82724" lon="2.27366">
        <ele>34.599998474121</ele>
        <time>2015-11-23T20:46:08Z</time>
      </trkpt>
      <trkpt lat="48.82743" lon="2.27367">
        <ele>34.599998474121</ele>
        <time>2015-11-23T20:46:14Z</time>
      </trkpt>
      <trkpt lat="48.82759" lon="2.27362">
        <ele>34.599998474121</ele>
        <time>2015-11-23T20:46:20Z</time>
      </trkpt>
      <trkpt lat="48.82764" lon="2.27369">
        <ele>34.599998474121</ele>
        <time>2015-11-23T20:46:26Z</time>
      </trkpt>
      <trkpt lat="48.82774" lon="2.27392">
        <ele>34.400001525879</ele>
        <time>2015-11-23T20:46:33Z</time>
      </trkpt>
      <trkpt lat="48.8279" lon="2.27412">
        <ele>34.599998474121</ele>
        <time>2015-11-23T20:46:41Z</time>
      </trkpt>
      <trkpt lat="48.82803" lon="2.27433">
        <ele>34.79999923706</ele>
        <time>2015-11-23T20:46:46Z</time>
      </trkpt>
      <trkpt lat="48.82816" lon="2.27457">
        <ele>35</ele>
        <time>2015-11-23T20:46:51Z</time>
      </trkpt>
      <trkpt lat="48.82831" lon="2.27478">
        <ele>35.400001525879</ele>
        <time>2015-11-23T20:46:56Z</time>
      </trkpt>
      <trkpt lat="48.82846" lon="2.275">
        <ele>35.599998474121</ele>
        <time>2015-11-23T20:47:01Z</time>
      </trkpt>
      <trkpt lat="48.82859" lon="2.27519">
        <ele>36</ele>
        <time>2015-11-23T20:47:05Z</time>
      </trkpt>
      <trkpt lat="48.82875" lon="2.27538">
        <ele>35.79999923706</ele>
        <time>2015-11-23T20:47:09Z</time>
      </trkpt>
      <trkpt lat="48.8289" lon="2.27558">
        <ele>35.599998474121</ele>
        <time>2015-11-23T20:47:13Z</time>
      </trkpt>
      <trkpt lat="48.82903" lon="2.27581">
        <ele>35.400001525879</ele>
        <time>2015-11-23T20:47:17Z</time>
      </trkpt>
      <trkpt lat="48.82917" lon="2.27604">
        <ele>35</ele>
        <time>2015-11-23T20:47:21Z</time>
      </trkpt>
      <trkpt lat="48.8293" lon="2.27628">
        <ele>34.599998474121</ele>
        <time>2015-11-23T20:47:25Z</time>
      </trkpt>
      <trkpt lat="48.82943" lon="2.27652">
        <ele>34.20000076294</ele>
        <time>2015-11-23T20:47:29Z</time>
      </trkpt>
      <trkpt lat="48.82957" lon="2.27676">
        <ele>34.20000076294</ele>
        <time>2015-11-23T20:47:33Z</time>
      </trkpt>
      <trkpt lat="48.82977" lon="2.27696">
        <ele>34.400001525879</ele>
        <time>2015-11-23T20:47:37Z</time>
      </trkpt>
      <trkpt lat="48.8299" lon="2.2771">
        <ele>34.599998474121</ele>
        <time>2015-11-23T20:47:40Z</time>
      </trkpt>
      <trkpt lat="48.83006" lon="2.27732">
        <ele>34.79999923706</ele>
        <time>2015-11-23T20:47:44Z</time>
      </trkpt>
      <trkpt lat="48.83021" lon="2.27752">
        <ele>35</ele>
        <time>2015-11-23T20:47:48Z</time>
      </trkpt>
      <trkpt lat="48.83036" lon="2.2777">
        <ele>35.20000076294</ele>
        <time>2015-11-23T20:47:52Z</time>
      </trkpt>
      <trkpt lat="48.83052" lon="2.27788">
        <ele>35.599998474121</ele>
        <time>2015-11-23T20:47:57Z</time>
      </trkpt>
      <trkpt lat="48.83058" lon="2.27796">
        <ele>35.79999923706</ele>
        <time>2015-11-23T20:47:59Z</time>
      </trkpt>
      <trkpt lat="48.83074" lon="2.27816">
        <ele>36</ele>
        <time>2015-11-23T20:48:04Z</time>
      </trkpt>
      <trkpt lat="48.83089" lon="2.27838">
        <ele>36.20000076294</ele>
        <time>2015-11-23T20:48:09Z</time>
      </trkpt>
      <trkpt lat="48.83105" lon="2.27859">
        <ele>36.20000076294</ele>
        <time>2015-11-23T20:48:14Z</time>
      </trkpt>
      <trkpt lat="48.83117" lon="2.27882">
        <ele>35.79999923706</ele>
        <time>2015-11-23T20:48:18Z</time>
      </trkpt>
      <trkpt lat="48.8313" lon="2.27905">
        <ele>35.20000076294</ele>
        <time>2015-11-23T20:48:22Z</time>
      </trkpt>
      <trkpt lat="48.83142" lon="2.27925">
        <ele>35</ele>
        <time>2015-11-23T20:48:26Z</time>
      </trkpt>
      <trkpt lat="48.83155" lon="2.27946">
        <ele>35</ele>
        <time>2015-11-23T20:48:30Z</time>
      </trkpt>
      <trkpt lat="48.83169" lon="2.27965">
        <ele>35</ele>
        <time>2015-11-23T20:48:34Z</time>
      </trkpt>
      <trkpt lat="48.83178" lon="2.27978">
        <ele>35</ele>
        <time>2015-11-23T20:48:37Z</time>
      </trkpt>
      <trkpt lat="48.83188" lon="2.28003">
        <ele>35.20000076294</ele>
        <time>2015-11-23T20:48:42Z</time>
      </trkpt>
      <trkpt lat="48.83195" lon="2.28013">
        <ele>35.400001525879</ele>
        <time>2015-11-23T20:48:45Z</time>
      </trkpt>
      <trkpt lat="48.83207" lon="2.28031">
        <ele>35.599998474121</ele>
        <time>2015-11-23T20:49:27Z</time>
      </trkpt>
      <trkpt lat="48.83217" lon="2.28056">
        <ele>36</ele>
        <time>2015-11-23T20:49:36Z</time>
      </trkpt>
      <trkpt lat="48.83234" lon="2.28069">
        <ele>36.20000076294</ele>
        <time>2015-11-23T20:49:46Z</time>
      </trkpt>
      <trkpt lat="48.83247" lon="2.28092">
        <ele>36.79999923706</ele>
        <time>2015-11-23T20:49:51Z</time>
      </trkpt>
      <trkpt lat="48.83263" lon="2.28111">
        <ele>37.20000076294</ele>
        <time>2015-11-23T20:49:56Z</time>
      </trkpt>
      <trkpt lat="48.83276" lon="2.28138">
        <ele>38.20000076294</ele>
        <time>2015-11-23T20:50:03Z</time>
      </trkpt>
      <trkpt lat="48.83288" lon="2.28159">
        <ele>39</ele>
        <time>2015-11-23T20:50:08Z</time>
      </trkpt>
      <trkpt lat="48.83299" lon="2.28183">
        <ele>39</ele>
        <time>2015-11-23T20:50:13Z</time>
      </trkpt>
      <trkpt lat="48.83316" lon="2.28201">
        <ele>39</ele>
        <time>2015-11-23T20:50:18Z</time>
      </trkpt>
      <trkpt lat="48.8333" lon="2.28223">
        <ele>39.20000076294</ele>
        <time>2015-11-23T20:50:23Z</time>
      </trkpt>
      <trkpt lat="48.83344" lon="2.28247">
        <ele>39.79999923706</ele>
        <time>2015-11-23T20:50:28Z</time>
      </trkpt>
      <trkpt lat="48.83357" lon="2.28272">
        <ele>40.20000076294</ele>
        <time>2015-11-23T20:50:33Z</time>
      </trkpt>
      <trkpt lat="48.83373" lon="2.28296">
        <ele>40.20000076294</ele>
        <time>2015-11-23T20:50:38Z</time>
      </trkpt>
      <trkpt lat="48.83387" lon="2.28321">
        <ele>40.400001525879</ele>
        <time>2015-11-23T20:50:43Z</time>
      </trkpt>
      <trkpt lat="48.83397" lon="2.28349">
        <ele>40</ele>
        <time>2015-11-23T20:50:48Z</time>
      </trkpt>
      <trkpt lat="48.83405" lon="2.28369">
        <ele>39.400001525879</ele>
        <time>2015-11-23T20:50:53Z</time>
      </trkpt>
      <trkpt lat="48.83411" lon="2.28372">
        <ele>39</ele>
        <time>2015-11-23T20:50:55Z</time>
      </trkpt>
      <trkpt lat="48.8343" lon="2.28378">
        <ele>37.599998474121</ele>
        <time>2015-11-23T20:51:03Z</time>
      </trkpt>
      <trkpt lat="48.83446" lon="2.28392">
        <ele>37.20000076294</ele>
        <time>2015-11-23T20:51:31Z</time>
      </trkpt>
      <trkpt lat="48.83459" lon="2.28418">
        <ele>37.599998474121</ele>
        <time>2015-11-23T20:51:40Z</time>
      </trkpt>
      <trkpt lat="48.83471" lon="2.28438">
        <ele>37.599998474121</ele>
        <time>2015-11-23T20:51:45Z</time>
      </trkpt>
      <trkpt lat="48.83487" lon="2.2846">
        <ele>37.599998474121</ele>
        <time>2015-11-23T20:51:51Z</time>
      </trkpt>
      <trkpt lat="48.83501" lon="2.2848">
        <ele>37.599998474121</ele>
        <time>2015-11-23T20:51:56Z</time>
      </trkpt>
      <trkpt lat="48.83515" lon="2.28504">
        <ele>38</ele>
        <time>2015-11-23T20:52:02Z</time>
      </trkpt>
      <trkpt lat="48.83527" lon="2.28526">
        <ele>38.79999923706</ele>
        <time>2015-11-23T20:52:06Z</time>
      </trkpt>
      <trkpt lat="48.8354" lon="2.2855">
        <ele>39.79999923706</ele>
        <time>2015-11-23T20:52:10Z</time>
      </trkpt>
      <trkpt lat="48.83554" lon="2.28573">
        <ele>40.599998474121</ele>
        <time>2015-11-23T20:52:14Z</time>
      </trkpt>
      <trkpt lat="48.83561" lon="2.28605">
        <ele>41.20000076294</ele>
        <time>2015-11-23T20:52:18Z</time>
      </trkpt>
      <trkpt lat="48.83568" lon="2.28639">
        <ele>41.79999923706</ele>
        <time>2015-11-23T20:52:22Z</time>
      </trkpt>
      <trkpt lat="48.8357" lon="2.28646">
        <ele>42</ele>
        <time>2015-11-23T20:52:23Z</time>
      </trkpt>
      <trkpt lat="48.83574" lon="2.2866">
        <ele>42.20000076294</ele>
        <time>2015-11-23T20:52:25Z</time>
      </trkpt>
      <trkpt lat="48.83584" lon="2.28687">
        <ele>41</ele>
        <time>2015-11-23T20:52:29Z</time>
      </trkpt>
      <trkpt lat="48.8359" lon="2.28715">
        <ele>39.599998474121</ele>
        <time>2015-11-23T20:52:33Z</time>
      </trkpt>
      <trkpt lat="48.83595" lon="2.28744">
        <ele>38.400001525879</ele>
        <time>2015-11-23T20:52:37Z</time>
      </trkpt>
      <trkpt lat="48.83597" lon="2.28759">
        <ele>38.20000076294</ele>
        <time>2015-11-23T20:52:39Z</time>
      </trkpt>
      <trkpt lat="48.83598" lon="2.28781">
        <ele>38</ele>
        <time>2015-11-23T20:52:42Z</time>
      </trkpt>
      <trkpt lat="48.836" lon="2.28811">
        <ele>37.400001525879</ele>
        <time>2015-11-23T20:52:46Z</time>
      </trkpt>
      <trkpt lat="48.83601" lon="2.28842">
        <ele>38.20000076294</ele>
        <time>2015-11-23T20:52:50Z</time>
      </trkpt>
      <trkpt lat="48.83598" lon="2.28871">
        <ele>39.79999923706</ele>
        <time>2015-11-23T20:52:54Z</time>
      </trkpt>
      <trkpt lat="48.83594" lon="2.289">
        <ele>41.599998474121</ele>
        <time>2015-11-23T20:52:58Z</time>
      </trkpt>
      <trkpt lat="48.83592" lon="2.28913">
        <ele>42.20000076294</ele>
        <time>2015-11-23T20:53:00Z</time>
      </trkpt>
      <trkpt lat="48.83589" lon="2.28944">
        <ele>42</ele>
        <time>2015-11-23T20:53:05Z</time>
      </trkpt>
      <trkpt lat="48.83588" lon="2.28961">
        <ele>42</ele>
        <time>2015-11-23T20:53:10Z</time>
      </trkpt>
      <trkpt lat="48.83586" lon="2.28969">
        <ele>42</ele>
        <time>2015-11-23T20:53:16Z</time>
      </trkpt>
      <trkpt lat="48.83585" lon="2.28971">
        <ele>42</ele>
        <time>2015-11-23T20:53:17Z</time>
      </trkpt>
      <trkpt lat="48.83592" lon="2.28998">
        <ele>41.20000076294</ele>
        <time>2015-11-23T20:53:27Z</time>
      </trkpt>
      <trkpt lat="48.83597" lon="2.29025">
        <ele>41.400001525879</ele>
        <time>2015-11-23T20:53:32Z</time>
      </trkpt>
      <trkpt lat="48.83602" lon="2.29054">
        <ele>41.79999923706</ele>
        <time>2015-11-23T20:53:37Z</time>
      </trkpt>
      <trkpt lat="48.83601" lon="2.29081">
        <ele>42.400001525879</ele>
        <time>2015-11-23T20:53:41Z</time>
      </trkpt>
      <trkpt lat="48.83602" lon="2.29108">
        <ele>43.20000076294</ele>
        <time>2015-11-23T20:53:45Z</time>
      </trkpt>
      <trkpt lat="48.83601" lon="2.29141">
        <ele>44.599998474121</ele>
        <time>2015-11-23T20:53:50Z</time>
      </trkpt>
      <trkpt lat="48.83602" lon="2.29173">
        <ele>45.400001525879</ele>
        <time>2015-11-23T20:53:55Z</time>
      </trkpt>
      <trkpt lat="48.83596" lon="2.29203">
        <ele>46.400001525879</ele>
        <time>2015-11-23T20:54:00Z</time>
      </trkpt>
      <trkpt lat="48.83598" lon="2.29226">
        <ele>46.79999923706</ele>
        <time>2015-11-23T20:54:03Z</time>
      </trkpt>
      <trkpt lat="48.83593" lon="2.29254">
        <ele>47.400001525879</ele>
        <time>2015-11-23T20:54:07Z</time>
      </trkpt>
      <trkpt lat="48.83591" lon="2.29261">
        <ele>47.599998474121</ele>
        <time>2015-11-23T20:54:08Z</time>
      </trkpt>
      <trkpt lat="48.83587" lon="2.29292">
        <ele>47.599998474121</ele>
        <time>2015-11-23T20:54:13Z</time>
      </trkpt>
      <trkpt lat="48.83586" lon="2.29321">
        <ele>47.599998474121</ele>
        <time>2015-11-23T20:54:17Z</time>
      </trkpt>
      <trkpt lat="48.83584" lon="2.29327">
        <ele>47.599998474121</ele>
        <time>2015-11-23T20:54:18Z</time>
      </trkpt>
      <trkpt lat="48.83606" lon="2.29364">
        <ele>48.20000076294</ele>
        <time>2015-11-23T20:54:27Z</time>
      </trkpt>
      <trkpt lat="48.83607" lon="2.29365">
        <ele>48.20000076294</ele>
        <time>2015-11-23T20:54:28Z</time>
      </trkpt>
      <trkpt lat="48.83614" lon="2.29392">
        <ele>49.400001525879</ele>
        <time>2015-11-23T20:54:45Z</time>
      </trkpt>
      <trkpt lat="48.83625" lon="2.29415">
        <ele>50.20000076294</ele>
        <time>2015-11-23T20:54:51Z</time>
      </trkpt>
      <trkpt lat="48.8364" lon="2.29439">
        <ele>50.20000076294</ele>
        <time>2015-11-23T20:54:57Z</time>
      </trkpt>
      <trkpt lat="48.83653" lon="2.29459">
        <ele>50</ele>
        <time>2015-11-23T20:55:02Z</time>
      </trkpt>
      <trkpt lat="48.83668" lon="2.29483">
        <ele>50</ele>
        <time>2015-11-23T20:55:08Z</time>
      </trkpt>
      <trkpt lat="48.83679" lon="2.2951">
        <ele>49.400001525879</ele>
        <time>2015-11-23T20:55:14Z</time>
      </trkpt>
      <trkpt lat="48.8369" lon="2.29536">
        <ele>48</ele>
        <time>2015-11-23T20:55:19Z</time>
      </trkpt>
      <trkpt lat="48.83701" lon="2.29562">
        <ele>46.20000076294</ele>
        <time>2015-11-23T20:55:24Z</time>
      </trkpt>
      <trkpt lat="48.83713" lon="2.2959">
        <ele>45</ele>
        <time>2015-11-23T20:55:30Z</time>
      </trkpt>
      <trkpt lat="48.83725" lon="2.29616">
        <ele>45.20000076294</ele>
        <time>2015-11-23T20:55:36Z</time>
      </trkpt>
      <trkpt lat="48.8374" lon="2.2964">
        <ele>44.599998474121</ele>
        <time>2015-11-23T20:55:42Z</time>
      </trkpt>
      <trkpt lat="48.83753" lon="2.29659">
        <ele>44.20000076294</ele>
        <time>2015-11-23T20:55:49Z</time>
      </trkpt>
      <trkpt lat="48.83766" lon="2.29687">
        <ele>45</ele>
        <time>2015-11-23T20:55:57Z</time>
      </trkpt>
      <trkpt lat="48.83776" lon="2.29712">
        <ele>45.599998474121</ele>
        <time>2015-11-23T20:56:03Z</time>
      </trkpt>
      <trkpt lat="48.83788" lon="2.29733">
        <ele>46.20000076294</ele>
        <time>2015-11-23T20:56:10Z</time>
      </trkpt>
      <trkpt lat="48.83798" lon="2.29764">
        <ele>47.599998474121</ele>
        <time>2015-11-23T20:56:15Z</time>
      </trkpt>
      <trkpt lat="48.83813" lon="2.29785">
        <ele>48.79999923706</ele>
        <time>2015-11-23T20:56:21Z</time>
      </trkpt>
      <trkpt lat="48.83824" lon="2.29808">
        <ele>50</ele>
        <time>2015-11-23T20:56:25Z</time>
      </trkpt>
      <trkpt lat="48.83835" lon="2.2983">
        <ele>51</ele>
        <time>2015-11-23T20:56:29Z</time>
      </trkpt>
      <trkpt lat="48.83847" lon="2.29853">
        <ele>51.20000076294</ele>
        <time>2015-11-23T20:56:34Z</time>
      </trkpt>
      <trkpt lat="48.83859" lon="2.29879">
        <ele>51.599998474121</ele>
        <time>2015-11-23T20:56:40Z</time>
      </trkpt>
      <trkpt lat="48.83873" lon="2.29901">
        <ele>51.400001525879</ele>
        <time>2015-11-23T20:56:46Z</time>
      </trkpt>
      <trkpt lat="48.83886" lon="2.29923">
        <ele>51.79999923706</ele>
        <time>2015-11-23T20:56:51Z</time>
      </trkpt>
      <trkpt lat="48.83897" lon="2.29948">
        <ele>52.599998474121</ele>
        <time>2015-11-23T20:56:56Z</time>
      </trkpt>
      <trkpt lat="48.83908" lon="2.29974">
        <ele>53.20000076294</ele>
        <time>2015-11-23T20:57:01Z</time>
      </trkpt>
      <trkpt lat="48.8392" lon="2.29999">
        <ele>53.599998474121</ele>
        <time>2015-11-23T20:57:04Z</time>
      </trkpt>
      <trkpt lat="48.83928" lon="2.30028">
        <ele>54.20000076294</ele>
        <time>2015-11-23T20:57:08Z</time>
      </trkpt>
      <trkpt lat="48.83936" lon="2.30057">
        <ele>54.599998474121</ele>
        <time>2015-11-23T20:57:12Z</time>
      </trkpt>
      <trkpt lat="48.83944" lon="2.30074">
        <ele>54.79999923706</ele>
        <time>2015-11-23T20:57:15Z</time>
      </trkpt>
      <trkpt lat="48.83957" lon="2.30101">
        <ele>54.400001525879</ele>
        <time>2015-11-23T20:57:20Z</time>
      </trkpt>
      <trkpt lat="48.83958" lon="2.30108">
        <ele>54.400001525879</ele>
        <time>2015-11-23T20:57:21Z</time>
      </trkpt>
      <trkpt lat="48.83966" lon="2.30133">
        <ele>53.79999923706</ele>
        <time>2015-11-23T20:57:25Z</time>
      </trkpt>
      <trkpt lat="48.83973" lon="2.30152">
        <ele>53.20000076294</ele>
        <time>2015-11-23T20:57:28Z</time>
      </trkpt>
      <trkpt lat="48.8398" lon="2.30174">
        <ele>52.79999923706</ele>
        <time>2015-11-23T20:57:31Z</time>
      </trkpt>
      <trkpt lat="48.83986" lon="2.30202">
        <ele>52.599998474121</ele>
        <time>2015-11-23T20:57:35Z</time>
      </trkpt>
      <trkpt lat="48.83993" lon="2.3023">
        <ele>52.400001525879</ele>
        <time>2015-11-23T20:57:41Z</time>
      </trkpt>
      <trkpt lat="48.84003" lon="2.30258">
        <ele>52.599998474121</ele>
        <time>2015-11-23T20:58:01Z</time>
      </trkpt>
      <trkpt lat="48.8401" lon="2.30288">
        <ele>53.20000076294</ele>
        <time>2015-11-23T20:58:06Z</time>
      </trkpt>
      <trkpt lat="48.84019" lon="2.30317">
        <ele>53.79999923706</ele>
        <time>2015-11-23T20:58:11Z</time>
      </trkpt>
      <trkpt lat="48.84028" lon="2.30348">
        <ele>53.400001525879</ele>
        <time>2015-11-23T20:58:16Z</time>
      </trkpt>
      <trkpt lat="48.84035" lon="2.3038">
        <ele>52.599998474121</ele>
        <time>2015-11-23T20:58:21Z</time>
      </trkpt>
      <trkpt lat="48.84043" lon="2.30405">
        <ele>51.79999923706</ele>
        <time>2015-11-23T20:58:25Z</time>
      </trkpt>
      <trkpt lat="48.84051" lon="2.30434">
        <ele>51.20000076294</ele>
        <time>2015-11-23T20:58:30Z</time>
      </trkpt>
      <trkpt lat="48.84054" lon="2.30453">
        <ele>51</ele>
        <time>2015-11-23T20:58:33Z</time>
      </trkpt>
      <trkpt lat="48.84064" lon="2.30478">
        <ele>50.400001525879</ele>
        <time>2015-11-23T20:58:37Z</time>
      </trkpt>
      <trkpt lat="48.84075" lon="2.30501">
        <ele>50</ele>
        <time>2015-11-23T20:58:41Z</time>
      </trkpt>
      <trkpt lat="48.84085" lon="2.30527">
        <ele>50</ele>
        <time>2015-11-23T20:58:45Z</time>
      </trkpt>
      <trkpt lat="48.84096" lon="2.30554">
        <ele>50</ele>
        <time>2015-11-23T20:58:49Z</time>
      </trkpt>
      <trkpt lat="48.84099" lon="2.30569">
        <ele>50.20000076294</ele>
        <time>2015-11-23T20:58:51Z</time>
      </trkpt>
      <trkpt lat="48.84107" lon="2.30597">
        <ele>50.400001525879</ele>
        <time>2015-11-23T20:58:55Z</time>
      </trkpt>
      <trkpt lat="48.84114" lon="2.30627">
        <ele>51</ele>
        <time>2015-11-23T20:58:59Z</time>
      </trkpt>
      <trkpt lat="48.84124" lon="2.30651">
        <ele>51</ele>
        <time>2015-11-23T20:59:03Z</time>
      </trkpt>
      <trkpt lat="48.84129" lon="2.30677">
        <ele>51.79999923706</ele>
        <time>2015-11-23T20:59:07Z</time>
      </trkpt>
      <trkpt lat="48.84133" lon="2.307">
        <ele>51.79999923706</ele>
        <time>2015-11-23T20:59:10Z</time>
      </trkpt>
      <trkpt lat="48.84142" lon="2.30729">
        <ele>51</ele>
        <time>2015-11-23T20:59:14Z</time>
      </trkpt>
      <trkpt lat="48.84147" lon="2.30751">
        <ele>50.400001525879</ele>
        <time>2015-11-23T20:59:17Z</time>
      </trkpt>
      <trkpt lat="48.84153" lon="2.30778">
        <ele>49.599998474121</ele>
        <time>2015-11-23T20:59:21Z</time>
      </trkpt>
      <trkpt lat="48.8416" lon="2.3081">
        <ele>49</ele>
        <time>2015-11-23T20:59:26Z</time>
      </trkpt>
      <trkpt lat="48.84169" lon="2.30837">
        <ele>48.599998474121</ele>
        <time>2015-11-23T20:59:30Z</time>
      </trkpt>
      <trkpt lat="48.84177" lon="2.3086">
        <ele>49</ele>
        <time>2015-11-23T20:59:34Z</time>
      </trkpt>
      <trkpt lat="48.84182" lon="2.30873">
        <ele>49.20000076294</ele>
        <time>2015-11-23T20:59:36Z</time>
      </trkpt>
      <trkpt lat="48.84188" lon="2.3089">
        <ele>49.400001525879</ele>
        <time>2015-11-23T20:59:39Z</time>
      </trkpt>
      <trkpt lat="48.84198" lon="2.30918">
        <ele>50</ele>
        <time>2015-11-23T20:59:44Z</time>
      </trkpt>
      <trkpt lat="48.842" lon="2.30923">
        <ele>50</ele>
        <time>2015-11-23T20:59:45Z</time>
      </trkpt>
      <trkpt lat="48.84207" lon="2.30949">
        <ele>50.20000076294</ele>
        <time>2015-11-23T20:59:50Z</time>
      </trkpt>
      <trkpt lat="48.84213" lon="2.30965">
        <ele>50.400001525879</ele>
        <time>2015-11-23T20:59:53Z</time>
      </trkpt>
      <trkpt lat="48.84223" lon="2.30993">
        <ele>50.599998474121</ele>
        <time>2015-11-23T20:59:58Z</time>
      </trkpt>
      <trkpt lat="48.84228" lon="2.31024">
        <ele>50.79999923706</ele>
        <time>2015-11-23T21:00:03Z</time>
      </trkpt>
      <trkpt lat="48.84228" lon="2.3103">
        <ele>51</ele>
        <time>2015-11-23T21:00:04Z</time>
      </trkpt>
      <trkpt lat="48.84233" lon="2.31061">
        <ele>51.20000076294</ele>
        <time>2015-11-23T21:00:09Z</time>
      </trkpt>
      <trkpt lat="48.84234" lon="2.31067">
        <ele>51.400001525879</ele>
        <time>2015-11-23T21:00:10Z</time>
      </trkpt>
      <trkpt lat="48.84241" lon="2.3109">
        <ele>51.400001525879</ele>
        <time>2015-11-23T21:00:14Z</time>
      </trkpt>
      <trkpt lat="48.84248" lon="2.31105">
        <ele>51.20000076294</ele>
        <time>2015-11-23T21:00:17Z</time>
      </trkpt>
      <trkpt lat="48.84256" lon="2.31119">
        <ele>51.20000076294</ele>
        <time>2015-11-23T21:00:20Z</time>
      </trkpt>
      <trkpt lat="48.84262" lon="2.3114">
        <ele>51.20000076294</ele>
        <time>2015-11-23T21:00:24Z</time>
      </trkpt>
      <trkpt lat="48.84269" lon="2.31168">
        <ele>51.20000076294</ele>
        <time>2015-11-23T21:00:29Z</time>
      </trkpt>
      <trkpt lat="48.84274" lon="2.31183">
        <ele>50.79999923706</ele>
        <time>2015-11-23T21:00:32Z</time>
      </trkpt>
      <trkpt lat="48.84284" lon="2.31211">
        <ele>50.400001525879</ele>
        <time>2015-11-23T21:00:38Z</time>
      </trkpt>
      <trkpt lat="48.84286" lon="2.31219">
        <ele>50.400001525879</ele>
        <time>2015-11-23T21:00:40Z</time>
      </trkpt>
      <trkpt lat="48.84289" lon="2.31236">
        <ele>50.20000076294</ele>
        <time>2015-11-23T21:00:45Z</time>
      </trkpt>
      <trkpt lat="48.84297" lon="2.31263">
        <ele>50</ele>
        <time>2015-11-23T21:00:54Z</time>
      </trkpt>
      <trkpt lat="48.84305" lon="2.31288">
        <ele>50.20000076294</ele>
        <time>2015-11-23T21:01:02Z</time>
      </trkpt>
      <trkpt lat="48.84314" lon="2.31315">
        <ele>50.599998474121</ele>
        <time>2015-11-23T21:01:09Z</time>
      </trkpt>
      <trkpt lat="48.84325" lon="2.31341">
        <ele>51.20000076294</ele>
        <time>2015-11-23T21:01:15Z</time>
      </trkpt>
      <trkpt lat="48.84329" lon="2.31359">
        <ele>51.599998474121</ele>
        <time>2015-11-23T21:01:19Z</time>
      </trkpt>
      <trkpt lat="48.84338" lon="2.31384">
        <ele>52.400001525879</ele>
        <time>2015-11-23T21:01:24Z</time>
      </trkpt>
      <trkpt lat="48.84348" lon="2.31412">
        <ele>53.20000076294</ele>
        <time>2015-11-23T21:01:29Z</time>
      </trkpt>
      <trkpt lat="48.84356" lon="2.3144">
        <ele>53.599998474121</ele>
        <time>2015-11-23T21:01:34Z</time>
      </trkpt>
      <trkpt lat="48.84364" lon="2.31466">
        <ele>53.599998474121</ele>
        <time>2015-11-23T21:01:39Z</time>
      </trkpt>
      <trkpt lat="48.84372" lon="2.31493">
        <ele>53.20000076294</ele>
        <time>2015-11-23T21:01:44Z</time>
      </trkpt>
      <trkpt lat="48.84384" lon="2.31519">
        <ele>52.599998474121</ele>
        <time>2015-11-23T21:01:49Z</time>
      </trkpt>
      <trkpt lat="48.84397" lon="2.31546">
        <ele>51.400001525879</ele>
        <time>2015-11-23T21:01:54Z</time>
      </trkpt>
      <trkpt lat="48.84405" lon="2.31576">
        <ele>50.599998474121</ele>
        <time>2015-11-23T21:01:59Z</time>
      </trkpt>
      <trkpt lat="48.84412" lon="2.31608">
        <ele>51</ele>
        <time>2015-11-23T21:02:04Z</time>
      </trkpt>
      <trkpt lat="48.84416" lon="2.31635">
        <ele>51.599998474121</ele>
        <time>2015-11-23T21:02:08Z</time>
      </trkpt>
      <trkpt lat="48.84423" lon="2.31667">
        <ele>51.400001525879</ele>
        <time>2015-11-23T21:02:13Z</time>
      </trkpt>
      <trkpt lat="48.84431" lon="2.31692">
        <ele>51.20000076294</ele>
        <time>2015-11-23T21:02:17Z</time>
      </trkpt>
      <trkpt lat="48.84439" lon="2.31717">
        <ele>51</ele>
        <time>2015-11-23T21:02:21Z</time>
      </trkpt>
      <trkpt lat="48.84449" lon="2.31743">
        <ele>50.599998474121</ele>
        <time>2015-11-23T21:02:25Z</time>
      </trkpt>
      <trkpt lat="48.84459" lon="2.31759">
        <ele>50.79999923706</ele>
        <time>2015-11-23T21:02:28Z</time>
      </trkpt>
      <trkpt lat="48.84463" lon="2.31792">
        <ele>52</ele>
        <time>2015-11-23T21:02:33Z</time>
      </trkpt>
      <trkpt lat="48.84468" lon="2.31819">
        <ele>52.79999923706</ele>
        <time>2015-11-23T21:02:37Z</time>
      </trkpt>
      <trkpt lat="48.84473" lon="2.31838">
        <ele>53.20000076294</ele>
        <time>2015-11-23T21:02:40Z</time>
      </trkpt>
      <trkpt lat="48.84476" lon="2.31856">
        <ele>53.20000076294</ele>
        <time>2015-11-23T21:02:43Z</time>
      </trkpt>
      <trkpt lat="48.84481" lon="2.31871">
        <ele>53</ele>
        <time>2015-11-23T21:02:46Z</time>
      </trkpt>
      <trkpt lat="48.84485" lon="2.3189">
        <ele>52.599998474121</ele>
        <time>2015-11-23T21:02:50Z</time>
      </trkpt>
      <trkpt lat="48.8449" lon="2.31911">
        <ele>52</ele>
        <time>2015-11-23T21:02:54Z</time>
      </trkpt>
      <trkpt lat="48.84499" lon="2.31937">
        <ele>51.79999923706</ele>
        <time>2015-11-23T21:02:59Z</time>
      </trkpt>
      <trkpt lat="48.84509" lon="2.31966">
        <ele>51.400001525879</ele>
        <time>2015-11-23T21:03:05Z</time>
      </trkpt>
      <trkpt lat="48.84513" lon="2.31991">
        <ele>51.20000076294</ele>
        <time>2015-11-23T21:03:11Z</time>
      </trkpt>
      <trkpt lat="48.84512" lon="2.32014">
        <ele>51.79999923706</ele>
        <time>2015-11-23T21:03:18Z</time>
      </trkpt>
      <trkpt lat="48.84506" lon="2.32043">
        <ele>52.599998474121</ele>
        <time>2015-11-23T21:03:25Z</time>
      </trkpt>
      <trkpt lat="48.84498" lon="2.32072">
        <ele>53.400001525879</ele>
        <time>2015-11-23T21:03:31Z</time>
      </trkpt>
      <trkpt lat="48.8449" lon="2.32098">
        <ele>54.20000076294</ele>
        <time>2015-11-23T21:03:36Z</time>
      </trkpt>
      <trkpt lat="48.84483" lon="2.32123">
        <ele>55</ele>
        <time>2015-11-23T21:03:41Z</time>
      </trkpt>
      <trkpt lat="48.84477" lon="2.32152">
        <ele>54.400001525879</ele>
        <time>2015-11-23T21:03:46Z</time>
      </trkpt>
      <trkpt lat="48.84473" lon="2.32182">
        <ele>54</ele>
        <time>2015-11-23T21:03:51Z</time>
      </trkpt>
      <trkpt lat="48.84466" lon="2.32211">
        <ele>54.599998474121</ele>
        <time>2015-11-23T21:03:56Z</time>
      </trkpt>
      <trkpt lat="48.84456" lon="2.32238">
        <ele>55.79999923706</ele>
        <time>2015-11-23T21:04:01Z</time>
      </trkpt>
      <trkpt lat="48.84448" lon="2.32265">
        <ele>56.400001525879</ele>
        <time>2015-11-23T21:04:06Z</time>
      </trkpt>
      <trkpt lat="48.84436" lon="2.32286">
        <ele>56.79999923706</ele>
        <time>2015-11-23T21:04:11Z</time>
      </trkpt>
      <trkpt lat="48.84424" lon="2.32299">
        <ele>57.400001525879</ele>
        <time>2015-11-23T21:04:20Z</time>
      </trkpt>
      <trkpt lat="48.84413" lon="2.32318">
        <ele>57.79999923706</ele>
        <time>2015-11-23T21:04:41Z</time>
      </trkpt>
      <trkpt lat="48.84406" lon="2.32344">
        <ele>58.400001525879</ele>
        <time>2015-11-23T21:04:46Z</time>
      </trkpt>
      <trkpt lat="48.84397" lon="2.32372">
        <ele>60</ele>
        <time>2015-11-23T21:04:51Z</time>
      </trkpt>
      <trkpt lat="48.84388" lon="2.324">
        <ele>60.599998474121</ele>
        <time>2015-11-23T21:04:57Z</time>
      </trkpt>
      <trkpt lat="48.84381" lon="2.32425">
        <ele>61.400001525879</ele>
        <time>2015-11-23T21:05:02Z</time>
      </trkpt>
      <trkpt lat="48.84377" lon="2.32454">
        <ele>62.400001525879</ele>
        <time>2015-11-23T21:05:08Z</time>
      </trkpt>
      <trkpt lat="48.84371" lon="2.32485">
        <ele>63.400001525879</ele>
        <time>2015-11-23T21:05:14Z</time>
      </trkpt>
      <trkpt lat="48.84361" lon="2.32513">
        <ele>63</ele>
        <time>2015-11-23T21:05:19Z</time>
      </trkpt>
      <trkpt lat="48.84351" lon="2.32543">
        <ele>61.79999923706</ele>
        <time>2015-11-23T21:05:24Z</time>
      </trkpt>
      <trkpt lat="48.84343" lon="2.32574">
        <ele>60.599998474121</ele>
        <time>2015-11-23T21:05:29Z</time>
      </trkpt>
      <trkpt lat="48.84333" lon="2.32603">
        <ele>60.20000076294</ele>
        <time>2015-11-23T21:05:34Z</time>
      </trkpt>
      <trkpt lat="48.84326" lon="2.32626">
        <ele>59.79999923706</ele>
        <time>2015-11-23T21:05:38Z</time>
      </trkpt>
      <trkpt lat="48.8432" lon="2.32649">
        <ele>59</ele>
        <time>2015-11-23T21:05:42Z</time>
      </trkpt>
      <trkpt lat="48.84312" lon="2.32673">
        <ele>58.599998474121</ele>
        <time>2015-11-23T21:05:46Z</time>
      </trkpt>
      <trkpt lat="48.84303" lon="2.32702">
        <ele>59.20000076294</ele>
        <time>2015-11-23T21:05:51Z</time>
      </trkpt>
      <trkpt lat="48.84294" lon="2.32724">
        <ele>59.400001525879</ele>
        <time>2015-11-23T21:05:55Z</time>
      </trkpt>
      <trkpt lat="48.84288" lon="2.32738">
        <ele>59.599998474121</ele>
        <time>2015-11-23T21:05:58Z</time>
      </trkpt>
      <trkpt lat="48.8428" lon="2.32764">
        <ele>60.20000076294</ele>
        <time>2015-11-23T21:06:03Z</time>
      </trkpt>
      <trkpt lat="48.84277" lon="2.32769">
        <ele>60.20000076294</ele>
        <time>2015-11-23T21:06:04Z</time>
      </trkpt>
      <trkpt lat="48.84266" lon="2.32793">
        <ele>60.79999923706</ele>
        <time>2015-11-23T21:06:09Z</time>
      </trkpt>
      <trkpt lat="48.84259" lon="2.32805">
        <ele>61</ele>
        <time>2015-11-23T21:06:12Z</time>
      </trkpt>
      <trkpt lat="48.84249" lon="2.32828">
        <ele>61.20000076294</ele>
        <time>2015-11-23T21:06:17Z</time>
      </trkpt>
      <trkpt lat="48.84239" lon="2.32856">
        <ele>61</ele>
        <time>2015-11-23T21:06:22Z</time>
      </trkpt>
      <trkpt lat="48.84231" lon="2.32883">
        <ele>60.79999923706</ele>
        <time>2015-11-23T21:06:26Z</time>
      </trkpt>
      <trkpt lat="48.84224" lon="2.32909">
        <ele>60.599998474121</ele>
        <time>2015-11-23T21:06:30Z</time>
      </trkpt>
      <trkpt lat="48.84216" lon="2.32935">
        <ele>60.599998474121</ele>
        <time>2015-11-23T21:06:35Z</time>
      </trkpt>
      <trkpt lat="48.84208" lon="2.32961">
        <ele>60.79999923706</ele>
        <time>2015-11-23T21:06:40Z</time>
      </trkpt>
      <trkpt lat="48.84201" lon="2.32987">
        <ele>60.79999923706</ele>
        <time>2015-11-23T21:06:45Z</time>
      </trkpt>
      <trkpt lat="48.84192" lon="2.33016">
        <ele>61</ele>
        <time>2015-11-23T21:06:50Z</time>
      </trkpt>
      <trkpt lat="48.84183" lon="2.33046">
        <ele>61.79999923706</ele>
        <time>2015-11-23T21:06:55Z</time>
      </trkpt>
      <trkpt lat="48.84173" lon="2.33075">
        <ele>62.79999923706</ele>
        <time>2015-11-23T21:06:59Z</time>
      </trkpt>
      <trkpt lat="48.84171" lon="2.33082">
        <ele>63.20000076294</ele>
        <time>2015-11-23T21:07:00Z</time>
      </trkpt>
      <trkpt lat="48.84164" lon="2.3311">
        <ele>64.199996948242</ele>
        <time>2015-11-23T21:07:04Z</time>
      </trkpt>
      <trkpt lat="48.84155" lon="2.33138">
        <ele>64.800003051758</ele>
        <time>2015-11-23T21:07:08Z</time>
      </trkpt>
      <trkpt lat="48.84153" lon="2.33146">
        <ele>64.800003051758</ele>
        <time>2015-11-23T21:07:09Z</time>
      </trkpt>
      <trkpt lat="48.84143" lon="2.33176">
        <ele>64.599998474121</ele>
        <time>2015-11-23T21:07:13Z</time>
      </trkpt>
      <trkpt lat="48.84141" lon="2.33184">
        <ele>64.599998474121</ele>
        <time>2015-11-23T21:07:14Z</time>
      </trkpt>
      <trkpt lat="48.8413" lon="2.33214">
        <ele>64.599998474121</ele>
        <time>2015-11-23T21:07:18Z</time>
      </trkpt>
      <trkpt lat="48.84118" lon="2.33241">
        <ele>64.599998474121</ele>
        <time>2015-11-23T21:07:21Z</time>
      </trkpt>
      <trkpt lat="48.84106" lon="2.33268">
        <ele>64.599998474121</ele>
        <time>2015-11-23T21:07:24Z</time>
      </trkpt>
      <trkpt lat="48.84099" lon="2.33286">
        <ele>64</ele>
        <time>2015-11-23T21:07:26Z</time>
      </trkpt>
      <trkpt lat="48.84087" lon="2.33311">
        <ele>63.400001525879</ele>
        <time>2015-11-23T21:07:29Z</time>
      </trkpt>
      <trkpt lat="48.84077" lon="2.3334">
        <ele>63.599998474121</ele>
        <time>2015-11-23T21:07:32Z</time>
      </trkpt>
      <trkpt lat="48.84068" lon="2.33368">
        <ele>63</ele>
        <time>2015-11-23T21:07:35Z</time>
      </trkpt>
      <trkpt lat="48.84058" lon="2.33396">
        <ele>63</ele>
        <time>2015-11-23T21:07:38Z</time>
      </trkpt>
      <trkpt lat="48.84051" lon="2.33423">
        <ele>64</ele>
        <time>2015-11-23T21:07:41Z</time>
      </trkpt>
      <trkpt lat="48.84042" lon="2.3345">
        <ele>65.599998474121</ele>
        <time>2015-11-23T21:07:44Z</time>
      </trkpt>
      <trkpt lat="48.84033" lon="2.33477">
        <ele>65.800003051758</ele>
        <time>2015-11-23T21:07:47Z</time>
      </trkpt>
      <trkpt lat="48.8403" lon="2.33486">
        <ele>66</ele>
        <time>2015-11-23T21:07:48Z</time>
      </trkpt>
      <trkpt lat="48.84021" lon="2.33513">
        <ele>65.599998474121</ele>
        <time>2015-11-23T21:07:51Z</time>
      </trkpt>
      <trkpt lat="48.84018" lon="2.33522">
        <ele>65.199996948242</ele>
        <time>2015-11-23T21:07:52Z</time>
      </trkpt>
      <trkpt lat="48.84012" lon="2.33538">
        <ele>64.400001525879</ele>
        <time>2015-11-23T21:07:54Z</time>
      </trkpt>
      <trkpt lat="48.84" lon="2.3357">
        <ele>63</ele>
        <time>2015-11-23T21:07:58Z</time>
      </trkpt>
      <trkpt lat="48.83991" lon="2.33597">
        <ele>61.79999923706</ele>
        <time>2015-11-23T21:08:02Z</time>
      </trkpt>
      <trkpt lat="48.83981" lon="2.33623">
        <ele>60.599998474121</ele>
        <time>2015-11-23T21:08:07Z</time>
      </trkpt>
      <trkpt lat="48.83981" lon="2.33633">
        <ele>60.79999923706</ele>
        <time>2015-11-23T21:08:11Z</time>
      </trkpt>
      <trkpt lat="48.83977" lon="2.33641">
        <ele>61</ele>
        <time>2015-11-23T21:09:06Z</time>
      </trkpt>
      <trkpt lat="48.83981" lon="2.33672">
        <ele>61.599998474121</ele>
        <time>2015-11-23T21:09:16Z</time>
      </trkpt>
      <trkpt lat="48.83998" lon="2.33688">
        <ele>62.20000076294</ele>
        <time>2015-11-23T21:09:22Z</time>
      </trkpt>
      <trkpt lat="48.84016" lon="2.33695">
        <ele>62.599998474121</ele>
        <time>2015-11-23T21:09:28Z</time>
      </trkpt>
      <trkpt lat="48.84034" lon="2.33703">
        <ele>62.599998474121</ele>
        <time>2015-11-23T21:09:33Z</time>
      </trkpt>
      <trkpt lat="48.84052" lon="2.33715">
        <ele>62.20000076294</ele>
        <time>2015-11-23T21:09:38Z</time>
      </trkpt>
      <trkpt lat="48.8407" lon="2.33726">
        <ele>61.79999923706</ele>
        <time>2015-11-23T21:09:42Z</time>
      </trkpt>
      <trkpt lat="48.84089" lon="2.33735">
        <ele>61.400001525879</ele>
        <time>2015-11-23T21:09:46Z</time>
      </trkpt>
      <trkpt lat="48.84109" lon="2.33744">
        <ele>61.20000076294</ele>
        <time>2015-11-23T21:09:50Z</time>
      </trkpt>
      <trkpt lat="48.84132" lon="2.33757">
        <ele>62.20000076294</ele>
        <time>2015-11-23T21:09:54Z</time>
      </trkpt>
      <trkpt lat="48.84149" lon="2.33767">
        <ele>63</ele>
        <time>2015-11-23T21:09:57Z</time>
      </trkpt>
      <trkpt lat="48.84166" lon="2.33775">
        <ele>63.79999923706</ele>
        <time>2015-11-23T21:10:00Z</time>
      </trkpt>
      <trkpt lat="48.84178" lon="2.33781">
        <ele>64.400001525879</ele>
        <time>2015-11-23T21:10:02Z</time>
      </trkpt>
      <trkpt lat="48.84195" lon="2.33789">
        <ele>64.599998474121</ele>
        <time>2015-11-23T21:10:05Z</time>
      </trkpt>
      <trkpt lat="48.84213" lon="2.33797">
        <ele>63.79999923706</ele>
        <time>2015-11-23T21:10:08Z</time>
      </trkpt>
      <trkpt lat="48.84236" lon="2.33805">
        <ele>62.599998474121</ele>
        <time>2015-11-23T21:10:12Z</time>
      </trkpt>
      <trkpt lat="48.84258" lon="2.33817">
        <ele>61.599998474121</ele>
        <time>2015-11-23T21:10:16Z</time>
      </trkpt>
      <trkpt lat="48.8428" lon="2.33829">
        <ele>61.20000076294</ele>
        <time>2015-11-23T21:10:20Z</time>
      </trkpt>
      <trkpt lat="48.84299" lon="2.33838">
        <ele>61.400001525879</ele>
        <time>2015-11-23T21:10:24Z</time>
      </trkpt>
      <trkpt lat="48.84309" lon="2.3384">
        <ele>61.599998474121</ele>
        <time>2015-11-23T21:10:26Z</time>
      </trkpt>
      <trkpt lat="48.84332" lon="2.33846">
        <ele>62</ele>
        <time>2015-11-23T21:10:30Z</time>
      </trkpt>
      <trkpt lat="48.84354" lon="2.33855">
        <ele>62.20000076294</ele>
        <time>2015-11-23T21:10:34Z</time>
      </trkpt>
      <trkpt lat="48.84373" lon="2.33862">
        <ele>62.599998474121</ele>
        <time>2015-11-23T21:10:37Z</time>
      </trkpt>
      <trkpt lat="48.84381" lon="2.33863">
        <ele>62.79999923706</ele>
        <time>2015-11-23T21:10:38Z</time>
      </trkpt>
      <trkpt lat="48.84401" lon="2.33871">
        <ele>62.79999923706</ele>
        <time>2015-11-23T21:10:41Z</time>
      </trkpt>
      <trkpt lat="48.84421" lon="2.33879">
        <ele>62.20000076294</ele>
        <time>2015-11-23T21:10:44Z</time>
      </trkpt>
      <trkpt lat="48.84439" lon="2.33891">
        <ele>61.79999923706</ele>
        <time>2015-11-23T21:10:47Z</time>
      </trkpt>
      <trkpt lat="48.84457" lon="2.33902">
        <ele>61.20000076294</ele>
        <time>2015-11-23T21:10:50Z</time>
      </trkpt>
      <trkpt lat="48.8448" lon="2.33913">
        <ele>60.599998474121</ele>
        <time>2015-11-23T21:10:54Z</time>
      </trkpt>
      <trkpt lat="48.84498" lon="2.33921">
        <ele>60.599998474121</ele>
        <time>2015-11-23T21:10:57Z</time>
      </trkpt>
      <trkpt lat="48.84516" lon="2.3393">
        <ele>60.599998474121</ele>
        <time>2015-11-23T21:11:00Z</time>
      </trkpt>
      <trkpt lat="48.84522" lon="2.33934">
        <ele>60.79999923706</ele>
        <time>2015-11-23T21:11:01Z</time>
      </trkpt>
      <trkpt lat="48.84539" lon="2.33947">
        <ele>61</ele>
        <time>2015-11-23T21:11:04Z</time>
      </trkpt>
      <trkpt lat="48.84556" lon="2.33957">
        <ele>61</ele>
        <time>2015-11-23T21:11:07Z</time>
      </trkpt>
      <trkpt lat="48.84578" lon="2.3397">
        <ele>61</ele>
        <time>2015-11-23T21:11:11Z</time>
      </trkpt>
      <trkpt lat="48.84597" lon="2.33983">
        <ele>61</ele>
        <time>2015-11-23T21:11:15Z</time>
      </trkpt>
      <trkpt lat="48.84614" lon="2.33996">
        <ele>60.79999923706</ele>
        <time>2015-11-23T21:11:20Z</time>
      </trkpt>
      <trkpt lat="48.84627" lon="2.34006">
        <ele>60.400001525879</ele>
        <time>2015-11-23T21:11:24Z</time>
      </trkpt>
      <trkpt lat="48.84644" lon="2.34017">
        <ele>59.599998474121</ele>
        <time>2015-11-23T21:11:29Z</time>
      </trkpt>
      <trkpt lat="48.84662" lon="2.34033">
        <ele>59.20000076294</ele>
        <time>2015-11-23T21:11:34Z</time>
      </trkpt>
      <trkpt lat="48.84668" lon="2.34038">
        <ele>59</ele>
        <time>2015-11-23T21:11:36Z</time>
      </trkpt>
      <trkpt lat="48.84683" lon="2.34051">
        <ele>58.400001525879</ele>
        <time>2015-11-23T21:11:42Z</time>
      </trkpt>
      <trkpt lat="48.84696" lon="2.34057">
        <ele>58.20000076294</ele>
        <time>2015-11-23T21:11:47Z</time>
      </trkpt>
      <trkpt lat="48.8471" lon="2.34061">
        <ele>58.20000076294</ele>
        <time>2015-11-23T21:11:52Z</time>
      </trkpt>
      <trkpt lat="48.84727" lon="2.34074">
        <ele>59</ele>
        <time>2015-11-23T21:11:59Z</time>
      </trkpt>
      <trkpt lat="48.84731" lon="2.34082">
        <ele>59.599998474121</ele>
        <time>2015-11-23T21:12:03Z</time>
      </trkpt>
      <trkpt lat="48.84725" lon="2.34112">
        <ele>60.400001525879</ele>
        <time>2015-11-23T21:12:26Z</time>
      </trkpt>
      <trkpt lat="48.84718" lon="2.3414">
        <ele>62.400001525879</ele>
        <time>2015-11-23T21:12:33Z</time>
      </trkpt>
      <trkpt lat="48.84711" lon="2.34168">
        <ele>64.599998474121</ele>
        <time>2015-11-23T21:12:39Z</time>
      </trkpt>
      <trkpt lat="48.84707" lon="2.34198">
        <ele>65.599998474121</ele>
        <time>2015-11-23T21:12:45Z</time>
      </trkpt>
      <trkpt lat="48.84701" lon="2.34223">
        <ele>66.199996948242</ele>
        <time>2015-11-23T21:12:51Z</time>
      </trkpt>
      <trkpt lat="48.84694" lon="2.34252">
        <ele>66.800003051758</ele>
        <time>2015-11-23T21:12:57Z</time>
      </trkpt>
      <trkpt lat="48.84685" lon="2.34281">
        <ele>66.800003051758</ele>
        <time>2015-11-23T21:13:03Z</time>
      </trkpt>
      <trkpt lat="48.84677" lon="2.34308">
        <ele>66.599998474121</ele>
        <time>2015-11-23T21:13:10Z</time>
      </trkpt>
      <trkpt lat="48.84672" lon="2.34337">
        <ele>66.599998474121</ele>
        <time>2015-11-23T21:13:18Z</time>
      </trkpt>
      <trkpt lat="48.84668" lon="2.34365">
        <ele>66.400001525879</ele>
        <time>2015-11-23T21:13:28Z</time>
      </trkpt>
      <trkpt lat="48.84665" lon="2.34392">
        <ele>66.199996948242</ele>
        <time>2015-11-23T21:13:35Z</time>
      </trkpt>
      <trkpt lat="48.8466" lon="2.3442">
        <ele>66</ele>
        <time>2015-11-23T21:13:42Z</time>
      </trkpt>
      <trkpt lat="48.84658" lon="2.3444">
        <ele>66.199996948242</ele>
        <time>2015-11-23T21:13:48Z</time>
      </trkpt>
      <trkpt lat="48.8467" lon="2.3446">
        <ele>65.599998474121</ele>
        <time>2015-11-23T21:13:57Z</time>
      </trkpt>
      <trkpt lat="48.84673" lon="2.34471">
        <ele>65.599998474121</ele>
        <time>2015-11-23T21:14:00Z</time>
      </trkpt>
      <trkpt lat="48.84683" lon="2.34498">
        <ele>65.199996948242</ele>
        <time>2015-11-23T21:14:07Z</time>
      </trkpt>
      <trkpt lat="48.8469" lon="2.34525">
        <ele>65.199996948242</ele>
        <time>2015-11-23T21:14:14Z</time>
      </trkpt>
      <trkpt lat="48.84695" lon="2.34552">
        <ele>65.199996948242</ele>
        <time>2015-11-23T21:14:21Z</time>
      </trkpt>
      <trkpt lat="48.84695" lon="2.34562">
        <ele>65.400001525879</ele>
        <time>2015-11-23T21:14:24Z</time>
      </trkpt>
      <trkpt lat="48.8469" lon="2.34574">
        <ele>65.800003051758</ele>
        <time>2015-11-23T21:14:28Z</time>
      </trkpt>
      <trkpt lat="48.84685" lon="2.34603">
        <ele>66.199996948242</ele>
        <time>2015-11-23T21:14:36Z</time>
      </trkpt>
      <trkpt lat="48.84677" lon="2.34631">
        <ele>66.400001525879</ele>
        <time>2015-11-23T21:14:43Z</time>
      </trkpt>
      <trkpt lat="48.84667" lon="2.34654">
        <ele>66</ele>
        <time>2015-11-23T21:14:50Z</time>
      </trkpt>
      <trkpt lat="48.84663" lon="2.34658">
        <ele>65.800003051758</ele>
        <time>2015-11-23T21:14:53Z</time>
      </trkpt>
      <trkpt lat="48.84668" lon="2.34651">
        <ele>66.199996948242</ele>
        <time>2015-11-23T21:14:59Z</time>
      </trkpt>
      <trkpt lat="48.8467" lon="2.3465">
        <ele>66.400001525879</ele>
        <time>2015-11-23T21:15:06Z</time>
      </trkpt>
      <trkpt lat="48.84673" lon="2.34651">
        <ele>66.400001525879</ele>
        <time>2015-11-23T21:15:10Z</time>
      </trkpt>
      <trkpt lat="48.84683" lon="2.34653">
        <ele>66.199996948242</ele>
        <time>2015-11-23T21:15:14Z</time>
      </trkpt>
      <trkpt lat="48.84702" lon="2.34652">
        <ele>65.199996948242</ele>
        <time>2015-11-23T21:15:22Z</time>
      </trkpt>
      <trkpt lat="48.84719" lon="2.34662">
        <ele>64.199996948242</ele>
        <time>2015-11-23T21:15:27Z</time>
      </trkpt>
      <trkpt lat="48.84737" lon="2.34674">
        <ele>63</ele>
        <time>2015-11-23T21:15:31Z</time>
      </trkpt>
      <trkpt lat="48.84757" lon="2.34684">
        <ele>61.599998474121</ele>
        <time>2015-11-23T21:15:35Z</time>
      </trkpt>
      <trkpt lat="48.84777" lon="2.34694">
        <ele>60.599998474121</ele>
        <time>2015-11-23T21:15:39Z</time>
      </trkpt>
      <trkpt lat="48.84794" lon="2.34703">
        <ele>60</ele>
        <time>2015-11-23T21:15:43Z</time>
      </trkpt>
      <trkpt lat="48.84812" lon="2.34707">
        <ele>59.599998474121</ele>
        <time>2015-11-23T21:15:50Z</time>
      </trkpt>
      <trkpt lat="48.84831" lon="2.34709">
        <ele>58.79999923706</ele>
        <time>2015-11-23T21:15:56Z</time>
      </trkpt>
      <trkpt lat="48.84849" lon="2.3472">
        <ele>58</ele>
        <time>2015-11-23T21:16:03Z</time>
      </trkpt>
      <trkpt lat="48.84867" lon="2.34737">
        <ele>57.20000076294</ele>
        <time>2015-11-23T21:16:08Z</time>
      </trkpt>
      <trkpt lat="48.84868" lon="2.3474">
        <ele>57.20000076294</ele>
        <time>2015-11-23T21:16:09Z</time>
      </trkpt>
      <trkpt lat="48.84875" lon="2.34744">
        <ele>56.79999923706</ele>
        <time>2015-11-23T21:16:13Z</time>
      </trkpt>
      <trkpt lat="48.84877" lon="2.34743">
        <ele>56.79999923706</ele>
        <time>2015-11-23T21:16:15Z</time>
      </trkpt>
      <trkpt lat="48.84879" lon="2.34749">
        <ele>56.599998474121</ele>
        <time>2015-11-23T21:17:19Z</time>
      </trkpt>
      <trkpt lat="48.84871" lon="2.34777">
        <ele>56.79999923706</ele>
        <time>2015-11-23T21:17:25Z</time>
      </trkpt>
      <trkpt lat="48.84863" lon="2.34806">
        <ele>58.599998474121</ele>
        <time>2015-11-23T21:17:30Z</time>
      </trkpt>
      <trkpt lat="48.84857" lon="2.34832">
        <ele>60</ele>
        <time>2015-11-23T21:17:34Z</time>
      </trkpt>
      <trkpt lat="48.84848" lon="2.34861">
        <ele>58.20000076294</ele>
        <time>2015-11-23T21:17:39Z</time>
      </trkpt>
      <trkpt lat="48.84837" lon="2.34888">
        <ele>56.599998474121</ele>
        <time>2015-11-23T21:17:44Z</time>
      </trkpt>
      <trkpt lat="48.84829" lon="2.34917">
        <ele>55.20000076294</ele>
        <time>2015-11-23T21:17:49Z</time>
      </trkpt>
      <trkpt lat="48.84821" lon="2.34944">
        <ele>53.599998474121</ele>
        <time>2015-11-23T21:17:54Z</time>
      </trkpt>
      <trkpt lat="48.84812" lon="2.3497">
        <ele>52.599998474121</ele>
        <time>2015-11-23T21:17:59Z</time>
      </trkpt>
      <trkpt lat="48.84802" lon="2.34995">
        <ele>52</ele>
        <time>2015-11-23T21:18:04Z</time>
      </trkpt>
      <trkpt lat="48.848" lon="2.35025">
        <ele>50.599998474121</ele>
        <time>2015-11-23T21:18:10Z</time>
      </trkpt>
      <trkpt lat="48.84799" lon="2.35032">
        <ele>50.400001525879</ele>
        <time>2015-11-23T21:18:13Z</time>
      </trkpt>
      <trkpt lat="48.84808" lon="2.35061">
        <ele>48.599998474121</ele>
        <time>2015-11-23T21:18:48Z</time>
      </trkpt>
      <trkpt lat="48.848" lon="2.35093">
        <ele>47.400001525879</ele>
        <time>2015-11-23T21:18:54Z</time>
      </trkpt>
      <trkpt lat="48.84788" lon="2.35115">
        <ele>46.20000076294</ele>
        <time>2015-11-23T21:18:58Z</time>
      </trkpt>
      <trkpt lat="48.84781" lon="2.35142">
        <ele>44.400001525879</ele>
        <time>2015-11-23T21:19:02Z</time>
      </trkpt>
      <trkpt lat="48.84772" lon="2.35168">
        <ele>43</ele>
        <time>2015-11-23T21:19:06Z</time>
      </trkpt>
      <trkpt lat="48.84762" lon="2.35191">
        <ele>42.79999923706</ele>
        <time>2015-11-23T21:19:10Z</time>
      </trkpt>
      <trkpt lat="48.84752" lon="2.35217">
        <ele>42.79999923706</ele>
        <time>2015-11-23T21:19:15Z</time>
      </trkpt>
      <trkpt lat="48.84746" lon="2.35235">
        <ele>42.79999923706</ele>
        <time>2015-11-23T21:19:19Z</time>
      </trkpt>
      <trkpt lat="48.84739" lon="2.35263">
        <ele>42.79999923706</ele>
        <time>2015-11-23T21:19:26Z</time>
      </trkpt>
      <trkpt lat="48.84733" lon="2.35272">
        <ele>43</ele>
        <time>2015-11-23T21:19:31Z</time>
      </trkpt>
      <trkpt lat="48.84739" lon="2.35281">
        <ele>42.20000076294</ele>
        <time>2015-11-23T21:21:07Z</time>
      </trkpt>
      <trkpt lat="48.84738" lon="2.35281">
        <ele>42.20000076294</ele>
        <time>2015-11-23T21:23:25Z</time>
      </trkpt>
      <trkpt lat="48.84743" lon="2.3531">
        <ele>40.79999923706</ele>
        <time>2015-11-23T21:23:33Z</time>
      </trkpt>
      <trkpt lat="48.84751" lon="2.35335">
        <ele>39.20000076294</ele>
        <time>2015-11-23T21:23:40Z</time>
      </trkpt>
      <trkpt lat="48.84767" lon="2.35355">
        <ele>38</ele>
        <time>2015-11-23T21:23:45Z</time>
      </trkpt>
      <trkpt lat="48.84781" lon="2.35376">
        <ele>37.79999923706</ele>
        <time>2015-11-23T21:23:50Z</time>
      </trkpt>
      <trkpt lat="48.84795" lon="2.35401">
        <ele>38.20000076294</ele>
        <time>2015-11-23T21:23:55Z</time>
      </trkpt>
      <trkpt lat="48.84812" lon="2.35424">
        <ele>38.79999923706</ele>
        <time>2015-11-23T21:24:00Z</time>
      </trkpt>
      <trkpt lat="48.84827" lon="2.35449">
        <ele>39.20000076294</ele>
        <time>2015-11-23T21:24:05Z</time>
      </trkpt>
      <trkpt lat="48.8484" lon="2.35469">
        <ele>39.599998474121</ele>
        <time>2015-11-23T21:24:09Z</time>
      </trkpt>
      <trkpt lat="48.84854" lon="2.35492">
        <ele>40</ele>
        <time>2015-11-23T21:24:14Z</time>
      </trkpt>
      <trkpt lat="48.84859" lon="2.35499">
        <ele>40</ele>
        <time>2015-11-23T21:24:16Z</time>
      </trkpt>
      <trkpt lat="48.84872" lon="2.35522">
        <ele>38.599998474121</ele>
        <time>2015-11-23T21:24:21Z</time>
      </trkpt>
      <trkpt lat="48.84882" lon="2.3554">
        <ele>37.599998474121</ele>
        <time>2015-11-23T21:24:26Z</time>
      </trkpt>
      <trkpt lat="48.84898" lon="2.35558">
        <ele>36.599998474121</ele>
        <time>2015-11-23T21:24:30Z</time>
      </trkpt>
      <trkpt lat="48.84912" lon="2.35568">
        <ele>36</ele>
        <time>2015-11-23T21:24:32Z</time>
      </trkpt>
      <trkpt lat="48.84926" lon="2.35584">
        <ele>35</ele>
        <time>2015-11-23T21:24:35Z</time>
      </trkpt>
      <trkpt lat="48.84931" lon="2.35592">
        <ele>34.79999923706</ele>
        <time>2015-11-23T21:24:40Z</time>
      </trkpt>
      <trkpt lat="48.84931" lon="2.35592">
        <ele>34.599998474121</ele>
        <time>2015-11-23T21:24:41Z</time>
      </trkpt>
      <trkpt lat="48.84938" lon="2.35592">
        <ele>34.599998474121</ele>
        <time>2015-11-23T21:24:53Z</time>
      </trkpt>
      <trkpt lat="48.84955" lon="2.35609">
        <ele>33.79999923706</ele>
        <time>2015-11-23T21:25:13Z</time>
      </trkpt>
      <trkpt lat="48.84966" lon="2.35605">
        <ele>33.79999923706</ele>
        <time>2015-11-23T21:25:51Z</time>
      </trkpt>
      <trkpt lat="48.84979" lon="2.35583">
        <ele>33.20000076294</ele>
        <time>2015-11-23T21:25:56Z</time>
      </trkpt>
      <trkpt lat="48.84988" lon="2.35553">
        <ele>35.79999923706</ele>
        <time>2015-11-23T21:26:01Z</time>
      </trkpt>
      <trkpt lat="48.84994" lon="2.35522">
        <ele>36.599998474121</ele>
        <time>2015-11-23T21:26:06Z</time>
      </trkpt>
      <trkpt lat="48.84999" lon="2.35492">
        <ele>37</ele>
        <time>2015-11-23T21:26:12Z</time>
      </trkpt>
      <trkpt lat="48.85007" lon="2.35464">
        <ele>37.599998474121</ele>
        <time>2015-11-23T21:26:17Z</time>
      </trkpt>
      <trkpt lat="48.85015" lon="2.35436">
        <ele>38.400001525879</ele>
        <time>2015-11-23T21:26:21Z</time>
      </trkpt>
      <trkpt lat="48.85024" lon="2.35403">
        <ele>39</ele>
        <time>2015-11-23T21:26:25Z</time>
      </trkpt>
      <trkpt lat="48.85031" lon="2.35376">
        <ele>38.599998474121</ele>
        <time>2015-11-23T21:26:28Z</time>
      </trkpt>
      <trkpt lat="48.85039" lon="2.35351">
        <ele>38.400001525879</ele>
        <time>2015-11-23T21:26:31Z</time>
      </trkpt>
      <trkpt lat="48.85047" lon="2.35326">
        <ele>36.599998474121</ele>
        <time>2015-11-23T21:26:34Z</time>
      </trkpt>
      <trkpt lat="48.85054" lon="2.353">
        <ele>36.79999923706</ele>
        <time>2015-11-23T21:26:37Z</time>
      </trkpt>
      <trkpt lat="48.85064" lon="2.35268">
        <ele>35.599998474121</ele>
        <time>2015-11-23T21:26:41Z</time>
      </trkpt>
      <trkpt lat="48.85071" lon="2.35243">
        <ele>34</ele>
        <time>2015-11-23T21:26:44Z</time>
      </trkpt>
      <trkpt lat="48.85081" lon="2.35211">
        <ele>33.599998474121</ele>
        <time>2015-11-23T21:26:48Z</time>
      </trkpt>
      <trkpt lat="48.85093" lon="2.35182">
        <ele>34.400001525879</ele>
        <time>2015-11-23T21:26:52Z</time>
      </trkpt>
      <trkpt lat="48.85102" lon="2.35153">
        <ele>34.79999923706</ele>
        <time>2015-11-23T21:26:56Z</time>
      </trkpt>
      <trkpt lat="48.85113" lon="2.35127">
        <ele>35.79999923706</ele>
        <time>2015-11-23T21:27:01Z</time>
      </trkpt>
      <trkpt lat="48.85118" lon="2.35117">
        <ele>36</ele>
        <time>2015-11-23T21:27:05Z</time>
      </trkpt>
      <trkpt lat="48.85119" lon="2.35118">
        <ele>36</ele>
        <time>2015-11-23T21:27:07Z</time>
      </trkpt>
      <trkpt lat="48.85129" lon="2.3513">
        <ele>34.599998474121</ele>
        <time>2015-11-23T21:27:14Z</time>
      </trkpt>
      <trkpt lat="48.85147" lon="2.35144">
        <ele>32.79999923706</ele>
        <time>2015-11-23T21:27:22Z</time>
      </trkpt>
      <trkpt lat="48.85164" lon="2.35151">
        <ele>31.200000762939</ele>
        <time>2015-11-23T21:27:29Z</time>
      </trkpt>
      <trkpt lat="48.85184" lon="2.35161">
        <ele>29.60000038147</ele>
        <time>2015-11-23T21:27:34Z</time>
      </trkpt>
      <trkpt lat="48.85201" lon="2.35172">
        <ele>30.39999961853</ele>
        <time>2015-11-23T21:27:39Z</time>
      </trkpt>
      <trkpt lat="48.8522" lon="2.35185">
        <ele>32.400001525879</ele>
        <time>2015-11-23T21:27:44Z</time>
      </trkpt>
      <trkpt lat="48.85239" lon="2.35198">
        <ele>34.400001525879</ele>
        <time>2015-11-23T21:27:49Z</time>
      </trkpt>
      <trkpt lat="48.85259" lon="2.35209">
        <ele>36.79999923706</ele>
        <time>2015-11-23T21:27:54Z</time>
      </trkpt>
      <trkpt lat="48.8528" lon="2.35211">
        <ele>38.400001525879</ele>
        <time>2015-11-23T21:27:59Z</time>
      </trkpt>
      <trkpt lat="48.853" lon="2.35209">
        <ele>37.79999923706</ele>
        <time>2015-11-23T21:28:03Z</time>
      </trkpt>
      <trkpt lat="48.85319" lon="2.35207">
        <ele>37.599998474121</ele>
        <time>2015-11-23T21:28:07Z</time>
      </trkpt>
      <trkpt lat="48.85338" lon="2.352">
        <ele>39.400001525879</ele>
        <time>2015-11-23T21:28:11Z</time>
      </trkpt>
      <trkpt lat="48.85354" lon="2.35194">
        <ele>41</ele>
        <time>2015-11-23T21:28:14Z</time>
      </trkpt>
      <trkpt lat="48.85371" lon="2.3518">
        <ele>41.20000076294</ele>
        <time>2015-11-23T21:28:17Z</time>
      </trkpt>
      <trkpt lat="48.85392" lon="2.35163">
        <ele>39.400001525879</ele>
        <time>2015-11-23T21:28:21Z</time>
      </trkpt>
      <trkpt lat="48.85411" lon="2.35147">
        <ele>36.599998474121</ele>
        <time>2015-11-23T21:28:25Z</time>
      </trkpt>
      <trkpt lat="48.85426" lon="2.35132">
        <ele>35.79999923706</ele>
        <time>2015-11-23T21:28:28Z</time>
      </trkpt>
      <trkpt lat="48.8544" lon="2.35113">
        <ele>36.400001525879</ele>
        <time>2015-11-23T21:28:32Z</time>
      </trkpt>
      <trkpt lat="48.85455" lon="2.35091">
        <ele>37.599998474121</ele>
        <time>2015-11-23T21:28:36Z</time>
      </trkpt>
      <trkpt lat="48.85465" lon="2.35077">
        <ele>37.79999923706</ele>
        <time>2015-11-23T21:28:39Z</time>
      </trkpt>
      <trkpt lat="48.8548" lon="2.35054">
        <ele>38.20000076294</ele>
        <time>2015-11-23T21:28:44Z</time>
      </trkpt>
      <trkpt lat="48.85493" lon="2.35034">
        <ele>39</ele>
        <time>2015-11-23T21:28:49Z</time>
      </trkpt>
      <trkpt lat="48.855" lon="2.35028">
        <ele>39.20000076294</ele>
        <time>2015-11-23T21:28:52Z</time>
      </trkpt>
      <trkpt lat="48.85507" lon="2.35024">
        <ele>39.400001525879</ele>
        <time>2015-11-23T21:28:56Z</time>
      </trkpt>
      <trkpt lat="48.8551" lon="2.35021">
        <ele>39.400001525879</ele>
        <time>2015-11-23T21:28:58Z</time>
      </trkpt>
      <trkpt lat="48.85511" lon="2.35018">
        <ele>39.599998474121</ele>
        <time>2015-11-23T21:29:17Z</time>
      </trkpt>
      <trkpt lat="48.85518" lon="2.34993">
        <ele>41.20000076294</ele>
        <time>2015-11-23T21:29:22Z</time>
      </trkpt>
      <trkpt lat="48.85527" lon="2.34964">
        <ele>41</ele>
        <time>2015-11-23T21:29:27Z</time>
      </trkpt>
      <trkpt lat="48.85535" lon="2.34936">
        <ele>40.79999923706</ele>
        <time>2015-11-23T21:29:32Z</time>
      </trkpt>
      <trkpt lat="48.85543" lon="2.34908">
        <ele>42.599998474121</ele>
        <time>2015-11-23T21:29:37Z</time>
      </trkpt>
      <trkpt lat="48.85551" lon="2.34881">
        <ele>41.79999923706</ele>
        <time>2015-11-23T21:29:42Z</time>
      </trkpt>
      <trkpt lat="48.85558" lon="2.34854">
        <ele>40</ele>
        <time>2015-11-23T21:29:48Z</time>
      </trkpt>
      <trkpt lat="48.85569" lon="2.34834">
        <ele>37.20000076294</ele>
        <time>2015-11-23T21:30:18Z</time>
      </trkpt>
      <trkpt lat="48.85572" lon="2.34806">
        <ele>35.20000076294</ele>
        <time>2015-11-23T21:30:24Z</time>
      </trkpt>
      <trkpt lat="48.8558" lon="2.34777">
        <ele>34.599998474121</ele>
        <time>2015-11-23T21:30:29Z</time>
      </trkpt>
      <trkpt lat="48.85589" lon="2.3475">
        <ele>34.79999923706</ele>
        <time>2015-11-23T21:30:33Z</time>
      </trkpt>
      <trkpt lat="48.85598" lon="2.34721">
        <ele>39</ele>
        <time>2015-11-23T21:30:37Z</time>
      </trkpt>
      <trkpt lat="48.85605" lon="2.34691">
        <ele>43.79999923706</ele>
        <time>2015-11-23T21:30:41Z</time>
      </trkpt>
      <trkpt lat="48.85614" lon="2.34664">
        <ele>47.400001525879</ele>
        <time>2015-11-23T21:30:46Z</time>
      </trkpt>
      <trkpt lat="48.85621" lon="2.34649">
        <ele>46.79999923706</ele>
        <time>2015-11-23T21:30:51Z</time>
      </trkpt>
      <trkpt lat="48.85635" lon="2.34634">
        <ele>45.599998474121</ele>
        <time>2015-11-23T21:31:00Z</time>
      </trkpt>
      <trkpt lat="48.85653" lon="2.34649">
        <ele>44</ele>
        <time>2015-11-23T21:31:06Z</time>
      </trkpt>
      <trkpt lat="48.85663" lon="2.34656">
        <ele>43.20000076294</ele>
        <time>2015-11-23T21:31:09Z</time>
      </trkpt>
      <trkpt lat="48.85684" lon="2.34668">
        <ele>41.400001525879</ele>
        <time>2015-11-23T21:31:14Z</time>
      </trkpt>
      <trkpt lat="48.85703" lon="2.3468">
        <ele>40.79999923706</ele>
        <time>2015-11-23T21:31:19Z</time>
      </trkpt>
      <trkpt lat="48.85718" lon="2.34684">
        <ele>40.400001525879</ele>
        <time>2015-11-23T21:31:23Z</time>
      </trkpt>
      <trkpt lat="48.85736" lon="2.34682">
        <ele>39.400001525879</ele>
        <time>2015-11-23T21:31:57Z</time>
      </trkpt>
      <trkpt lat="48.85755" lon="2.34692">
        <ele>38.79999923706</ele>
        <time>2015-11-23T21:32:03Z</time>
      </trkpt>
      <trkpt lat="48.85775" lon="2.34704">
        <ele>38.599998474121</ele>
        <time>2015-11-23T21:32:09Z</time>
      </trkpt>
      <trkpt lat="48.85792" lon="2.34714">
        <ele>40.400001525879</ele>
        <time>2015-11-23T21:32:13Z</time>
      </trkpt>
      <trkpt lat="48.8581" lon="2.34723">
        <ele>42.20000076294</ele>
        <time>2015-11-23T21:32:17Z</time>
      </trkpt>
      <trkpt lat="48.85831" lon="2.34727">
        <ele>44.20000076294</ele>
        <time>2015-11-23T21:32:21Z</time>
      </trkpt>
      <trkpt lat="48.8585" lon="2.34728">
        <ele>46.599998474121</ele>
        <time>2015-11-23T21:32:25Z</time>
      </trkpt>
      <trkpt lat="48.85871" lon="2.34731">
        <ele>46.79999923706</ele>
        <time>2015-11-23T21:32:29Z</time>
      </trkpt>
      <trkpt lat="48.8588" lon="2.34731">
        <ele>46.599998474121</ele>
        <time>2015-11-23T21:32:31Z</time>
      </trkpt>
      <trkpt lat="48.85892" lon="2.3473">
        <ele>46.20000076294</ele>
        <time>2015-11-23T21:32:34Z</time>
      </trkpt>
      <trkpt lat="48.85908" lon="2.34721">
        <ele>45.79999923706</ele>
        <time>2015-11-23T21:32:38Z</time>
      </trkpt>
      <trkpt lat="48.85917" lon="2.34716">
        <ele>45.599998474121</ele>
        <time>2015-11-23T21:32:40Z</time>
      </trkpt>
      <trkpt lat="48.85935" lon="2.34703">
        <ele>45.79999923706</ele>
        <time>2015-11-23T21:32:45Z</time>
      </trkpt>
      <trkpt lat="48.85944" lon="2.34701">
        <ele>45.79999923706</ele>
        <time>2015-11-23T21:32:48Z</time>
      </trkpt>
      <trkpt lat="48.85956" lon="2.34706">
        <ele>45.599998474121</ele>
        <time>2015-11-23T21:32:56Z</time>
      </trkpt>
      <trkpt lat="48.85956" lon="2.34708">
        <ele>45.599998474121</ele>
        <time>2015-11-23T21:32:57Z</time>
      </trkpt>
      <trkpt lat="48.85956" lon="2.3471">
        <ele>45.599998474121</ele>
        <time>2015-11-23T21:33:00Z</time>
      </trkpt>
    </trkseg>
  </trk>
</gpx>